You are on page 1of 116

type time latitude longitude altitude (m) color width opacity name

desc
T 2017-11-26 18:55:49 37.296330000 -122.013580000 78.7 #ec892a
8 0.87 Track <p>Start: Nov 26, 2017 10:55:49 AM End: Nov 26, 2017
12:05:17 PM Duration: 1h09'28" Elements: 3415 Length: 90.6km Avg Speed: 78.3km h
Max Speed: 131km h Low: -5.40m High: 196m Gain: 998m</p>
T 2017-11-26 18:56:37 37.296364000 -122.013590000 79.5

T 2017-11-26 18:56:40 37.296400000 -122.013596000 82.0

T 2017-11-26 18:56:44 37.296440000 -122.013590000 82.7

T 2017-11-26 18:56:47 37.296480000 -122.013596000 79.1

T 2017-11-26 18:56:52 37.296497000 -122.013560000 78.4

T 2017-11-26 18:56:53 37.296497000 -122.013504000 78.8

T 2017-11-26 18:56:54 37.296500000 -122.013450000 79.2

T 2017-11-26 18:56:55 37.296500000 -122.013390000 78.9

T 2017-11-26 18:56:56 37.296500000 -122.013336000 78.9

T 2017-11-26 18:56:57 37.296505000 -122.013280000 78.8

T 2017-11-26 18:56:58 37.296510000 -122.013230000 79.1

T 2017-11-26 18:56:59 37.296524000 -122.013176000 78.7

T 2017-11-26 18:57:01 37.296585000 -122.013100000 78.4

T 2017-11-26 18:57:02 37.296670000 -122.013090000 77.7

T 2017-11-26 18:57:04 37.296783000 -122.013084000 77.7

T 2017-11-26 18:57:05 37.296850000 -122.013080000 77.4

T 2017-11-26 18:57:06 37.296917000 -122.013070000 77.8

T 2017-11-26 18:57:07 37.296990000 -122.013070000 78.0

T 2017-11-26 18:57:08 37.297060000 -122.013054000 78.4

T 2017-11-26 18:57:09 37.297134000 -122.013050000 77.5

T 2017-11-26 18:57:10 37.297210000 -122.013040000 77.5

T 2017-11-26 18:57:11 37.297290000 -122.013030000 77.5

T 2017-11-26 18:57:13 37.297440000 -122.013010000 78.1

T 2017-11-26 18:57:15 37.297607000 -122.012985000 77.8

T 2017-11-26 18:57:16 37.297688000 -122.012970000 77.2

T 2017-11-26 18:57:17 37.297764000 -122.012960000 77.7

T 2017-11-26 18:57:18 37.297855000 -122.012955000 77.2
T 2017-11-26 18:57:19 37.297943000 -122.012955000 74.9

T 2017-11-26 18:57:21 37.298120000 -122.012940000 75.1

T 2017-11-26 18:57:22 37.298203000 -122.012930000 74.7

T 2017-11-26 18:57:24 37.298363000 -122.012910000 75.0

T 2017-11-26 18:57:25 37.298450000 -122.012900000 75.1

T 2017-11-26 18:57:26 37.298542000 -122.012900000 76.5

T 2017-11-26 18:57:27 37.298626000 -122.012890000 76.1

T 2017-11-26 18:57:28 37.298717000 -122.012890000 75.9

T 2017-11-26 18:57:29 37.298805000 -122.012890000 75.9

T 2017-11-26 18:57:30 37.298893000 -122.012880000 74.4

T 2017-11-26 18:57:31 37.298973000 -122.012880000 74.6

T 2017-11-26 18:57:32 37.299046000 -122.012880000 74.3

T 2017-11-26 18:57:33 37.299103000 -122.012860000 74.5

T 2017-11-26 18:57:35 37.299140000 -122.012810000 73.6

T 2017-11-26 18:57:36 37.299164000 -122.012764000 74.8

T 2017-11-26 18:57:37 37.299170000 -122.012700000 73.1

T 2017-11-26 18:57:38 37.299180000 -122.012634000 72.5

T 2017-11-26 18:57:39 37.299164000 -122.012530000 72.3

T 2017-11-26 18:57:40 37.299156000 -122.012436000 72.0

T 2017-11-26 18:57:41 37.299152000 -122.012320000 71.7

T 2017-11-26 18:57:42 37.299152000 -122.012220000 71.7

T 2017-11-26 18:57:43 37.299152000 -122.012146000 71.6

T 2017-11-26 18:57:44 37.299150000 -122.012085000 71.8

T 2017-11-26 18:57:45 37.299150000 -122.012050000 71.7

T 2017-11-26 18:57:47 37.299168000 -122.011990000 70.3

T 2017-11-26 18:57:48 37.299190000 -122.011980000 69.8

T 2017-11-26 18:57:49 37.299230000 -122.011955000 69.8

T 2017-11-26 18:57:50 37.299267000 -122.011920000 71.1

T 2017-11-26 18:57:51 37.299343000 -122.011910000 69.0
T 2017-11-26 18:57:52 37.299416000 -122.011900000 68.8

T 2017-11-26 18:57:53 37.299534000 -122.011920000 68.7

T 2017-11-26 18:57:54 37.299633000 -122.011920000 68.5

T 2017-11-26 18:57:55 37.299744000 -122.011925000 68.7

T 2017-11-26 18:57:56 37.299854000 -122.011930000 68.2

T 2017-11-26 18:57:57 37.299965000 -122.011925000 68.6

T 2017-11-26 18:57:58 37.300080000 -122.011925000 68.0

T 2017-11-26 18:57:59 37.300198000 -122.011920000 68.0

T 2017-11-26 18:58:00 37.300304000 -122.011900000 67.4

T 2017-11-26 18:58:01 37.300430000 -122.011880000 67.2

T 2017-11-26 18:58:02 37.300530000 -122.011856000 67.0

T 2017-11-26 18:58:03 37.300640000 -122.011840000 65.9

T 2017-11-26 18:58:04 37.300747000 -122.011830000 64.6

T 2017-11-26 18:58:06 37.300934000 -122.011820000 64.0

T 2017-11-26 18:58:07 37.301000000 -122.011810000 64.7

T 2017-11-26 18:58:08 37.301075000 -122.011820000 64.7

T 2017-11-26 18:58:09 37.301113000 -122.011795000 64.4

T 2017-11-26 18:58:10 37.301140000 -122.011780000 64.5

T 2017-11-26 18:58:12 37.301178000 -122.011740000 65.2

T 2017-11-26 18:58:13 37.301200000 -122.011710000 65.0

T 2017-11-26 18:58:14 37.301220000 -122.011650000 64.5

T 2017-11-26 18:58:15 37.301220000 -122.011570000 64.6

T 2017-11-26 18:58:17 37.301205000 -122.011375000 64.6

T 2017-11-26 18:58:18 37.301186000 -122.011250000 64.4

T 2017-11-26 18:58:19 37.301147000 -122.011110000 65.2

T 2017-11-26 18:58:20 37.301105000 -122.010970000 65.4

T 2017-11-26 18:58:21 37.301056000 -122.010826000 65.6

T 2017-11-26 18:58:22 37.301006000 -122.010680000 65.9

T 2017-11-26 18:58:23 37.300950000 -122.010530000 65.6

T 2017-11-26 18:58:24 37.300888000 -122.010370000 66.0
T 2017-11-26 18:58:26 37.300762000 -122.010030000 66.0

T 2017-11-26 18:58:27 37.300697000 -122.009865000 66.2

T 2017-11-26 18:58:28 37.300630000 -122.009700000 65.9

T 2017-11-26 18:58:29 37.300564000 -122.009520000 65.7

T 2017-11-26 18:58:30 37.300503000 -122.009350000 65.9

T 2017-11-26 18:58:31 37.300438000 -122.009190000 65.5

T 2017-11-26 18:58:32 37.300380000 -122.009026000 65.9

T 2017-11-26 18:58:33 37.300316000 -122.008865000 66.0

T 2017-11-26 18:58:34 37.300260000 -122.008705000 66.1

T 2017-11-26 18:58:35 37.300200000 -122.008560000 65.8

T 2017-11-26 18:58:36 37.300148000 -122.008415000 65.9

T 2017-11-26 18:58:37 37.300095000 -122.008270000 65.3

T 2017-11-26 18:58:38 37.300045000 -122.008130000 65.3

T 2017-11-26 18:58:39 37.300000000 -122.008000000 65.2

T 2017-11-26 18:58:40 37.299950000 -122.007866000 65.5

T 2017-11-26 18:58:41 37.299904000 -122.007730000 65.9

T 2017-11-26 18:58:42 37.299870000 -122.007610000 66.3

T 2017-11-26 18:58:44 37.299800000 -122.007410000 66.9

T 2017-11-26 18:58:45 37.299774000 -122.007340000 67.4

T 2017-11-26 18:58:46 37.299755000 -122.007280000 68.1

T 2017-11-26 18:58:47 37.299740000 -122.007225000 68.7

T 2017-11-26 18:58:48 37.299732000 -122.007195000 68.7

T 2017-11-26 18:58:50 37.299720000 -122.007150000 68.1

T 2017-11-26 18:58:52 37.299713000 -122.007065000 68.5

T 2017-11-26 18:58:53 37.299725000 -122.007000000 68.6

T 2017-11-26 18:58:54 37.299760000 -122.006940000 67.9

T 2017-11-26 18:58:55 37.299800000 -122.006874000 68.3

T 2017-11-26 18:58:56 37.299866000 -122.006850000 68.3

T 2017-11-26 18:58:57 37.299973000 -122.006830000 68.1
T 2017-11-26 18:58:58 37.300060000 -122.006800000 68.0

T 2017-11-26 18:58:59 37.300150000 -122.006770000 67.6

T 2017-11-26 18:59:00 37.300240000 -122.006740000 68.2

T 2017-11-26 18:59:01 37.300327000 -122.006710000 68.5

T 2017-11-26 18:59:03 37.300495000 -122.006645000 68.9

T 2017-11-26 18:59:04 37.300580000 -122.006615000 69.3

T 2017-11-26 18:59:05 37.300650000 -122.006584000 69.7

T 2017-11-26 18:59:06 37.300728000 -122.006560000 69.9

T 2017-11-26 18:59:07 37.300793000 -122.006540000 69.3

T 2017-11-26 18:59:08 37.300846000 -122.006520000 68.9

T 2017-11-26 18:59:09 37.300890000 -122.006510000 68.7

T 2017-11-26 18:59:10 37.300920000 -122.006490000 68.3

T 2017-11-26 18:59:12 37.300953000 -122.006480000 68.0

T 2017-11-26 18:59:14 37.301000000 -122.006470000 67.7

T 2017-11-26 18:59:17 37.301052000 -122.006440000 68.4

T 2017-11-26 18:59:19 37.301155000 -122.006400000 68.3

T 2017-11-26 18:59:20 37.301224000 -122.006380000 68.3

T 2017-11-26 18:59:21 37.301304000 -122.006350000 68.2

T 2017-11-26 18:59:22 37.301395000 -122.006310000 68.2

T 2017-11-26 18:59:23 37.301495000 -122.006270000 68.6

T 2017-11-26 18:59:24 37.301594000 -122.006240000 68.7

T 2017-11-26 18:59:25 37.301710000 -122.006200000 68.8

T 2017-11-26 18:59:26 37.301826000 -122.006165000 68.5

T 2017-11-26 18:59:27 37.301952000 -122.006130000 68.5

T 2017-11-26 18:59:28 37.302074000 -122.006080000 67.8

T 2017-11-26 18:59:29 37.302200000 -122.006040000 67.4

T 2017-11-26 18:59:30 37.302322000 -122.005990000 66.6

T 2017-11-26 18:59:31 37.302444000 -122.005950000 66.9

T 2017-11-26 18:59:32 37.302560000 -122.005905000 66.3

T 2017-11-26 18:59:33 37.302673000 -122.005860000 66.5
T 2017-11-26 18:59:34 37.302788000 -122.005810000 66.1

T 2017-11-26 18:59:35 37.302902000 -122.005770000 66.1

T 2017-11-26 18:59:37 37.303127000 -122.005680000 66.4

T 2017-11-26 18:59:38 37.303234000 -122.005640000 66.4

T 2017-11-26 18:59:39 37.303326000 -122.005610000 66.4

T 2017-11-26 18:59:40 37.303406000 -122.005570000 66.1

T 2017-11-26 18:59:41 37.303490000 -122.005550000 66.2

T 2017-11-26 18:59:42 37.303580000 -122.005510000 66.0

T 2017-11-26 18:59:43 37.303684000 -122.005480000 66.0

T 2017-11-26 18:59:44 37.303795000 -122.005430000 66.0

T 2017-11-26 18:59:45 37.303913000 -122.005390000 65.9

T 2017-11-26 18:59:46 37.304030000 -122.005340000 65.9

T 2017-11-26 18:59:47 37.304153000 -122.005300000 66.3

T 2017-11-26 18:59:48 37.304276000 -122.005264000 66.3

T 2017-11-26 18:59:49 37.304398000 -122.005226000 65.9

T 2017-11-26 18:59:50 37.304520000 -122.005180000 65.6

T 2017-11-26 18:59:51 37.304638000 -122.005130000 65.0

T 2017-11-26 18:59:52 37.304752000 -122.005080000 64.9

T 2017-11-26 18:59:53 37.304874000 -122.005035000 64.7

T 2017-11-26 18:59:54 37.304990000 -122.005000000 65.0

T 2017-11-26 18:59:56 37.305220000 -122.004906000 64.9

T 2017-11-26 18:59:57 37.305340000 -122.004860000 64.9

T 2017-11-26 18:59:58 37.305458000 -122.004814000 64.4

T 2017-11-26 18:59:59 37.305584000 -122.004770000 64.5

T 2017-11-26 19:00:00 37.305710000 -122.004720000 64.5

T 2017-11-26 19:00:01 37.305843000 -122.004680000 64.1

T 2017-11-26 19:00:02 37.305970000 -122.004630000 63.7

T 2017-11-26 19:00:03 37.306100000 -122.004585000 63.7

T 2017-11-26 19:00:04 37.306236000 -122.004530000 63.5
T 2017-11-26 19:00:05 37.306366000 -122.004480000 63.9

T 2017-11-26 19:00:06 37.306500000 -122.004425000 63.7

T 2017-11-26 19:00:07 37.306630000 -122.004370000 63.6

T 2017-11-26 19:00:08 37.306763000 -122.004320000 63.4

T 2017-11-26 19:00:09 37.306896000 -122.004270000 63.3

T 2017-11-26 19:00:10 37.307030000 -122.004220000 63.3

T 2017-11-26 19:00:11 37.307163000 -122.004166000 63.1

T 2017-11-26 19:00:12 37.307304000 -122.004110000 63.2

T 2017-11-26 19:00:13 37.307438000 -122.004060000 63.5

T 2017-11-26 19:00:14 37.307580000 -122.004005000 63.4

T 2017-11-26 19:00:16 37.307854000 -122.003900000 63.0

T 2017-11-26 19:00:17 37.308000000 -122.003850000 62.0

T 2017-11-26 19:00:18 37.308144000 -122.003800000 62.3

T 2017-11-26 19:00:19 37.308285000 -122.003746000 61.9

T 2017-11-26 19:00:20 37.308430000 -122.003690000 62.2

T 2017-11-26 19:00:21 37.308575000 -122.003640000 62.3

T 2017-11-26 19:00:22 37.308716000 -122.003586000 62.4

T 2017-11-26 19:00:23 37.308846000 -122.003530000 62.8

T 2017-11-26 19:00:24 37.308983000 -122.003480000 62.7

T 2017-11-26 19:00:25 37.309116000 -122.003430000 62.4

T 2017-11-26 19:00:26 37.309242000 -122.003380000 62.8

T 2017-11-26 19:00:28 37.309494000 -122.003280000 63.9

T 2017-11-26 19:00:29 37.309624000 -122.003230000 63.8

T 2017-11-26 19:00:30 37.309740000 -122.003180000 63.5

T 2017-11-26 19:00:31 37.309850000 -122.003136000 63.5

T 2017-11-26 19:00:32 37.309944000 -122.003090000 63.8

T 2017-11-26 19:00:33 37.310028000 -122.003050000 63.8

T 2017-11-26 19:00:34 37.310100000 -122.003020000 63.0

T 2017-11-26 19:00:35 37.310150000 -122.003000000 63.2

T 2017-11-26 19:00:36 37.310177000 -122.002975000 63.5
T 2017-11-26 19:00:49 37.310210000 -122.002914000 64.2

T 2017-11-26 19:00:51 37.310226000 -122.002815000 63.6

T 2017-11-26 19:00:52 37.310223000 -122.002716000 63.0

T 2017-11-26 19:00:53 37.310223000 -122.002590000 62.6

T 2017-11-26 19:00:54 37.310204000 -122.002440000 62.8

T 2017-11-26 19:00:55 37.310190000 -122.002270000 63.0

T 2017-11-26 19:00:56 37.310177000 -122.002100000 63.2

T 2017-11-26 19:00:57 37.310165000 -122.001910000 62.7

T 2017-11-26 19:00:58 37.310146000 -122.001720000 62.3

T 2017-11-26 19:00:59 37.310135000 -122.001526000 61.4

T 2017-11-26 19:01:00 37.310116000 -122.001320000 61.0

T 2017-11-26 19:01:02 37.310078000 -122.000916000 60.3

T 2017-11-26 19:01:03 37.310055000 -122.000720000 59.6

T 2017-11-26 19:01:04 37.310036000 -122.000510000 59.6

T 2017-11-26 19:01:05 37.310013000 -122.000305000 59.9

T 2017-11-26 19:01:06 37.310000000 -122.000114000 59.0

T 2017-11-26 19:01:07 37.309986000 -121.999930000 57.7

T 2017-11-26 19:01:08 37.309967000 -121.999740000 57.3

T 2017-11-26 19:01:09 37.309948000 -121.999560000 56.6

T 2017-11-26 19:01:10 37.309930000 -121.999374000 56.4

T 2017-11-26 19:01:11 37.309914000 -121.999200000 56.4

T 2017-11-26 19:01:12 37.309900000 -121.999020000 56.3

T 2017-11-26 19:01:13 37.309887000 -121.998856000 55.4

T 2017-11-26 19:01:15 37.309853000 -121.998510000 55.4

T 2017-11-26 19:01:16 37.309830000 -121.998350000 55.5

T 2017-11-26 19:01:17 37.309807000 -121.998184000 55.3

T 2017-11-26 19:01:18 37.309788000 -121.998024000 54.5

T 2017-11-26 19:01:19 37.309770000 -121.997880000 54.1

T 2017-11-26 19:01:20 37.309757000 -121.997734000 53.7
T 2017-11-26 19:01:21 37.309746000 -121.997580000 53.9

T 2017-11-26 19:01:22 37.309740000 -121.997440000 53.9

T 2017-11-26 19:01:23 37.309730000 -121.997310000 53.5

T 2017-11-26 19:01:24 37.309727000 -121.997185000 54.0

T 2017-11-26 19:01:25 37.309720000 -121.997070000 54.1

T 2017-11-26 19:01:26 37.309708000 -121.996970000 54.8

T 2017-11-26 19:01:28 37.309708000 -121.996810000 54.8

T 2017-11-26 19:01:29 37.309704000 -121.996735000 54.7

T 2017-11-26 19:01:30 37.309696000 -121.996666000 53.9

T 2017-11-26 19:01:31 37.309700000 -121.996620000 53.4

T 2017-11-26 19:01:33 37.309680000 -121.996560000 53.6

T 2017-11-26 19:01:34 37.309692000 -121.996600000 51.5

T 2017-11-26 19:01:43 37.309690000 -121.996590000 60.0

T 2017-11-26 19:01:45 37.309690000 -121.996590000 55.4

T 2017-11-26 19:02:32 37.309685000 -121.996530000 51.8

T 2017-11-26 19:02:34 37.309660000 -121.996376000 52.6

T 2017-11-26 19:02:35 37.309654000 -121.996284000 52.9

T 2017-11-26 19:02:36 37.309650000 -121.996190000 52.8

T 2017-11-26 19:02:37 37.309660000 -121.996090000 52.8

T 2017-11-26 19:02:38 37.309690000 -121.996020000 53.0

T 2017-11-26 19:02:39 37.309746000 -121.995964000 52.9

T 2017-11-26 19:02:40 37.309814000 -121.995920000 53.2

T 2017-11-26 19:02:41 37.309910000 -121.995895000 53.5

T 2017-11-26 19:02:42 37.310020000 -121.995865000 53.3

T 2017-11-26 19:02:43 37.310146000 -121.995834000 53.5

T 2017-11-26 19:02:44 37.310290000 -121.995800000 54.0

T 2017-11-26 19:02:46 37.310616000 -121.995740000 54.1

T 2017-11-26 19:02:47 37.310776000 -121.995720000 54.3

T 2017-11-26 19:02:48 37.310940000 -121.995700000 54.3

T 2017-11-26 19:02:49 37.311108000 -121.995690000 54.3
T 2017-11-26 19:02:50 37.311275000 -121.995680000 54.3

T 2017-11-26 19:02:51 37.311443000 -121.995680000 54.2

T 2017-11-26 19:02:52 37.311610000 -121.995674000 54.1

T 2017-11-26 19:02:53 37.311760000 -121.995680000 53.8

T 2017-11-26 19:02:54 37.311920000 -121.995680000 53.7

T 2017-11-26 19:02:55 37.312100000 -121.995674000 53.9

T 2017-11-26 19:02:56 37.312280000 -121.995674000 54.1

T 2017-11-26 19:02:58 37.312614000 -121.995674000 54.5

T 2017-11-26 19:02:59 37.312790000 -121.995680000 53.9

T 2017-11-26 19:03:00 37.312977000 -121.995680000 53.5

T 2017-11-26 19:03:01 37.313152000 -121.995680000 53.7

T 2017-11-26 19:03:02 37.313328000 -121.995674000 53.2

T 2017-11-26 19:03:03 37.313507000 -121.995674000 53.0

T 2017-11-26 19:03:04 37.313680000 -121.995670000 53.5

T 2017-11-26 19:03:05 37.313850000 -121.995660000 53.4

T 2017-11-26 19:03:06 37.314020000 -121.995650000 53.3

T 2017-11-26 19:03:07 37.314190000 -121.995640000 53.0

T 2017-11-26 19:03:08 37.314346000 -121.995636000 52.8

T 2017-11-26 19:03:10 37.314625000 -121.995605000 53.7

T 2017-11-26 19:03:11 37.314747000 -121.995600000 53.6

T 2017-11-26 19:03:12 37.314850000 -121.995590000 53.3

T 2017-11-26 19:03:13 37.314950000 -121.995580000 53.5

T 2017-11-26 19:03:14 37.315033000 -121.995575000 53.9

T 2017-11-26 19:03:16 37.315100000 -121.995570000 54.2

T 2017-11-26 19:03:19 37.315132000 -121.995575000 54.8

T 2017-11-26 19:03:34 37.315180000 -121.995570000 53.9

T 2017-11-26 19:03:35 37.315220000 -121.995570000 54.2

T 2017-11-26 19:03:36 37.315270000 -121.995570000 53.7

T 2017-11-26 19:03:37 37.315346000 -121.995560000 53.6
T 2017-11-26 19:03:38 37.315426000 -121.995550000 53.6

T 2017-11-26 19:03:39 37.315520000 -121.995544000 53.5

T 2017-11-26 19:03:40 37.315620000 -121.995530000 54.1

T 2017-11-26 19:03:41 37.315730000 -121.995520000 53.8

T 2017-11-26 19:03:42 37.315850000 -121.995514000 53.5

T 2017-11-26 19:03:43 37.315968000 -121.995510000 53.5

T 2017-11-26 19:03:45 37.316208000 -121.995490000 54.1

T 2017-11-26 19:03:46 37.316338000 -121.995480000 53.9

T 2017-11-26 19:03:47 37.316480000 -121.995476000 54.0

T 2017-11-26 19:03:48 37.316616000 -121.995470000 54.3

T 2017-11-26 19:03:49 37.316776000 -121.995476000 54.2

T 2017-11-26 19:03:50 37.316925000 -121.995470000 54.3

T 2017-11-26 19:03:52 37.317238000 -121.995450000 54.7

T 2017-11-26 19:03:53 37.317394000 -121.995450000 54.2

T 2017-11-26 19:03:54 37.317554000 -121.995445000 54.4

T 2017-11-26 19:03:55 37.317703000 -121.995440000 54.5

T 2017-11-26 19:03:56 37.317856000 -121.995440000 54.4

T 2017-11-26 19:03:57 37.318012000 -121.995445000 54.1

T 2017-11-26 19:03:58 37.318165000 -121.995450000 53.7

T 2017-11-26 19:03:59 37.318314000 -121.995460000 53.3

T 2017-11-26 19:04:00 37.318460000 -121.995460000 53.2

T 2017-11-26 19:04:02 37.318750000 -121.995460000 53.1

T 2017-11-26 19:04:03 37.318890000 -121.995460000 53.0

T 2017-11-26 19:04:04 37.319035000 -121.995460000 53.2

T 2017-11-26 19:04:05 37.319176000 -121.995460000 52.9

T 2017-11-26 19:04:06 37.319313000 -121.995450000 52.6

T 2017-11-26 19:04:07 37.319450000 -121.995450000 52.4

T 2017-11-26 19:04:08 37.319572000 -121.995450000 52.7

T 2017-11-26 19:04:09 37.319683000 -121.995445000 52.4

T 2017-11-26 19:04:10 37.319782000 -121.995445000 52.7
T 2017-11-26 19:04:11 37.319874000 -121.995445000 52.5

T 2017-11-26 19:04:13 37.320040000 -121.995440000 52.4

T 2017-11-26 19:04:14 37.320076000 -121.995380000 52.5

T 2017-11-26 19:04:15 37.320103000 -121.995310000 52.7

T 2017-11-26 19:04:16 37.320126000 -121.995240000 52.5

T 2017-11-26 19:04:17 37.320084000 -121.995150000 52.0

T 2017-11-26 19:04:19 37.319996000 -121.994934000 51.8

T 2017-11-26 19:04:20 37.319940000 -121.994790000 51.0

T 2017-11-26 19:04:21 37.319874000 -121.994640000 51.0

T 2017-11-26 19:04:22 37.319798000 -121.994450000 50.6

T 2017-11-26 19:04:23 37.319725000 -121.994270000 50.1

T 2017-11-26 19:04:24 37.319640000 -121.994080000 49.8

T 2017-11-26 19:04:25 37.319557000 -121.993880000 49.9

T 2017-11-26 19:04:26 37.319477000 -121.993680000 49.9

T 2017-11-26 19:04:28 37.319310000 -121.993260000 49.9

T 2017-11-26 19:04:29 37.319220000 -121.993040000 50.5

T 2017-11-26 19:04:30 37.319130000 -121.992820000 50.1

T 2017-11-26 19:04:31 37.319030000 -121.992590000 50.6

T 2017-11-26 19:04:32 37.318924000 -121.992355000 51.3

T 2017-11-26 19:04:33 37.318817000 -121.992096000 51.3

T 2017-11-26 19:04:34 37.318718000 -121.991840000 51.0

T 2017-11-26 19:04:35 37.318623000 -121.991580000 51.5

T 2017-11-26 19:04:36 37.318540000 -121.991310000 50.6

T 2017-11-26 19:04:37 37.318455000 -121.991020000 51.0

T 2017-11-26 19:04:38 37.318370000 -121.990730000 50.4

T 2017-11-26 19:04:40 37.318214000 -121.990150000 50.9

T 2017-11-26 19:04:41 37.318146000 -121.989850000 51.0

T 2017-11-26 19:04:42 37.318090000 -121.989555000 50.1

T 2017-11-26 19:04:43 37.318030000 -121.989250000 50.7
T 2017-11-26 19:04:44 37.317986000 -121.988945000 50.5

T 2017-11-26 19:04:45 37.317947000 -121.988640000 50.3

T 2017-11-26 19:04:46 37.317917000 -121.988330000 50.2

T 2017-11-26 19:04:48 37.317890000 -121.987720000 49.7

T 2017-11-26 19:04:49 37.317886000 -121.987390000 49.9

T 2017-11-26 19:04:50 37.317886000 -121.987076000 49.0

T 2017-11-26 19:04:51 37.317886000 -121.986755000 48.7

T 2017-11-26 19:04:52 37.317886000 -121.986435000 48.6

T 2017-11-26 19:04:53 37.317886000 -121.986115000 49.3

T 2017-11-26 19:04:54 37.317894000 -121.985800000 49.1

T 2017-11-26 19:04:55 37.317894000 -121.985480000 48.9

T 2017-11-26 19:04:56 37.317898000 -121.985170000 48.7

T 2017-11-26 19:04:57 37.317900000 -121.984850000 48.0

T 2017-11-26 19:04:58 37.317898000 -121.984530000 48.4

T 2017-11-26 19:05:00 37.317905000 -121.983894000 48.9

T 2017-11-26 19:05:01 37.317910000 -121.983574000 49.0

T 2017-11-26 19:05:02 37.317913000 -121.983270000 48.1

T 2017-11-26 19:05:03 37.317920000 -121.982956000 47.7

T 2017-11-26 19:05:04 37.317920000 -121.982630000 47.5

T 2017-11-26 19:05:05 37.317930000 -121.982315000 46.1

T 2017-11-26 19:05:06 37.317930000 -121.981995000 45.7

T 2017-11-26 19:05:07 37.317930000 -121.981680000 45.2

T 2017-11-26 19:05:08 37.317932000 -121.981360000 44.7

T 2017-11-26 19:05:09 37.317932000 -121.981050000 44.0

T 2017-11-26 19:05:11 37.317932000 -121.980410000 44.0

T 2017-11-26 19:05:12 37.317930000 -121.980095000 43.6

T 2017-11-26 19:05:13 37.317917000 -121.979774000 43.4

T 2017-11-26 19:05:14 37.317900000 -121.979460000 43.0

T 2017-11-26 19:05:15 37.317886000 -121.979130000 42.4

T 2017-11-26 19:05:16 37.317870000 -121.978820000 41.6
T 2017-11-26 19:05:17 37.317850000 -121.978500000 40.8

T 2017-11-26 19:05:19 37.317787000 -121.977850000 39.9

T 2017-11-26 19:05:20 37.317745000 -121.977530000 39.4

T 2017-11-26 19:05:21 37.317688000 -121.977220000 38.5

T 2017-11-26 19:05:22 37.317620000 -121.976906000 38.3

T 2017-11-26 19:05:23 37.317540000 -121.976600000 40.2

T 2017-11-26 19:05:24 37.317448000 -121.976300000 39.1

T 2017-11-26 19:05:25 37.317356000 -121.976006000 38.4

T 2017-11-26 19:05:26 37.317257000 -121.975710000 38.3

T 2017-11-26 19:05:27 37.317165000 -121.975410000 38.2

T 2017-11-26 19:05:28 37.317070000 -121.975130000 37.9

T 2017-11-26 19:05:29 37.316970000 -121.974840000 37.7

T 2017-11-26 19:05:30 37.316875000 -121.974550000 39.4

T 2017-11-26 19:05:32 37.316696000 -121.973970000 40.8

T 2017-11-26 19:05:33 37.316616000 -121.973680000 41.4

T 2017-11-26 19:05:34 37.316532000 -121.973380000 42.1

T 2017-11-26 19:05:35 37.316463000 -121.973090000 42.5

T 2017-11-26 19:05:36 37.316400000 -121.972786000 42.6

T 2017-11-26 19:05:37 37.316340000 -121.972480000 42.9

T 2017-11-26 19:05:38 37.316290000 -121.972170000 43.7

T 2017-11-26 19:05:39 37.316250000 -121.971855000 44.0

T 2017-11-26 19:05:40 37.316210000 -121.971540000 44.7

T 2017-11-26 19:05:42 37.316166000 -121.970910000 44.6

T 2017-11-26 19:05:43 37.316154000 -121.970580000 44.8

T 2017-11-26 19:05:44 37.316150000 -121.970260000 42.8

T 2017-11-26 19:05:45 37.316160000 -121.969940000 43.1

T 2017-11-26 19:05:46 37.316170000 -121.969610000 43.4

T 2017-11-26 19:05:47 37.316185000 -121.969290000 42.5

T 2017-11-26 19:05:48 37.316200000 -121.968970000 42.4
T 2017-11-26 19:05:49 37.316220000 -121.968650000 43.0

T 2017-11-26 19:05:50 37.316230000 -121.968320000 43.7

T 2017-11-26 19:05:51 37.316246000 -121.968010000 43.9

T 2017-11-26 19:05:53 37.316273000 -121.967370000 45.0

T 2017-11-26 19:05:54 37.316284000 -121.967060000 45.5

T 2017-11-26 19:05:55 37.316290000 -121.966730000 46.5

T 2017-11-26 19:05:56 37.316300000 -121.966420000 46.7

T 2017-11-26 19:05:57 37.316310000 -121.966110000 46.8

T 2017-11-26 19:05:58 37.316320000 -121.965800000 47.5

T 2017-11-26 19:05:59 37.316322000 -121.965485000 48.3

T 2017-11-26 19:06:00 37.316338000 -121.965170000 47.0

T 2017-11-26 19:06:01 37.316345000 -121.964850000 47.6

T 2017-11-26 19:06:02 37.316357000 -121.964530000 47.6

T 2017-11-26 19:06:03 37.316364000 -121.964210000 47.8

T 2017-11-26 19:06:04 37.316364000 -121.963900000 47.8

T 2017-11-26 19:06:06 37.316360000 -121.963260000 47.4

T 2017-11-26 19:06:07 37.316357000 -121.962940000 46.8

T 2017-11-26 19:06:08 37.316357000 -121.962610000 45.7

T 2017-11-26 19:06:09 37.316353000 -121.962280000 45.1

T 2017-11-26 19:06:10 37.316345000 -121.961960000 44.7

T 2017-11-26 19:06:11 37.316338000 -121.961630000 43.6

T 2017-11-26 19:06:12 37.316330000 -121.961310000 42.6

T 2017-11-26 19:06:13 37.316320000 -121.960990000 41.8

T 2017-11-26 19:06:14 37.316310000 -121.960670000 41.5

T 2017-11-26 19:06:15 37.316303000 -121.960360000 43.3

T 2017-11-26 19:06:16 37.316296000 -121.960045000 42.7

T 2017-11-26 19:06:18 37.316288000 -121.959410000 41.5

T 2017-11-26 19:06:19 37.316277000 -121.959100000 41.8

T 2017-11-26 19:06:20 37.316273000 -121.958786000 41.7

T 2017-11-26 19:06:21 37.316273000 -121.958460000 41.3
T 2017-11-26 19:06:22 37.316277000 -121.958145000 41.1

T 2017-11-26 19:06:24 37.316290000 -121.957504000 41.1

T 2017-11-26 19:06:25 37.316307000 -121.957184000 40.9

T 2017-11-26 19:06:26 37.316322000 -121.956870000 41.6

T 2017-11-26 19:06:27 37.316338000 -121.956550000 41.1

T 2017-11-26 19:06:28 37.316357000 -121.956230000 40.8

T 2017-11-26 19:06:29 37.316383000 -121.955920000 40.7

T 2017-11-26 19:06:30 37.316410000 -121.955605000 40.5

T 2017-11-26 19:06:31 37.316437000 -121.955284000 39.9

T 2017-11-26 19:06:33 37.316486000 -121.954650000 39.6

T 2017-11-26 19:06:34 37.316517000 -121.954330000 39.4

T 2017-11-26 19:06:35 37.316544000 -121.954020000 39.4

T 2017-11-26 19:06:36 37.316570000 -121.953705000 39.1

T 2017-11-26 19:06:37 37.316593000 -121.953390000 38.5

T 2017-11-26 19:06:38 37.316616000 -121.953070000 38.3

T 2017-11-26 19:06:39 37.316640000 -121.952750000 37.9

T 2017-11-26 19:06:40 37.316658000 -121.952440000 37.1

T 2017-11-26 19:06:41 37.316670000 -121.952120000 35.9

T 2017-11-26 19:06:42 37.316673000 -121.951800000 35.5

T 2017-11-26 19:06:43 37.316673000 -121.951480000 34.9

T 2017-11-26 19:06:45 37.316670000 -121.950830000 34.4

T 2017-11-26 19:06:46 37.316666000 -121.950510000 33.6

T 2017-11-26 19:06:47 37.316660000 -121.950180000 33.1

T 2017-11-26 19:06:48 37.316660000 -121.949875000 32.6

T 2017-11-26 19:06:49 37.316654000 -121.949560000 33.0

T 2017-11-26 19:06:50 37.316654000 -121.949240000 34.0

T 2017-11-26 19:06:51 37.316654000 -121.948930000 34.4

T 2017-11-26 19:06:52 37.316650000 -121.948640000 35.1

T 2017-11-26 19:06:54 37.316635000 -121.948090000 37.2
T 2017-11-26 19:06:55 37.316635000 -121.947820000 37.5

T 2017-11-26 19:06:56 37.316630000 -121.947570000 37.9

T 2017-11-26 19:06:57 37.316635000 -121.947310000 39.7

T 2017-11-26 19:06:58 37.316643000 -121.947044000 39.8

T 2017-11-26 19:06:59 37.316647000 -121.946785000 40.1

T 2017-11-26 19:07:00 37.316650000 -121.946520000 39.9

T 2017-11-26 19:07:01 37.316654000 -121.946250000 40.6

T 2017-11-26 19:07:02 37.316654000 -121.945980000 40.5

T 2017-11-26 19:07:03 37.316658000 -121.945694000 40.8

T 2017-11-26 19:07:05 37.316666000 -121.945120000 41.7

T 2017-11-26 19:07:06 37.316670000 -121.944840000 41.9

T 2017-11-26 19:07:07 37.316673000 -121.944560000 42.9

T 2017-11-26 19:07:08 37.316673000 -121.944275000 44.5

T 2017-11-26 19:07:09 37.316680000 -121.944000000 44.3

T 2017-11-26 19:07:10 37.316685000 -121.943720000 44.9

T 2017-11-26 19:07:11 37.316708000 -121.943460000 45.7

T 2017-11-26 19:07:12 37.316730000 -121.943200000 45.4

T 2017-11-26 19:07:13 37.316776000 -121.942930000 46.2

T 2017-11-26 19:07:14 37.316837000 -121.942670000 45.8

T 2017-11-26 19:07:15 37.316902000 -121.942430000 47.0

T 2017-11-26 19:07:16 37.316986000 -121.942184000 47.9

T 2017-11-26 19:07:17 37.317074000 -121.941940000 48.3

T 2017-11-26 19:07:19 37.317307000 -121.941490000 49.4

T 2017-11-26 19:07:20 37.317444000 -121.941284000 50.1

T 2017-11-26 19:07:21 37.317596000 -121.941090000 49.8

T 2017-11-26 19:07:22 37.317760000 -121.940910000 50.6

T 2017-11-26 19:07:23 37.317936000 -121.940735000 50.5

T 2017-11-26 19:07:24 37.318108000 -121.940580000 50.4

T 2017-11-26 19:07:25 37.318295000 -121.940445000 50.8

T 2017-11-26 19:07:26 37.318485000 -121.940320000 50.5
T 2017-11-26 19:07:28 37.318890000 -121.940125000 49.8

T 2017-11-26 19:07:29 37.319103000 -121.940050000 49.4

T 2017-11-26 19:07:30 37.319305000 -121.939980000 49.1

T 2017-11-26 19:07:31 37.319534000 -121.939950000 48.2

T 2017-11-26 19:07:32 37.319760000 -121.939940000 47.2

T 2017-11-26 19:07:33 37.319984000 -121.939926000 45.5

T 2017-11-26 19:07:34 37.320213000 -121.939950000 44.5

T 2017-11-26 19:07:35 37.320435000 -121.939995000 44.0

T 2017-11-26 19:07:36 37.320667000 -121.940040000 42.7

T 2017-11-26 19:07:37 37.320896000 -121.940090000 41.9

T 2017-11-26 19:07:38 37.321125000 -121.940140000 41.6

T 2017-11-26 19:07:39 37.321354000 -121.940190000 40.9

T 2017-11-26 19:07:41 37.321835000 -121.940300000 38.6

T 2017-11-26 19:07:42 37.322083000 -121.940350000 42.4

T 2017-11-26 19:07:43 37.322334000 -121.940400000 39.6

T 2017-11-26 19:07:44 37.322590000 -121.940440000 37.6

T 2017-11-26 19:07:45 37.322845000 -121.940475000 37.1

T 2017-11-26 19:07:46 37.323097000 -121.940506000 37.2

T 2017-11-26 19:07:47 37.323353000 -121.940544000 37.3

T 2017-11-26 19:07:48 37.323605000 -121.940575000 36.2

T 2017-11-26 19:07:49 37.323853000 -121.940605000 36.4

T 2017-11-26 19:07:50 37.324085000 -121.940610000 37.2

T 2017-11-26 19:07:51 37.324320000 -121.940636000 37.5

T 2017-11-26 19:07:53 37.324790000 -121.940674000 37.8

T 2017-11-26 19:07:54 37.325027000 -121.940690000 37.3

T 2017-11-26 19:07:55 37.325268000 -121.940690000 36.9

T 2017-11-26 19:07:56 37.325527000 -121.940700000 37.3

T 2017-11-26 19:07:57 37.325787000 -121.940700000 37.6

T 2017-11-26 19:07:58 37.326060000 -121.940704000 37.3
T 2017-11-26 19:07:59 37.326344000 -121.940710000 37.4

T 2017-11-26 19:08:00 37.326626000 -121.940710000 37.4

T 2017-11-26 19:08:01 37.326910000 -121.940710000 37.1

T 2017-11-26 19:08:02 37.327206000 -121.940720000 36.9

T 2017-11-26 19:08:04 37.327750000 -121.940730000 37.0

T 2017-11-26 19:08:05 37.328030000 -121.940720000 36.8

T 2017-11-26 19:08:06 37.328304000 -121.940720000 36.7

T 2017-11-26 19:08:07 37.328575000 -121.940730000 36.9

T 2017-11-26 19:08:08 37.328835000 -121.940730000 37.1

T 2017-11-26 19:08:09 37.329100000 -121.940720000 36.9

T 2017-11-26 19:08:10 37.329360000 -121.940690000 36.4

T 2017-11-26 19:08:11 37.329620000 -121.940620000 36.2

T 2017-11-26 19:08:12 37.329887000 -121.940570000 36.3

T 2017-11-26 19:08:14 37.330395000 -121.940384000 34.4

T 2017-11-26 19:08:15 37.330650000 -121.940280000 34.9

T 2017-11-26 19:08:16 37.330890000 -121.940155000 34.6

T 2017-11-26 19:08:17 37.331135000 -121.940010000 34.5

T 2017-11-26 19:08:18 37.331375000 -121.939870000 33.8

T 2017-11-26 19:08:19 37.331600000 -121.939700000 34.2

T 2017-11-26 19:08:20 37.331818000 -121.939520000 33.1

T 2017-11-26 19:08:21 37.332027000 -121.939340000 32.8

T 2017-11-26 19:08:22 37.332237000 -121.939140000 33.0

T 2017-11-26 19:08:23 37.332430000 -121.938934000 32.6

T 2017-11-26 19:08:24 37.332615000 -121.938710000 34.0

T 2017-11-26 19:08:26 37.332985000 -121.938255000 34.1

T 2017-11-26 19:08:27 37.333153000 -121.938010000 35.8

T 2017-11-26 19:08:28 37.333330000 -121.937775000 35.6

T 2017-11-26 19:08:29 37.333508000 -121.937530000 35.7

T 2017-11-26 19:08:30 37.333675000 -121.937294000 36.0

T 2017-11-26 19:08:31 37.333855000 -121.937050000 35.9
T 2017-11-26 19:08:32 37.334034000 -121.936810000 35.6

T 2017-11-26 19:08:33 37.334225000 -121.936570000 35.1

T 2017-11-26 19:08:34 37.334396000 -121.936325000 34.1

T 2017-11-26 19:08:35 37.334580000 -121.936090000 34.4

T 2017-11-26 19:08:37 37.334946000 -121.935610000 35.9

T 2017-11-26 19:08:38 37.335140000 -121.935356000 35.2

T 2017-11-26 19:08:39 37.335340000 -121.935104000 35.1

T 2017-11-26 19:08:41 37.335724000 -121.934610000 35.1

T 2017-11-26 19:08:42 37.335920000 -121.934364000 35.4

T 2017-11-26 19:08:43 37.336105000 -121.934110000 35.3

T 2017-11-26 19:08:44 37.336300000 -121.933870000 35.1

T 2017-11-26 19:08:45 37.336487000 -121.933620000 35.1

T 2017-11-26 19:08:46 37.336674000 -121.933380000 35.0

T 2017-11-26 19:08:47 37.336864000 -121.933136000 34.9

T 2017-11-26 19:08:48 37.337048000 -121.932890000 34.4

T 2017-11-26 19:08:49 37.337246000 -121.932650000 33.9

T 2017-11-26 19:08:51 37.337624000 -121.932170000 33.7

T 2017-11-26 19:08:52 37.337822000 -121.931930000 33.2

T 2017-11-26 19:08:53 37.338028000 -121.931694000 32.5

T 2017-11-26 19:08:54 37.338234000 -121.931450000 31.4

T 2017-11-26 19:08:55 37.338425000 -121.931220000 30.6

T 2017-11-26 19:08:56 37.338623000 -121.930984000 29.5

T 2017-11-26 19:08:57 37.338806000 -121.930750000 28.9

T 2017-11-26 19:08:58 37.339010000 -121.930510000 28.0

T 2017-11-26 19:08:59 37.339214000 -121.930275000 27.1

T 2017-11-26 19:09:01 37.339592000 -121.929800000 27.4

T 2017-11-26 19:09:02 37.339783000 -121.929550000 27.1

T 2017-11-26 19:09:03 37.339960000 -121.929306000 27.6

T 2017-11-26 19:09:04 37.340137000 -121.929054000 27.7
T 2017-11-26 19:09:05 37.340324000 -121.928810000 26.5

T 2017-11-26 19:09:06 37.340492000 -121.928566000 26.5

T 2017-11-26 19:09:07 37.340670000 -121.928320000 26.1

T 2017-11-26 19:09:08 37.340860000 -121.928070000 25.8

T 2017-11-26 19:09:09 37.341045000 -121.927820000 25.2

T 2017-11-26 19:09:10 37.341236000 -121.927570000 24.3

T 2017-11-26 19:09:11 37.341423000 -121.927320000 25.8

T 2017-11-26 19:09:12 37.341606000 -121.927070000 24.8

T 2017-11-26 19:09:14 37.341984000 -121.926570000 23.0

T 2017-11-26 19:09:15 37.342186000 -121.926330000 22.5

T 2017-11-26 19:09:16 37.342384000 -121.926100000 22.1

T 2017-11-26 19:09:17 37.342587000 -121.925880000 22.1

T 2017-11-26 19:09:18 37.342796000 -121.925674000 22.2

T 2017-11-26 19:09:19 37.343010000 -121.925476000 22.1

T 2017-11-26 19:09:20 37.343230000 -121.925285000 22.4

T 2017-11-26 19:09:21 37.343452000 -121.925090000 22.3

T 2017-11-26 19:09:22 37.343647000 -121.924890000 23.8

T 2017-11-26 19:09:24 37.344080000 -121.924480000 24.7

T 2017-11-26 19:09:25 37.344290000 -121.924255000 25.1

T 2017-11-26 19:09:26 37.344482000 -121.924034000 26.1

T 2017-11-26 19:09:27 37.344666000 -121.923805000 27.1

T 2017-11-26 19:09:28 37.344852000 -121.923560000 28.8

T 2017-11-26 19:09:29 37.345040000 -121.923320000 29.0

T 2017-11-26 19:09:30 37.345226000 -121.923060000 29.7

T 2017-11-26 19:09:31 37.345413000 -121.922806000 30.2

T 2017-11-26 19:09:32 37.345596000 -121.922550000 29.0

T 2017-11-26 19:09:33 37.345780000 -121.922290000 29.1

T 2017-11-26 19:09:35 37.346140000 -121.921780000 29.9

T 2017-11-26 19:09:36 37.346325000 -121.921530000 30.0

T 2017-11-26 19:09:37 37.346520000 -121.921270000 28.3
T 2017-11-26 19:09:38 37.346710000 -121.921020000 29.1

T 2017-11-26 19:09:39 37.346910000 -121.920760000 28.9

T 2017-11-26 19:09:40 37.347103000 -121.920510000 28.4

T 2017-11-26 19:09:41 37.347298000 -121.920260000 27.3

T 2017-11-26 19:09:42 37.347485000 -121.920000000 25.2

T 2017-11-26 19:09:43 37.347670000 -121.919750000 24.6

T 2017-11-26 19:09:45 37.348038000 -121.919230000 23.8

T 2017-11-26 19:09:46 37.348217000 -121.918970000 22.9

T 2017-11-26 19:09:47 37.348392000 -121.918710000 21.8

T 2017-11-26 19:09:48 37.348568000 -121.918450000 21.4

T 2017-11-26 19:09:49 37.348736000 -121.918200000 20.4

T 2017-11-26 19:09:50 37.348920000 -121.917940000 21.1

T 2017-11-26 19:09:51 37.349087000 -121.917694000 22.4

T 2017-11-26 19:09:53 37.349453000 -121.917206000 22.7

T 2017-11-26 19:09:54 37.349632000 -121.916960000 22.4

T 2017-11-26 19:09:55 37.349815000 -121.916710000 23.6

T 2017-11-26 19:09:56 37.349990000 -121.916466000 23.5

T 2017-11-26 19:09:57 37.350170000 -121.916214000 22.8

T 2017-11-26 19:09:58 37.350350000 -121.915960000 22.0

T 2017-11-26 19:09:59 37.350533000 -121.915720000 21.9

T 2017-11-26 19:10:00 37.350716000 -121.915470000 21.8

T 2017-11-26 19:10:01 37.350895000 -121.915215000 21.7

T 2017-11-26 19:10:02 37.351074000 -121.914960000 21.5

T 2017-11-26 19:10:03 37.351257000 -121.914700000 21.8

T 2017-11-26 19:10:05 37.351630000 -121.914185000 19.6

T 2017-11-26 19:10:06 37.351818000 -121.913930000 19.1

T 2017-11-26 19:10:07 37.352000000 -121.913680000 19.5

T 2017-11-26 19:10:08 37.352190000 -121.913430000 19.2

T 2017-11-26 19:10:09 37.352370000 -121.913190000 19.7
T 2017-11-26 19:10:10 37.352566000 -121.912960000 19.9

T 2017-11-26 19:10:11 37.352764000 -121.912730000 20.2

T 2017-11-26 19:10:12 37.352970000 -121.912506000 20.8

T 2017-11-26 19:10:13 37.353180000 -121.912285000 21.0

T 2017-11-26 19:10:14 37.353394000 -121.912080000 20.9

T 2017-11-26 19:10:16 37.353836000 -121.911670000 20.6

T 2017-11-26 19:10:17 37.354053000 -121.911476000 19.2

T 2017-11-26 19:10:18 37.354267000 -121.911255000 18.6

T 2017-11-26 19:10:19 37.354480000 -121.911050000 19.2

T 2017-11-26 19:10:20 37.354683000 -121.910840000 19.3

T 2017-11-26 19:10:21 37.354870000 -121.910645000 19.6

T 2017-11-26 19:10:22 37.355060000 -121.910440000 20.0

T 2017-11-26 19:10:23 37.355267000 -121.910230000 19.6

T 2017-11-26 19:10:24 37.355460000 -121.910020000 20.2

T 2017-11-26 19:10:25 37.355656000 -121.909810000 19.9

T 2017-11-26 19:10:27 37.356052000 -121.909400000 20.4

T 2017-11-26 19:10:28 37.356260000 -121.909195000 21.0

T 2017-11-26 19:10:29 37.356457000 -121.908990000 21.1

T 2017-11-26 19:10:30 37.356660000 -121.908790000 21.1

T 2017-11-26 19:10:31 37.356853000 -121.908585000 21.2

T 2017-11-26 19:10:32 37.357063000 -121.908380000 21.5

T 2017-11-26 19:10:33 37.357277000 -121.908180000 22.1

T 2017-11-26 19:10:34 37.357475000 -121.907974000 25.3

T 2017-11-26 19:10:35 37.357680000 -121.907770000 25.3

T 2017-11-26 19:10:36 37.357887000 -121.907570000 26.8

T 2017-11-26 19:10:37 37.358086000 -121.907370000 26.4

T 2017-11-26 19:10:38 37.358265000 -121.907170000 28.2

T 2017-11-26 19:10:40 37.358658000 -121.906790000 27.2

T 2017-11-26 19:10:41 37.358845000 -121.906590000 27.6

T 2017-11-26 19:10:42 37.359043000 -121.906395000 28.3
T 2017-11-26 19:10:43 37.359234000 -121.906204000 28.7

T 2017-11-26 19:10:44 37.359432000 -121.906006000 28.0

T 2017-11-26 19:10:45 37.359623000 -121.905810000 28.4

T 2017-11-26 19:10:46 37.359830000 -121.905620000 28.3

T 2017-11-26 19:10:48 37.360233000 -121.905205000 25.3

T 2017-11-26 19:10:49 37.360435000 -121.905010000 26.4

T 2017-11-26 19:10:50 37.360630000 -121.904800000 26.8

T 2017-11-26 19:10:51 37.360836000 -121.904594000 27.2

T 2017-11-26 19:10:52 37.361042000 -121.904390000 27.1

T 2017-11-26 19:10:53 37.361250000 -121.904175000 26.6

T 2017-11-26 19:10:54 37.361458000 -121.903960000 26.7

T 2017-11-26 19:10:55 37.361664000 -121.903750000 26.9

T 2017-11-26 19:10:56 37.361870000 -121.903534000 27.1

T 2017-11-26 19:10:58 37.362305000 -121.903100000 25.5

T 2017-11-26 19:10:59 37.362537000 -121.902890000 24.9

T 2017-11-26 19:11:00 37.362766000 -121.902695000 25.0

T 2017-11-26 19:11:01 37.363010000 -121.902510000 24.1

T 2017-11-26 19:11:02 37.363250000 -121.902336000 23.7

T 2017-11-26 19:11:03 37.363495000 -121.902170000 23.1

T 2017-11-26 19:11:04 37.363747000 -121.902020000 23.5

T 2017-11-26 19:11:05 37.364000000 -121.901886000 24.1

T 2017-11-26 19:11:06 37.364254000 -121.901760000 23.7

T 2017-11-26 19:11:08 37.364758000 -121.901510000 21.2

T 2017-11-26 19:11:09 37.365025000 -121.901405000 21.2

T 2017-11-26 19:11:10 37.365295000 -121.901320000 20.8

T 2017-11-26 19:11:11 37.365574000 -121.901240000 20.9

T 2017-11-26 19:11:12 37.365845000 -121.901180000 20.6

T 2017-11-26 19:11:14 37.366398000 -121.901090000 20.5

T 2017-11-26 19:11:15 37.366673000 -121.901054000 20.7
T 2017-11-26 19:11:16 37.366955000 -121.901030000 20.9

T 2017-11-26 19:11:17 37.367233000 -121.901030000 20.9

T 2017-11-26 19:11:18 37.367516000 -121.901050000 19.6

T 2017-11-26 19:11:19 37.367794000 -121.901060000 20.0

T 2017-11-26 19:11:20 37.368080000 -121.901090000 19.8

T 2017-11-26 19:11:22 37.368652000 -121.901190000 18.1

T 2017-11-26 19:11:23 37.368930000 -121.901250000 17.9

T 2017-11-26 19:11:24 37.369213000 -121.901320000 15.9

T 2017-11-26 19:11:25 37.369503000 -121.901390000 15.1

T 2017-11-26 19:11:26 37.369790000 -121.901460000 14.9

T 2017-11-26 19:11:27 37.370064000 -121.901520000 14.7

T 2017-11-26 19:11:28 37.370340000 -121.901590000 15.0

T 2017-11-26 19:11:29 37.370632000 -121.901650000 14.5

T 2017-11-26 19:11:30 37.370903000 -121.901710000 14.8

T 2017-11-26 19:11:31 37.371178000 -121.901770000 14.4

T 2017-11-26 19:11:32 37.371450000 -121.901840000 14.0

T 2017-11-26 19:11:33 37.371720000 -121.901900000 13.9

T 2017-11-26 19:11:35 37.372260000 -121.902030000 13.9

T 2017-11-26 19:11:36 37.372540000 -121.902090000 13.9

T 2017-11-26 19:11:37 37.372810000 -121.902150000 13.9

T 2017-11-26 19:11:38 37.373080000 -121.902214000 14.0

T 2017-11-26 19:11:39 37.373360000 -121.902275000 13.6

T 2017-11-26 19:11:40 37.373634000 -121.902340000 13.0

T 2017-11-26 19:11:41 37.373905000 -121.902405000 13.1

T 2017-11-26 19:11:42 37.374180000 -121.902466000 12.9

T 2017-11-26 19:11:43 37.374454000 -121.902534000 13.5

T 2017-11-26 19:11:44 37.374725000 -121.902590000 13.5

T 2017-11-26 19:11:45 37.375000000 -121.902660000 13.4

T 2017-11-26 19:11:47 37.375546000 -121.902790000 13.7

T 2017-11-26 19:11:48 37.375813000 -121.902860000 13.3
T 2017-11-26 19:11:49 37.376076000 -121.902920000 13.6

T 2017-11-26 19:11:50 37.376350000 -121.902985000 13.8

T 2017-11-26 19:11:51 37.376633000 -121.903050000 13.0

T 2017-11-26 19:11:52 37.376904000 -121.903114000 13.5

T 2017-11-26 19:11:53 37.377182000 -121.903175000 13.0

T 2017-11-26 19:11:55 37.377730000 -121.903310000 12.7

T 2017-11-26 19:11:56 37.378006000 -121.903370000 13.0

T 2017-11-26 19:11:57 37.378280000 -121.903435000 12.3

T 2017-11-26 19:11:58 37.378563000 -121.903500000 12.4

T 2017-11-26 19:11:59 37.378834000 -121.903570000 12.8

T 2017-11-26 19:12:00 37.379110000 -121.903630000 12.4

T 2017-11-26 19:12:01 37.379383000 -121.903700000 12.4

T 2017-11-26 19:12:02 37.379658000 -121.903755000 12.1

T 2017-11-26 19:12:03 37.379936000 -121.903820000 12.8

T 2017-11-26 19:12:04 37.380210000 -121.903880000 12.5

T 2017-11-26 19:12:05 37.380486000 -121.903946000 12.7

T 2017-11-26 19:12:06 37.380756000 -121.904010000 13.7

T 2017-11-26 19:12:08 37.381298000 -121.904140000 14.7

T 2017-11-26 19:12:09 37.381570000 -121.904200000 15.0

T 2017-11-26 19:12:10 37.381844000 -121.904260000 15.4

T 2017-11-26 19:12:11 37.382120000 -121.904320000 15.3

T 2017-11-26 19:12:12 37.382397000 -121.904380000 15.6

T 2017-11-26 19:12:13 37.382670000 -121.904460000 16.2

T 2017-11-26 19:12:14 37.382950000 -121.904520000 15.8

T 2017-11-26 19:12:15 37.383232000 -121.904580000 15.7

T 2017-11-26 19:12:16 37.383495000 -121.904655000 15.4

T 2017-11-26 19:12:17 37.383760000 -121.904730000 14.8

T 2017-11-26 19:12:19 37.384304000 -121.904860000 13.8

T 2017-11-26 19:12:20 37.384583000 -121.904920000 13.0
T 2017-11-26 19:12:21 37.384860000 -121.904990000 11.9

T 2017-11-26 19:12:22 37.385140000 -121.905050000 10.7

T 2017-11-26 19:12:23 37.385426000 -121.905120000 10.3

T 2017-11-26 19:12:24 37.385696000 -121.905180000 10.1

T 2017-11-26 19:12:25 37.385967000 -121.905250000 10.2

T 2017-11-26 19:12:26 37.386242000 -121.905320000 10.5

T 2017-11-26 19:12:27 37.386513000 -121.905370000 10.3

T 2017-11-26 19:12:28 37.386784000 -121.905430000 10.0

T 2017-11-26 19:12:30 37.387330000 -121.905556000 9.4

T 2017-11-26 19:12:31 37.387604000 -121.905610000 9.6

T 2017-11-26 19:12:32 37.387867000 -121.905685000 9.1

T 2017-11-26 19:12:33 37.388138000 -121.905754000 8.7

T 2017-11-26 19:12:34 37.388412000 -121.905815000 8.6

T 2017-11-26 19:12:35 37.388687000 -121.905876000 8.0

T 2017-11-26 19:12:36 37.388954000 -121.905945000 8.2

T 2017-11-26 19:12:37 37.389230000 -121.906010000 8.3

T 2017-11-26 19:12:38 37.389492000 -121.906080000 8.9

T 2017-11-26 19:12:39 37.389767000 -121.906140000 8.5

T 2017-11-26 19:12:41 37.390316000 -121.906280000 8.0

T 2017-11-26 19:12:42 37.390590000 -121.906340000 7.5

T 2017-11-26 19:12:43 37.390865000 -121.906400000 7.6

T 2017-11-26 19:12:44 37.391140000 -121.906460000 7.5

T 2017-11-26 19:12:45 37.391420000 -121.906530000 7.4

T 2017-11-26 19:12:46 37.391697000 -121.906600000 7.1

T 2017-11-26 19:12:47 37.391970000 -121.906660000 7.4

T 2017-11-26 19:12:48 37.392246000 -121.906720000 7.0

T 2017-11-26 19:12:49 37.392520000 -121.906790000 7.1

T 2017-11-26 19:12:50 37.392790000 -121.906860000 7.7

T 2017-11-26 19:12:51 37.393066000 -121.906930000 7.8

T 2017-11-26 19:12:53 37.393610000 -121.907070000 8.3
T 2017-11-26 19:12:54 37.393880000 -121.907135000 8.3

T 2017-11-26 19:12:55 37.394157000 -121.907196000 8.0

T 2017-11-26 19:12:56 37.394436000 -121.907265000 7.9

T 2017-11-26 19:12:57 37.394714000 -121.907326000 7.7

T 2017-11-26 19:12:58 37.394997000 -121.907394000 7.9

T 2017-11-26 19:12:59 37.395270000 -121.907455000 7.9

T 2017-11-26 19:13:00 37.395542000 -121.907520000 7.5

T 2017-11-26 19:13:01 37.395820000 -121.907570000 7.6

T 2017-11-26 19:13:03 37.396370000 -121.907710000 7.8

T 2017-11-26 19:13:04 37.396650000 -121.907770000 7.3

T 2017-11-26 19:13:05 37.396927000 -121.907830000 6.8

T 2017-11-26 19:13:06 37.397198000 -121.907890000 7.1

T 2017-11-26 19:13:07 37.397476000 -121.907950000 7.2

T 2017-11-26 19:13:08 37.397755000 -121.908010000 7.4

T 2017-11-26 19:13:09 37.398037000 -121.908070000 7.4

T 2017-11-26 19:13:10 37.398308000 -121.908134000 7.7

T 2017-11-26 19:13:11 37.398580000 -121.908200000 7.8

T 2017-11-26 19:13:12 37.398857000 -121.908264000 7.8

T 2017-11-26 19:13:13 37.399128000 -121.908330000 7.7

T 2017-11-26 19:13:15 37.399685000 -121.908460000 7.5

T 2017-11-26 19:13:16 37.399956000 -121.908540000 7.6

T 2017-11-26 19:13:17 37.400227000 -121.908610000 8.0

T 2017-11-26 19:13:18 37.400497000 -121.908670000 8.2

T 2017-11-26 19:13:19 37.400772000 -121.908740000 7.9

T 2017-11-26 19:13:20 37.401043000 -121.908810000 8.0

T 2017-11-26 19:13:21 37.401314000 -121.908880000 7.8

T 2017-11-26 19:13:22 37.401592000 -121.908940000 9.3

T 2017-11-26 19:13:23 37.401870000 -121.909010000 10.0

T 2017-11-26 19:13:24 37.402150000 -121.909080000 9.9
T 2017-11-26 19:13:25 37.402428000 -121.909140000 8.7

T 2017-11-26 19:13:26 37.402700000 -121.909210000 8.5

T 2017-11-26 19:13:27 37.402973000 -121.909280000 8.7

T 2017-11-26 19:13:29 37.403515000 -121.909420000 8.3

T 2017-11-26 19:13:30 37.403790000 -121.909480000 7.7

T 2017-11-26 19:13:31 37.404057000 -121.909540000 7.5

T 2017-11-26 19:13:32 37.404327000 -121.909610000 7.6

T 2017-11-26 19:13:33 37.404606000 -121.909676000 7.2

T 2017-11-26 19:13:34 37.404880000 -121.909740000 7.3

T 2017-11-26 19:13:35 37.405163000 -121.909800000 6.7

T 2017-11-26 19:13:36 37.405437000 -121.909860000 6.8

T 2017-11-26 19:13:37 37.405710000 -121.909930000 6.8

T 2017-11-26 19:13:39 37.406250000 -121.910060000 5.7

T 2017-11-26 19:13:40 37.406520000 -121.910120000 5.4

T 2017-11-26 19:13:41 37.406800000 -121.910180000 5.3

T 2017-11-26 19:13:42 37.407078000 -121.910250000 5.3

T 2017-11-26 19:13:43 37.407352000 -121.910300000 5.3

T 2017-11-26 19:13:45 37.407910000 -121.910440000 5.4

T 2017-11-26 19:13:46 37.408176000 -121.910515000 5.0

T 2017-11-26 19:13:47 37.408450000 -121.910590000 5.3

T 2017-11-26 19:13:48 37.408722000 -121.910670000 5.7

T 2017-11-26 19:13:49 37.408985000 -121.910740000 7.3

T 2017-11-26 19:13:50 37.409256000 -121.910840000 7.4

T 2017-11-26 19:13:51 37.409527000 -121.910930000 7.7

T 2017-11-26 19:13:52 37.409798000 -121.911020000 8.5

T 2017-11-26 19:13:53 37.410072000 -121.911100000 9.3

T 2017-11-26 19:13:54 37.410343000 -121.911194000 9.4

T 2017-11-26 19:13:55 37.410614000 -121.911285000 9.7

T 2017-11-26 19:13:57 37.411156000 -121.911470000 9.6

T 2017-11-26 19:13:58 37.411427000 -121.911550000 10.0
T 2017-11-26 19:13:59 37.411690000 -121.911644000 10.6

T 2017-11-26 19:14:00 37.411964000 -121.911730000 11.0

T 2017-11-26 19:14:01 37.412230000 -121.911830000 11.3

T 2017-11-26 19:14:02 37.412500000 -121.911930000 11.9

T 2017-11-26 19:14:03 37.412766000 -121.912010000 12.6

T 2017-11-26 19:14:04 37.413036000 -121.912100000 12.6

T 2017-11-26 19:14:05 37.413303000 -121.912200000 12.8

T 2017-11-26 19:14:06 37.413570000 -121.912290000 13.3

T 2017-11-26 19:14:08 37.414110000 -121.912476000 13.7

T 2017-11-26 19:14:09 37.414383000 -121.912570000 14.1

T 2017-11-26 19:14:10 37.414650000 -121.912660000 14.8

T 2017-11-26 19:14:11 37.414913000 -121.912750000 14.7

T 2017-11-26 19:14:12 37.415188000 -121.912840000 14.9

T 2017-11-26 19:14:13 37.415443000 -121.912940000 13.4

T 2017-11-26 19:14:14 37.415695000 -121.913080000 13.6

T 2017-11-26 19:14:15 37.415970000 -121.913170000 13.9

T 2017-11-26 19:14:16 37.416237000 -121.913250000 13.6

T 2017-11-26 19:14:18 37.416782000 -121.913420000 13.3

T 2017-11-26 19:14:19 37.417046000 -121.913506000 13.0

T 2017-11-26 19:14:20 37.417310000 -121.913590000 12.8

T 2017-11-26 19:14:21 37.417572000 -121.913680000 13.1

T 2017-11-26 19:14:22 37.417847000 -121.913770000 12.7

T 2017-11-26 19:14:23 37.418118000 -121.913860000 12.8

T 2017-11-26 19:14:24 37.418385000 -121.913950000 12.3

T 2017-11-26 19:14:25 37.418648000 -121.914040000 12.4

T 2017-11-26 19:14:26 37.418915000 -121.914120000 13.6

T 2017-11-26 19:14:27 37.419186000 -121.914210000 14.3

T 2017-11-26 19:14:28 37.419453000 -121.914314000 15.6

T 2017-11-26 19:14:29 37.419730000 -121.914406000 14.6
T 2017-11-26 19:14:31 37.420273000 -121.914580000 13.9

T 2017-11-26 19:14:32 37.420547000 -121.914670000 14.3

T 2017-11-26 19:14:33 37.420822000 -121.914750000 14.2

T 2017-11-26 19:14:34 37.421090000 -121.914840000 15.4

T 2017-11-26 19:14:35 37.421360000 -121.914940000 15.5

T 2017-11-26 19:14:36 37.421627000 -121.915040000 15.1

T 2017-11-26 19:14:37 37.421900000 -121.915130000 14.5

T 2017-11-26 19:14:38 37.422165000 -121.915220000 15.2

T 2017-11-26 19:14:39 37.422436000 -121.915306000 15.1

T 2017-11-26 19:14:40 37.422707000 -121.915405000 14.9

T 2017-11-26 19:14:42 37.423244000 -121.915590000 13.3

T 2017-11-26 19:14:43 37.423504000 -121.915680000 15.3

T 2017-11-26 19:14:44 37.423775000 -121.915790000 15.6

T 2017-11-26 19:14:45 37.424050000 -121.915870000 13.9

T 2017-11-26 19:14:46 37.424320000 -121.915960000 14.2

T 2017-11-26 19:14:47 37.424587000 -121.916060000 15.2

T 2017-11-26 19:14:48 37.424854000 -121.916150000 15.3

T 2017-11-26 19:14:49 37.425117000 -121.916250000 16.2

T 2017-11-26 19:14:50 37.425390000 -121.916330000 15.7

T 2017-11-26 19:14:51 37.425680000 -121.916400000 12.1

T 2017-11-26 19:14:52 37.425945000 -121.916500000 12.3

T 2017-11-26 19:14:53 37.426212000 -121.916600000 11.7

T 2017-11-26 19:14:55 37.426750000 -121.916800000 12.3

T 2017-11-26 19:14:56 37.427017000 -121.916890000 11.4

T 2017-11-26 19:14:57 37.427277000 -121.916990000 11.1

T 2017-11-26 19:14:58 37.427555000 -121.917076000 10.3

T 2017-11-26 19:14:59 37.427820000 -121.917200000 10.6

T 2017-11-26 19:15:00 37.428080000 -121.917336000 10.5

T 2017-11-26 19:15:01 37.428340000 -121.917465000 10.6

T 2017-11-26 19:15:02 37.428600000 -121.917595000 10.1
T 2017-11-26 19:15:03 37.428860000 -121.917725000 10.3

T 2017-11-26 19:15:04 37.429120000 -121.917850000 9.9

T 2017-11-26 19:15:05 37.429390000 -121.917950000 9.9

T 2017-11-26 19:15:07 37.429910000 -121.918144000 11.1

T 2017-11-26 19:15:08 37.430172000 -121.918236000 10.5

T 2017-11-26 19:15:09 37.430454000 -121.918300000 9.0

T 2017-11-26 19:15:10 37.430725000 -121.918365000 8.6

T 2017-11-26 19:15:11 37.431000000 -121.918420000 7.5

T 2017-11-26 19:15:12 37.431274000 -121.918465000 7.0

T 2017-11-26 19:15:13 37.431553000 -121.918520000 6.8

T 2017-11-26 19:15:14 37.431824000 -121.918560000 7.3

T 2017-11-26 19:15:15 37.432100000 -121.918594000 7.0

T 2017-11-26 19:15:16 37.432384000 -121.918630000 6.1

T 2017-11-26 19:15:17 37.432663000 -121.918670000 5.1

T 2017-11-26 19:15:18 37.432945000 -121.918710000 4.7

T 2017-11-26 19:15:20 37.433502000 -121.918785000 4.1

T 2017-11-26 19:15:21 37.433780000 -121.918820000 3.7

T 2017-11-26 19:15:22 37.434063000 -121.918870000 4.0

T 2017-11-26 19:15:23 37.434338000 -121.918920000 3.5

T 2017-11-26 19:15:24 37.434612000 -121.918970000 3.8

T 2017-11-26 19:15:25 37.434887000 -121.919000000 3.8

T 2017-11-26 19:15:27 37.435436000 -121.919090000 4.6

T 2017-11-26 19:15:28 37.435710000 -121.919140000 4.5

T 2017-11-26 19:15:29 37.435990000 -121.919190000 4.4

T 2017-11-26 19:15:30 37.436260000 -121.919235000 4.0

T 2017-11-26 19:15:31 37.436540000 -121.919280000 3.5

T 2017-11-26 19:15:32 37.436817000 -121.919330000 3.3

T 2017-11-26 19:15:33 37.437090000 -121.919380000 3.3

T 2017-11-26 19:15:34 37.437330000 -121.919450000 4.2
T 2017-11-26 19:15:35 37.437614000 -121.919500000 4.3

T 2017-11-26 19:15:37 37.438175000 -121.919610000 3.7

T 2017-11-26 19:15:38 37.438450000 -121.919660000 3.4

T 2017-11-26 19:15:39 37.438713000 -121.919716000 3.4

T 2017-11-26 19:15:40 37.438995000 -121.919760000 3.1

T 2017-11-26 19:15:41 37.439278000 -121.919815000 3.4

T 2017-11-26 19:15:42 37.439552000 -121.919870000 3.6

T 2017-11-26 19:15:43 37.439835000 -121.919920000 3.5

T 2017-11-26 19:15:44 37.440113000 -121.919980000 3.5

T 2017-11-26 19:15:45 37.440388000 -121.920040000 3.3

T 2017-11-26 19:15:46 37.440662000 -121.920090000 2.9

T 2017-11-26 19:15:48 37.441210000 -121.920190000 2.2

T 2017-11-26 19:15:49 37.441490000 -121.920250000 2.1

T 2017-11-26 19:15:50 37.441770000 -121.920310000 2.0

T 2017-11-26 19:15:51 37.442043000 -121.920370000 2.1

T 2017-11-26 19:15:52 37.442318000 -121.920430000 2.0

T 2017-11-26 19:15:53 37.442593000 -121.920494000 1.9

T 2017-11-26 19:15:54 37.442880000 -121.920560000 0.8

T 2017-11-26 19:15:55 37.443153000 -121.920616000 0.2

T 2017-11-26 19:15:56 37.443430000 -121.920680000 -0.3

T 2017-11-26 19:15:57 37.443707000 -121.920740000 -0.7

T 2017-11-26 19:15:59 37.444250000 -121.920860000 -0.6

T 2017-11-26 19:16:00 37.444527000 -121.920920000 -1.1

T 2017-11-26 19:16:01 37.444790000 -121.920975000 -1.8

T 2017-11-26 19:16:02 37.445065000 -121.921030000 -1.8

T 2017-11-26 19:16:03 37.445335000 -121.921090000 -1.8

T 2017-11-26 19:16:04 37.445614000 -121.921150000 -2.0

T 2017-11-26 19:16:06 37.446163000 -121.921260000 -3.1

T 2017-11-26 19:16:07 37.446440000 -121.921310000 -3.5

T 2017-11-26 19:16:08 37.446720000 -121.921364000 -3.3
T 2017-11-26 19:16:09 37.446990000 -121.921420000 -5.4

T 2017-11-26 19:16:10 37.447266000 -121.921470000 -5.4

T 2017-11-26 19:16:11 37.447544000 -121.921530000 -5.4

T 2017-11-26 19:16:12 37.447815000 -121.921590000 -4.0

T 2017-11-26 19:16:13 37.448090000 -121.921646000 -4.2

T 2017-11-26 19:16:14 37.448368000 -121.921700000 -3.5

T 2017-11-26 19:16:15 37.448647000 -121.921750000 -3.1

T 2017-11-26 19:16:16 37.448930000 -121.921810000 -3.4

T 2017-11-26 19:16:18 37.449490000 -121.921910000 -3.1

T 2017-11-26 19:16:19 37.449770000 -121.921970000 -3.1

T 2017-11-26 19:16:20 37.450047000 -121.922030000 -3.1

T 2017-11-26 19:16:21 37.450320000 -121.922080000 -3.3

T 2017-11-26 19:16:22 37.450596000 -121.922140000 -3.2

T 2017-11-26 19:16:23 37.450874000 -121.922200000 -3.0

T 2017-11-26 19:16:24 37.451145000 -121.922260000 -2.8

T 2017-11-26 19:16:25 37.451420000 -121.922310000 -2.6

T 2017-11-26 19:16:26 37.451694000 -121.922360000 -2.4

T 2017-11-26 19:16:27 37.451965000 -121.922420000 -2.2

T 2017-11-26 19:16:28 37.452236000 -121.922470000 -2.0

T 2017-11-26 19:16:29 37.452507000 -121.922530000 -2.1

T 2017-11-26 19:16:31 37.453056000 -121.922640000 -1.5

T 2017-11-26 19:16:32 37.453335000 -121.922690000 -1.6

T 2017-11-26 19:16:33 37.453610000 -121.922750000 -1.7

T 2017-11-26 19:16:34 37.453888000 -121.922806000 -2.1

T 2017-11-26 19:16:35 37.454166000 -121.922850000 -1.6

T 2017-11-26 19:16:36 37.454430000 -121.922905000 -2.2

T 2017-11-26 19:16:37 37.454710000 -121.922960000 -3.3

T 2017-11-26 19:16:38 37.454990000 -121.923010000 -3.4

T 2017-11-26 19:16:39 37.455270000 -121.923065000 -3.9
T 2017-11-26 19:16:41 37.455826000 -121.923164000 -3.5

T 2017-11-26 19:16:42 37.456100000 -121.923225000 -3.7

T 2017-11-26 19:16:43 37.456380000 -121.923270000 -3.5

T 2017-11-26 19:16:44 37.456646000 -121.923325000 -3.2

T 2017-11-26 19:16:45 37.456920000 -121.923386000 -2.6

T 2017-11-26 19:16:46 37.457200000 -121.923450000 -2.3

T 2017-11-26 19:16:47 37.457474000 -121.923515000 -2.2

T 2017-11-26 19:16:49 37.458027000 -121.923676000 -1.1

T 2017-11-26 19:16:50 37.458300000 -121.923770000 -0.8

T 2017-11-26 19:16:51 37.458570000 -121.923874000 -0.8

T 2017-11-26 19:16:52 37.458836000 -121.923970000 0.4

T 2017-11-26 19:16:53 37.459100000 -121.924080000 1.0

T 2017-11-26 19:16:54 37.459366000 -121.924194000 0.8

T 2017-11-26 19:16:55 37.459630000 -121.924320000 -1.3

T 2017-11-26 19:16:57 37.460148000 -121.924576000 -0.0

T 2017-11-26 19:16:58 37.460407000 -121.924706000 -0.0

T 2017-11-26 19:16:59 37.460670000 -121.924835000 -0.1

T 2017-11-26 19:17:00 37.460930000 -121.924960000 -0.9

T 2017-11-26 19:17:01 37.461190000 -121.925095000 -0.8

T 2017-11-26 19:17:02 37.461452000 -121.925220000 -0.9

T 2017-11-26 19:17:03 37.461710000 -121.925354000 -0.7

T 2017-11-26 19:17:04 37.461967000 -121.925476000 -0.6

T 2017-11-26 19:17:05 37.462230000 -121.925600000 -1.1

T 2017-11-26 19:17:06 37.462494000 -121.925730000 -0.7

T 2017-11-26 19:17:07 37.462753000 -121.925860000 -0.8

T 2017-11-26 19:17:08 37.463010000 -121.925990000 -0.4

T 2017-11-26 19:17:10 37.463535000 -121.926230000 -0.3

T 2017-11-26 19:17:11 37.463795000 -121.926350000 -0.3

T 2017-11-26 19:17:12 37.464046000 -121.926480000 0.2

T 2017-11-26 19:17:13 37.464306000 -121.926610000 -0.1
T 2017-11-26 19:17:14 37.464565000 -121.926740000 0.0

T 2017-11-26 19:17:15 37.464820000 -121.926870000 0.4

T 2017-11-26 19:17:16 37.465084000 -121.927000000 0.4

T 2017-11-26 19:17:17 37.465340000 -121.927124000 0.2

T 2017-11-26 19:17:19 37.465862000 -121.927390000 0.2

T 2017-11-26 19:17:20 37.466125000 -121.927520000 0.0

T 2017-11-26 19:17:21 37.466380000 -121.927650000 0.1

T 2017-11-26 19:17:22 37.466640000 -121.927780000 0.8

T 2017-11-26 19:17:23 37.466900000 -121.927910000 0.5

T 2017-11-26 19:17:24 37.467160000 -121.928030000 0.0

T 2017-11-26 19:17:25 37.467415000 -121.928160000 0.1

T 2017-11-26 19:17:26 37.467678000 -121.928290000 0.2

T 2017-11-26 19:17:27 37.467940000 -121.928430000 0.4

T 2017-11-26 19:17:28 37.468200000 -121.928550000 1.2

T 2017-11-26 19:17:30 37.468716000 -121.928810000 1.4

T 2017-11-26 19:17:31 37.468975000 -121.928940000 1.0

T 2017-11-26 19:17:32 37.469234000 -121.929060000 1.6

T 2017-11-26 19:17:33 37.469490000 -121.929190000 1.9

T 2017-11-26 19:17:34 37.469753000 -121.929310000 2.3

T 2017-11-26 19:17:35 37.470016000 -121.929436000 1.7

T 2017-11-26 19:17:36 37.470280000 -121.929565000 1.9

T 2017-11-26 19:17:37 37.470540000 -121.929695000 2.7

T 2017-11-26 19:17:38 37.470800000 -121.929830000 2.9

T 2017-11-26 19:17:39 37.471054000 -121.929955000 3.2

T 2017-11-26 19:17:40 37.471317000 -121.930084000 2.8

T 2017-11-26 19:17:42 37.471836000 -121.930340000 2.7

T 2017-11-26 19:17:43 37.472095000 -121.930466000 2.6

T 2017-11-26 19:17:44 37.472355000 -121.930595000 2.8

T 2017-11-26 19:17:45 37.472614000 -121.930725000 2.9
T 2017-11-26 19:17:46 37.472874000 -121.930850000 2.8

T 2017-11-26 19:17:47 37.473133000 -121.930980000 3.5

T 2017-11-26 19:17:48 37.473392000 -121.931110000 3.3

T 2017-11-26 19:17:49 37.473648000 -121.931240000 3.6

T 2017-11-26 19:17:51 37.474163000 -121.931496000 4.0

T 2017-11-26 19:17:52 37.474426000 -121.931620000 3.8

T 2017-11-26 19:17:53 37.474690000 -121.931750000 4.4

T 2017-11-26 19:17:54 37.474953000 -121.931885000 4.2

T 2017-11-26 19:17:55 37.475210000 -121.932020000 4.3

T 2017-11-26 19:17:56 37.475475000 -121.932144000 4.6

T 2017-11-26 19:17:57 37.475735000 -121.932280000 4.3

T 2017-11-26 19:17:58 37.475994000 -121.932410000 4.6

T 2017-11-26 19:17:59 37.476250000 -121.932530000 5.4

T 2017-11-26 19:18:00 37.476505000 -121.932655000 6.2

T 2017-11-26 19:18:01 37.476765000 -121.932790000 6.1

T 2017-11-26 19:18:03 37.477283000 -121.933020000 5.6

T 2017-11-26 19:18:04 37.477543000 -121.933170000 5.6

T 2017-11-26 19:18:05 37.477810000 -121.933300000 5.6

T 2017-11-26 19:18:06 37.478073000 -121.933426000 5.5

T 2017-11-26 19:18:07 37.478336000 -121.933550000 5.5

T 2017-11-26 19:18:08 37.478603000 -121.933680000 5.5

T 2017-11-26 19:18:09 37.478870000 -121.933800000 5.8

T 2017-11-26 19:18:10 37.479126000 -121.933920000 6.5

T 2017-11-26 19:18:11 37.479385000 -121.934050000 6.6

T 2017-11-26 19:18:13 37.479904000 -121.934310000 6.8

T 2017-11-26 19:18:14 37.480164000 -121.934450000 7.1

T 2017-11-26 19:18:15 37.480427000 -121.934580000 7.4

T 2017-11-26 19:18:16 37.480682000 -121.934710000 8.0

T 2017-11-26 19:18:17 37.480938000 -121.934840000 8.5

T 2017-11-26 19:18:18 37.481190000 -121.934970000 8.9
T 2017-11-26 19:18:19 37.481438000 -121.935110000 9.4

T 2017-11-26 19:18:20 37.481686000 -121.935260000 9.3

T 2017-11-26 19:18:21 37.481934000 -121.935410000 9.6

T 2017-11-26 19:18:23 37.482420000 -121.935750000 9.8

T 2017-11-26 19:18:24 37.482660000 -121.935940000 9.8

T 2017-11-26 19:18:25 37.482890000 -121.936134000 10.1

T 2017-11-26 19:18:26 37.483128000 -121.936340000 10.1

T 2017-11-26 19:18:27 37.483356000 -121.936560000 10.1

T 2017-11-26 19:18:28 37.483580000 -121.936780000 9.1

T 2017-11-26 19:18:30 37.484010000 -121.937225000 5.5

T 2017-11-26 19:18:31 37.484220000 -121.937450000 5.3

T 2017-11-26 19:18:32 37.484430000 -121.937690000 4.8

T 2017-11-26 19:18:33 37.484630000 -121.937935000 4.7

T 2017-11-26 19:18:34 37.484833000 -121.938180000 4.2

T 2017-11-26 19:18:35 37.485030000 -121.938430000 3.4

T 2017-11-26 19:18:36 37.485230000 -121.938690000 2.9

T 2017-11-26 19:18:37 37.485428000 -121.938940000 2.9

T 2017-11-26 19:18:38 37.485620000 -121.939190000 3.0

T 2017-11-26 19:18:39 37.485800000 -121.939440000 4.2

T 2017-11-26 19:18:41 37.486200000 -121.939964000 3.0

T 2017-11-26 19:18:42 37.486380000 -121.940210000 3.6

T 2017-11-26 19:18:43 37.486572000 -121.940450000 3.6

T 2017-11-26 19:18:44 37.486770000 -121.940710000 4.0

T 2017-11-26 19:18:45 37.486960000 -121.940960000 3.9

T 2017-11-26 19:18:46 37.487150000 -121.941210000 4.0

T 2017-11-26 19:18:47 37.487340000 -121.941460000 3.6

T 2017-11-26 19:18:48 37.487540000 -121.941710000 3.6

T 2017-11-26 19:18:49 37.487732000 -121.941956000 4.2

T 2017-11-26 19:18:50 37.487923000 -121.942210000 4.3
T 2017-11-26 19:18:52 37.488308000 -121.942710000 3.8

T 2017-11-26 19:18:53 37.488500000 -121.942970000 3.8

T 2017-11-26 19:18:54 37.488690000 -121.943214000 4.1

T 2017-11-26 19:18:55 37.488880000 -121.943460000 4.0

T 2017-11-26 19:18:56 37.489070000 -121.943710000 4.1

T 2017-11-26 19:18:57 37.489265000 -121.943970000 4.0

T 2017-11-26 19:18:58 37.489464000 -121.944220000 3.8

T 2017-11-26 19:18:59 37.489655000 -121.944470000 3.8

T 2017-11-26 19:19:00 37.489853000 -121.944725000 3.5

T 2017-11-26 19:19:01 37.490044000 -121.944980000 3.5

T 2017-11-26 19:19:02 37.490240000 -121.945230000 3.6

T 2017-11-26 19:19:04 37.490623000 -121.945730000 4.2

T 2017-11-26 19:19:05 37.490818000 -121.945984000 3.1

T 2017-11-26 19:19:06 37.491013000 -121.946240000 4.2

T 2017-11-26 19:19:07 37.491210000 -121.946495000 3.8

T 2017-11-26 19:19:08 37.491400000 -121.946750000 3.4

T 2017-11-26 19:19:09 37.491600000 -121.947000000 3.5

T 2017-11-26 19:19:10 37.491787000 -121.947250000 3.9

T 2017-11-26 19:19:12 37.492176000 -121.947754000 3.2

T 2017-11-26 19:19:13 37.492370000 -121.948000000 2.4

T 2017-11-26 19:19:14 37.492560000 -121.948250000 2.7

T 2017-11-26 19:19:15 37.492752000 -121.948494000 3.0

T 2017-11-26 19:19:16 37.492943000 -121.948760000 3.1

T 2017-11-26 19:19:17 37.493140000 -121.949020000 3.1

T 2017-11-26 19:19:18 37.493332000 -121.949270000 3.5

T 2017-11-26 19:19:19 37.493526000 -121.949524000 3.3

T 2017-11-26 19:19:20 37.493725000 -121.949776000 3.3

T 2017-11-26 19:19:21 37.493920000 -121.950030000 3.5

T 2017-11-26 19:19:22 37.494114000 -121.950280000 3.7

T 2017-11-26 19:19:23 37.494310000 -121.950540000 3.3
T 2017-11-26 19:19:25 37.494705000 -121.951040000 2.5

T 2017-11-26 19:19:26 37.494900000 -121.951300000 2.1

T 2017-11-26 19:19:27 37.495094000 -121.951550000 2.2

T 2017-11-26 19:19:28 37.495290000 -121.951810000 1.7

T 2017-11-26 19:19:29 37.495483000 -121.952065000 2.2

T 2017-11-26 19:19:30 37.495674000 -121.952320000 2.5

T 2017-11-26 19:19:31 37.495872000 -121.952560000 2.1

T 2017-11-26 19:19:32 37.496063000 -121.952810000 2.4

T 2017-11-26 19:19:33 37.496258000 -121.953064000 2.4

T 2017-11-26 19:19:34 37.496445000 -121.953310000 2.7

T 2017-11-26 19:19:36 37.496834000 -121.953804000 2.9

T 2017-11-26 19:19:37 37.497025000 -121.954056000 3.5

T 2017-11-26 19:19:38 37.497220000 -121.954300000 3.0

T 2017-11-26 19:19:39 37.497414000 -121.954550000 3.0

T 2017-11-26 19:19:40 37.497610000 -121.954800000 3.1

T 2017-11-26 19:19:41 37.497795000 -121.955055000 3.2

T 2017-11-26 19:19:42 37.497990000 -121.955310000 3.3

T 2017-11-26 19:19:43 37.498180000 -121.955560000 3.2

T 2017-11-26 19:19:44 37.498370000 -121.955810000 3.7

T 2017-11-26 19:19:45 37.498566000 -121.956060000 3.4

T 2017-11-26 19:19:47 37.498950000 -121.956566000 3.7

T 2017-11-26 19:19:48 37.499140000 -121.956820000 3.8

T 2017-11-26 19:19:49 37.499336000 -121.957070000 3.8

T 2017-11-26 19:19:50 37.499530000 -121.957320000 3.6

T 2017-11-26 19:19:51 37.499725000 -121.957580000 3.6

T 2017-11-26 19:19:52 37.499916000 -121.957840000 4.7

T 2017-11-26 19:19:53 37.500110000 -121.958090000 4.2

T 2017-11-26 19:19:54 37.500310000 -121.958340000 4.5

T 2017-11-26 19:19:55 37.500504000 -121.958595000 5.0
T 2017-11-26 19:19:56 37.500694000 -121.958850000 5.0

T 2017-11-26 19:19:57 37.500890000 -121.959100000 5.0

T 2017-11-26 19:19:59 37.501280000 -121.959600000 5.5

T 2017-11-26 19:20:00 37.501476000 -121.959854000 5.0

T 2017-11-26 19:20:01 37.501670000 -121.960106000 5.5

T 2017-11-26 19:20:02 37.501865000 -121.960350000 5.1

T 2017-11-26 19:20:03 37.502056000 -121.960600000 4.2

T 2017-11-26 19:20:04 37.502250000 -121.960850000 4.1

T 2017-11-26 19:20:05 37.502440000 -121.961110000 4.3

T 2017-11-26 19:20:06 37.502636000 -121.961360000 4.0

T 2017-11-26 19:20:08 37.503017000 -121.961876000 4.0

T 2017-11-26 19:20:09 37.503216000 -121.962120000 3.9

T 2017-11-26 19:20:10 37.503410000 -121.962370000 3.8

T 2017-11-26 19:20:11 37.503600000 -121.962620000 3.9

T 2017-11-26 19:20:12 37.503790000 -121.962870000 4.4

T 2017-11-26 19:20:13 37.503990000 -121.963120000 4.9

T 2017-11-26 19:20:14 37.504185000 -121.963370000 5.0

T 2017-11-26 19:20:15 37.504383000 -121.963620000 5.0

T 2017-11-26 19:20:17 37.504772000 -121.964110000 5.3

T 2017-11-26 19:20:18 37.504967000 -121.964360000 5.7

T 2017-11-26 19:20:19 37.505170000 -121.964610000 5.4

T 2017-11-26 19:20:20 37.505367000 -121.964850000 5.7

T 2017-11-26 19:20:21 37.505566000 -121.965096000 5.7

T 2017-11-26 19:20:22 37.505768000 -121.965350000 5.2

T 2017-11-26 19:20:23 37.505966000 -121.965590000 4.9

T 2017-11-26 19:20:24 37.506160000 -121.965836000 4.9

T 2017-11-26 19:20:25 37.506360000 -121.966080000 4.9

T 2017-11-26 19:20:26 37.506560000 -121.966324000 4.8

T 2017-11-26 19:20:27 37.506760000 -121.966570000 5.1

T 2017-11-26 19:20:29 37.507156000 -121.967064000 5.3
T 2017-11-26 19:20:30 37.507355000 -121.967310000 5.2

T 2017-11-26 19:20:31 37.507553000 -121.967540000 5.5

T 2017-11-26 19:20:32 37.507748000 -121.967790000 5.5

T 2017-11-26 19:20:33 37.507950000 -121.968030000 5.2

T 2017-11-26 19:20:34 37.508140000 -121.968285000 5.3

T 2017-11-26 19:20:35 37.508343000 -121.968530000 5.1

T 2017-11-26 19:20:36 37.508540000 -121.968770000 5.3

T 2017-11-26 19:20:37 37.508743000 -121.969025000 5.4

T 2017-11-26 19:20:38 37.508940000 -121.969270000 5.2

T 2017-11-26 19:20:39 37.509140000 -121.969510000 5.6

T 2017-11-26 19:20:40 37.509340000 -121.969760000 5.5

T 2017-11-26 19:20:42 37.509730000 -121.970240000 5.4

T 2017-11-26 19:20:43 37.509940000 -121.970500000 4.6

T 2017-11-26 19:20:44 37.510140000 -121.970740000 4.5

T 2017-11-26 19:20:45 37.510334000 -121.970990000 4.6

T 2017-11-26 19:20:46 37.510530000 -121.971240000 4.6

T 2017-11-26 19:20:47 37.510723000 -121.971490000 4.7

T 2017-11-26 19:20:48 37.510920000 -121.971730000 4.8

T 2017-11-26 19:20:49 37.511120000 -121.971980000 5.0

T 2017-11-26 19:20:50 37.511320000 -121.972220000 5.2

T 2017-11-26 19:20:51 37.511520000 -121.972470000 5.3

T 2017-11-26 19:20:53 37.511925000 -121.972960000 4.4

T 2017-11-26 19:20:54 37.512123000 -121.973206000 4.3

T 2017-11-26 19:20:55 37.512330000 -121.973460000 4.4

T 2017-11-26 19:20:56 37.512527000 -121.973700000 4.4

T 2017-11-26 19:20:57 37.512722000 -121.973946000 4.6

T 2017-11-26 19:20:58 37.512924000 -121.974200000 4.4

T 2017-11-26 19:20:59 37.513120000 -121.974440000 4.5

T 2017-11-26 19:21:00 37.513317000 -121.974686000 4.5
T 2017-11-26 19:21:02 37.513714000 -121.975180000 4.9

T 2017-11-26 19:21:04 37.514114000 -121.975680000 4.8

T 2017-11-26 19:21:05 37.514310000 -121.975920000 4.9

T 2017-11-26 19:21:06 37.514507000 -121.976166000 5.2

T 2017-11-26 19:21:07 37.514710000 -121.976410000 4.9

T 2017-11-26 19:21:08 37.514910000 -121.976654000 4.8

T 2017-11-26 19:21:09 37.515110000 -121.976906000 4.7

T 2017-11-26 19:21:10 37.515310000 -121.977150000 4.8

T 2017-11-26 19:21:11 37.515507000 -121.977394000 4.9

T 2017-11-26 19:21:12 37.515705000 -121.977646000 5.1

T 2017-11-26 19:21:13 37.515900000 -121.977890000 5.1

T 2017-11-26 19:21:14 37.516100000 -121.978140000 5.4

T 2017-11-26 19:21:15 37.516300000 -121.978386000 5.5

T 2017-11-26 19:21:17 37.516697000 -121.978874000 5.4

T 2017-11-26 19:21:18 37.516890000 -121.979120000 5.5

T 2017-11-26 19:21:19 37.517094000 -121.979360000 5.4

T 2017-11-26 19:21:20 37.517290000 -121.979614000 5.8

T 2017-11-26 19:21:21 37.517487000 -121.979866000 5.8

T 2017-11-26 19:21:22 37.517685000 -121.980110000 5.9

T 2017-11-26 19:21:23 37.517883000 -121.980354000 6.0

T 2017-11-26 19:21:24 37.518085000 -121.980606000 6.0

T 2017-11-26 19:21:25 37.518284000 -121.980850000 6.2

T 2017-11-26 19:21:26 37.518482000 -121.981094000 6.2

T 2017-11-26 19:21:28 37.518887000 -121.981590000 6.3

T 2017-11-26 19:21:29 37.519077000 -121.981834000 6.3

T 2017-11-26 19:21:30 37.519276000 -121.982080000 6.5

T 2017-11-26 19:21:31 37.519470000 -121.982320000 6.2

T 2017-11-26 19:21:32 37.519665000 -121.982574000 6.7

T 2017-11-26 19:21:33 37.519855000 -121.982830000 6.9

T 2017-11-26 19:21:34 37.520050000 -121.983086000 7.3
T 2017-11-26 19:21:35 37.520237000 -121.983345000 7.6

T 2017-11-26 19:21:36 37.520420000 -121.983610000 7.7

T 2017-11-26 19:21:38 37.520767000 -121.984160000 8.5

T 2017-11-26 19:21:39 37.520935000 -121.984440000 8.7

T 2017-11-26 19:21:40 37.521095000 -121.984726000 8.8

T 2017-11-26 19:21:41 37.521255000 -121.985016000 8.9

T 2017-11-26 19:21:42 37.521416000 -121.985306000 9.4

T 2017-11-26 19:21:43 37.521570000 -121.985600000 9.3

T 2017-11-26 19:21:44 37.521717000 -121.985900000 9.2

T 2017-11-26 19:21:45 37.521862000 -121.986200000 9.1

T 2017-11-26 19:21:46 37.522010000 -121.986496000 8.8

T 2017-11-26 19:21:47 37.522160000 -121.986800000 8.8

T 2017-11-26 19:21:49 37.522450000 -121.987400000 9.1

T 2017-11-26 19:21:50 37.522602000 -121.987700000 10.3

T 2017-11-26 19:21:51 37.522743000 -121.988000000 10.0

T 2017-11-26 19:21:52 37.522890000 -121.988290000 10.4

T 2017-11-26 19:21:53 37.523040000 -121.988594000 10.4

T 2017-11-26 19:21:54 37.523190000 -121.988884000 10.4

T 2017-11-26 19:21:55 37.523340000 -121.989190000 10.7

T 2017-11-26 19:21:56 37.523487000 -121.989490000 10.8

T 2017-11-26 19:21:57 37.523636000 -121.989780000 10.7

T 2017-11-26 19:21:58 37.523777000 -121.990080000 10.6

T 2017-11-26 19:21:59 37.523930000 -121.990380000 10.8

T 2017-11-26 19:22:01 37.524216000 -121.990970000 11.0

T 2017-11-26 19:22:02 37.524360000 -121.991270000 8.6

T 2017-11-26 19:22:03 37.524513000 -121.991570000 9.8

T 2017-11-26 19:22:04 37.524660000 -121.991870000 10.4

T 2017-11-26 19:22:05 37.524807000 -121.992165000 10.9

T 2017-11-26 19:22:06 37.524956000 -121.992460000 11.2
T 2017-11-26 19:22:07 37.525105000 -121.992760000 11.4

T 2017-11-26 19:22:08 37.525250000 -121.993060000 11.7

T 2017-11-26 19:22:09 37.525394000 -121.993350000 12.0

T 2017-11-26 19:22:11 37.525692000 -121.993940000 12.3

T 2017-11-26 19:22:12 37.525837000 -121.994250000 12.7

T 2017-11-26 19:22:13 37.525980000 -121.994545000 12.7

T 2017-11-26 19:22:14 37.526127000 -121.994840000 12.8

T 2017-11-26 19:22:15 37.526270000 -121.995140000 12.8

T 2017-11-26 19:22:16 37.526417000 -121.995430000 13.7

T 2017-11-26 19:22:17 37.526566000 -121.995730000 13.7

T 2017-11-26 19:22:18 37.526714000 -121.996025000 13.8

T 2017-11-26 19:22:19 37.526863000 -121.996320000 13.5

T 2017-11-26 19:22:20 37.527008000 -121.996630000 13.4

T 2017-11-26 19:22:21 37.527157000 -121.996925000 13.7

T 2017-11-26 19:22:23 37.527447000 -121.997520000 13.7

T 2017-11-26 19:22:24 37.527596000 -121.997810000 13.8

T 2017-11-26 19:22:25 37.527740000 -121.998116000 14.3

T 2017-11-26 19:22:26 37.527885000 -121.998410000 14.8

T 2017-11-26 19:22:27 37.528034000 -121.998710000 15.4

T 2017-11-26 19:22:28 37.528180000 -121.999000000 15.9

T 2017-11-26 19:22:29 37.528336000 -121.999290000 15.8

T 2017-11-26 19:22:30 37.528480000 -121.999570000 15.7

T 2017-11-26 19:22:32 37.528790000 -122.000150000 15.9

T 2017-11-26 19:22:33 37.528950000 -122.000440000 16.0

T 2017-11-26 19:22:34 37.529106000 -122.000730000 15.8

T 2017-11-26 19:22:35 37.529260000 -122.001030000 15.7

T 2017-11-26 19:22:36 37.529420000 -122.001320000 15.1

T 2017-11-26 19:22:37 37.529575000 -122.001610000 15.1

T 2017-11-26 19:22:38 37.529730000 -122.001890000 15.4

T 2017-11-26 19:22:39 37.529890000 -122.002180000 15.0
T 2017-11-26 19:22:40 37.530045000 -122.002450000 14.3

T 2017-11-26 19:22:41 37.530193000 -122.002754000 14.0

T 2017-11-26 19:22:43 37.530514000 -122.003340000 13.9

T 2017-11-26 19:22:44 37.530670000 -122.003630000 13.9

T 2017-11-26 19:22:45 37.530827000 -122.003920000 13.9

T 2017-11-26 19:22:46 37.530987000 -122.004210000 13.6

T 2017-11-26 19:22:47 37.531147000 -122.004500000 13.3

T 2017-11-26 19:22:48 37.531307000 -122.004790000 13.1

T 2017-11-26 19:22:49 37.531464000 -122.005080000 12.9

T 2017-11-26 19:22:50 37.531624000 -122.005370000 12.6

T 2017-11-26 19:22:51 37.531776000 -122.005660000 12.6

T 2017-11-26 19:22:52 37.531937000 -122.005950000 11.8

T 2017-11-26 19:22:53 37.532090000 -122.006240000 11.9

T 2017-11-26 19:22:55 37.532406000 -122.006820000 12.1

T 2017-11-26 19:22:56 37.532566000 -122.007110000 11.7

T 2017-11-26 19:22:57 37.532720000 -122.007400000 12.0

T 2017-11-26 19:22:58 37.532875000 -122.007690000 11.8

T 2017-11-26 19:22:59 37.533030000 -122.007980000 12.0

T 2017-11-26 19:23:00 37.533190000 -122.008280000 12.5

T 2017-11-26 19:23:02 37.533504000 -122.008850000 12.2

T 2017-11-26 19:23:03 37.533653000 -122.009140000 12.1

T 2017-11-26 19:23:04 37.533810000 -122.009430000 12.2

T 2017-11-26 19:23:05 37.533970000 -122.009720000 12.3

T 2017-11-26 19:23:06 37.534126000 -122.010010000 12.4

T 2017-11-26 19:23:07 37.534286000 -122.010300000 12.0

T 2017-11-26 19:23:08 37.534443000 -122.010580000 12.1

T 2017-11-26 19:23:09 37.534600000 -122.010870000 12.2

T 2017-11-26 19:23:11 37.534916000 -122.011460000 12.2

T 2017-11-26 19:23:12 37.535076000 -122.011750000 11.7
T 2017-11-26 19:23:13 37.535225000 -122.012030000 11.9

T 2017-11-26 19:23:14 37.535378000 -122.012320000 11.8

T 2017-11-26 19:23:15 37.535538000 -122.012610000 11.6

T 2017-11-26 19:23:16 37.535694000 -122.012900000 10.9

T 2017-11-26 19:23:17 37.535850000 -122.013190000 10.6

T 2017-11-26 19:23:18 37.536020000 -122.013480000 10.4

T 2017-11-26 19:23:19 37.536182000 -122.013760000 10.5

T 2017-11-26 19:23:20 37.536358000 -122.014046000 10.5

T 2017-11-26 19:23:21 37.536537000 -122.014320000 10.3

T 2017-11-26 19:23:22 37.536716000 -122.014580000 10.5

T 2017-11-26 19:23:24 37.537100000 -122.015100000 12.2

T 2017-11-26 19:23:25 37.537300000 -122.015340000 11.8

T 2017-11-26 19:23:26 37.537506000 -122.015580000 11.0

T 2017-11-26 19:23:27 37.537720000 -122.015816000 10.0

T 2017-11-26 19:23:28 37.537937000 -122.016045000 9.7

T 2017-11-26 19:23:29 37.538160000 -122.016270000 10.2

T 2017-11-26 19:23:30 37.538383000 -122.016490000 9.1

T 2017-11-26 19:23:31 37.538616000 -122.016690000 7.5

T 2017-11-26 19:23:32 37.538853000 -122.016890000 6.8

T 2017-11-26 19:23:33 37.539090000 -122.017080000 6.6

T 2017-11-26 19:23:34 37.539330000 -122.017265000 6.8

T 2017-11-26 19:23:35 37.539574000 -122.017456000 7.2

T 2017-11-26 19:23:37 37.540050000 -122.017810000 7.3

T 2017-11-26 19:23:38 37.540290000 -122.017980000 6.9

T 2017-11-26 19:23:39 37.540527000 -122.018160000 6.9

T 2017-11-26 19:23:40 37.540764000 -122.018330000 7.2

T 2017-11-26 19:23:41 37.541000000 -122.018510000 7.2

T 2017-11-26 19:23:42 37.541240000 -122.018690000 7.7

T 2017-11-26 19:23:43 37.541477000 -122.018870000 7.9

T 2017-11-26 19:23:44 37.541720000 -122.019050000 8.2
T 2017-11-26 19:23:45 37.541958000 -122.019226000 8.1

T 2017-11-26 19:23:46 37.542200000 -122.019410000 8.0

T 2017-11-26 19:23:48 37.542670000 -122.019770000 8.5

T 2017-11-26 19:23:49 37.542910000 -122.019950000 8.8

T 2017-11-26 19:23:50 37.543144000 -122.020134000 9.1

T 2017-11-26 19:23:51 37.543385000 -122.020310000 9.2

T 2017-11-26 19:23:52 37.543625000 -122.020485000 8.9

T 2017-11-26 19:23:53 37.543865000 -122.020670000 9.3

T 2017-11-26 19:23:54 37.544106000 -122.020840000 9.5

T 2017-11-26 19:23:55 37.544346000 -122.021030000 9.7

T 2017-11-26 19:23:56 37.544582000 -122.021200000 9.9

T 2017-11-26 19:23:57 37.544823000 -122.021380000 10.0

T 2017-11-26 19:23:59 37.545300000 -122.021736000 10.0

T 2017-11-26 19:24:00 37.545536000 -122.021920000 10.0

T 2017-11-26 19:24:01 37.545776000 -122.022100000 10.8

T 2017-11-26 19:24:02 37.546010000 -122.022280000 10.7

T 2017-11-26 19:24:03 37.546250000 -122.022460000 10.5

T 2017-11-26 19:24:04 37.546486000 -122.022640000 11.0

T 2017-11-26 19:24:05 37.546730000 -122.022820000 11.2

T 2017-11-26 19:24:06 37.546978000 -122.023000000 13.1

T 2017-11-26 19:24:07 37.547215000 -122.023170000 13.2

T 2017-11-26 19:24:09 37.547680000 -122.023510000 13.1

T 2017-11-26 19:24:10 37.547913000 -122.023700000 14.1

T 2017-11-26 19:24:11 37.548150000 -122.023865000 14.1

T 2017-11-26 19:24:12 37.548386000 -122.024050000 14.2

T 2017-11-26 19:24:13 37.548626000 -122.024220000 14.0

T 2017-11-26 19:24:14 37.548870000 -122.024400000 13.9

T 2017-11-26 19:24:15 37.549110000 -122.024590000 14.3

T 2017-11-26 19:24:16 37.549350000 -122.024770000 14.4
T 2017-11-26 19:24:17 37.549590000 -122.024956000 14.8

T 2017-11-26 19:24:18 37.549835000 -122.025140000 14.4

T 2017-11-26 19:24:19 37.550070000 -122.025320000 14.6

T 2017-11-26 19:24:21 37.550556000 -122.025690000 14.8

T 2017-11-26 19:24:22 37.550797000 -122.025860000 14.8

T 2017-11-26 19:24:23 37.551037000 -122.026050000 15.1

T 2017-11-26 19:24:24 37.551277000 -122.026230000 15.3

T 2017-11-26 19:24:25 37.551517000 -122.026410000 15.2

T 2017-11-26 19:24:27 37.552002000 -122.026770000 15.1

T 2017-11-26 19:24:28 37.552242000 -122.026950000 15.1

T 2017-11-26 19:24:29 37.552486000 -122.027130000 14.6

T 2017-11-26 19:24:30 37.552723000 -122.027310000 14.8

T 2017-11-26 19:24:31 37.552967000 -122.027500000 14.6

T 2017-11-26 19:24:33 37.553448000 -122.027860000 13.3

T 2017-11-26 19:24:34 37.553680000 -122.028050000 13.2

T 2017-11-26 19:24:35 37.553913000 -122.028250000 13.3

T 2017-11-26 19:24:36 37.554146000 -122.028450000 13.0

T 2017-11-26 19:24:37 37.554370000 -122.028650000 13.2

T 2017-11-26 19:24:38 37.554596000 -122.028854000 12.8

T 2017-11-26 19:24:39 37.554813000 -122.029060000 12.2

T 2017-11-26 19:24:40 37.555030000 -122.029274000 12.2

T 2017-11-26 19:24:41 37.555250000 -122.029495000 11.8

T 2017-11-26 19:24:42 37.555466000 -122.029724000 12.5

T 2017-11-26 19:24:43 37.555683000 -122.029945000 12.5

T 2017-11-26 19:24:45 37.556087000 -122.030420000 11.9

T 2017-11-26 19:24:46 37.556300000 -122.030650000 12.1

T 2017-11-26 19:24:47 37.556503000 -122.030876000 11.9

T 2017-11-26 19:24:48 37.556713000 -122.031105000 11.5

T 2017-11-26 19:24:49 37.556934000 -122.031334000 11.2

T 2017-11-26 19:24:50 37.557137000 -122.031560000 10.8
T 2017-11-26 19:24:51 37.557320000 -122.031800000 11.0

T 2017-11-26 19:24:52 37.557530000 -122.032036000 10.7

T 2017-11-26 19:24:54 37.557964000 -122.032486000 10.3

T 2017-11-26 19:24:55 37.558193000 -122.032710000 10.0

T 2017-11-26 19:24:56 37.558400000 -122.032936000 9.8

T 2017-11-26 19:24:57 37.558636000 -122.033150000 10.0

T 2017-11-26 19:24:58 37.558870000 -122.033360000 9.9

T 2017-11-26 19:24:59 37.559090000 -122.033585000 10.3

T 2017-11-26 19:25:00 37.559290000 -122.033810000 10.2

T 2017-11-26 19:25:01 37.559505000 -122.034050000 10.2

T 2017-11-26 19:25:02 37.559666000 -122.034294000 9.9

T 2017-11-26 19:25:03 37.559875000 -122.034520000 9.5

T 2017-11-26 19:25:04 37.560085000 -122.034750000 9.3

T 2017-11-26 19:25:06 37.560562000 -122.035190000 9.9

T 2017-11-26 19:25:07 37.560772000 -122.035416000 10.0

T 2017-11-26 19:25:08 37.560980000 -122.035645000 9.2

T 2017-11-26 19:25:09 37.561058000 -122.035880000 3.9

T 2017-11-26 19:25:10 37.561264000 -122.036110000 3.4

T 2017-11-26 19:25:11 37.561478000 -122.036340000 3.7

T 2017-11-26 19:25:12 37.561690000 -122.036570000 3.6

T 2017-11-26 19:25:13 37.561920000 -122.036790000 4.1

T 2017-11-26 19:25:14 37.562150000 -122.037020000 4.2

T 2017-11-26 19:25:15 37.562344000 -122.037254000 4.5

T 2017-11-26 19:25:17 37.562730000 -122.037710000 2.7

T 2017-11-26 19:25:18 37.562973000 -122.037930000 3.4

T 2017-11-26 19:25:19 37.563198000 -122.038160000 3.8

T 2017-11-26 19:25:20 37.563410000 -122.038400000 4.4

T 2017-11-26 19:25:21 37.563610000 -122.038610000 3.8

T 2017-11-26 19:25:22 37.563828000 -122.038830000 6.2
T 2017-11-26 19:25:23 37.564040000 -122.039060000 5.0

T 2017-11-26 19:25:24 37.564260000 -122.039290000 4.5

T 2017-11-26 19:25:25 37.564495000 -122.039510000 4.2

T 2017-11-26 19:25:26 37.564710000 -122.039740000 4.2

T 2017-11-26 19:25:27 37.564926000 -122.039980000 5.2

T 2017-11-26 19:25:29 37.565372000 -122.040430000 4.7

T 2017-11-26 19:25:30 37.565605000 -122.040650000 4.9

T 2017-11-26 19:25:31 37.565823000 -122.040880000 5.5

T 2017-11-26 19:25:32 37.566017000 -122.041110000 5.4

T 2017-11-26 19:25:33 37.566227000 -122.041336000 5.0

T 2017-11-26 19:25:34 37.566440000 -122.041560000 5.1

T 2017-11-26 19:25:35 37.566658000 -122.041790000 4.8

T 2017-11-26 19:25:36 37.566870000 -122.042015000 4.6

T 2017-11-26 19:25:37 37.567090000 -122.042244000 5.1

T 2017-11-26 19:25:38 37.567318000 -122.042465000 5.1

T 2017-11-26 19:25:40 37.567730000 -122.042930000 5.3

T 2017-11-26 19:25:41 37.567947000 -122.043150000 5.8

T 2017-11-26 19:25:42 37.568190000 -122.043365000 6.5

T 2017-11-26 19:25:43 37.568424000 -122.043570000 6.4

T 2017-11-26 19:25:44 37.568657000 -122.043770000 6.3

T 2017-11-26 19:25:45 37.568893000 -122.043960000 6.3

T 2017-11-26 19:25:46 37.569134000 -122.044150000 5.8

T 2017-11-26 19:25:48 37.569610000 -122.044510000 6.1

T 2017-11-26 19:25:49 37.569860000 -122.044685000 6.3

T 2017-11-26 19:25:50 37.570107000 -122.044850000 6.2

T 2017-11-26 19:25:51 37.570347000 -122.045006000 5.5

T 2017-11-26 19:25:52 37.570600000 -122.045160000 5.9

T 2017-11-26 19:25:53 37.570854000 -122.045310000 6.2

T 2017-11-26 19:25:54 37.571106000 -122.045460000 7.5

T 2017-11-26 19:25:56 37.571625000 -122.045715000 7.9
T 2017-11-26 19:25:58 37.572155000 -122.045944000 8.4

T 2017-11-26 19:25:59 37.572407000 -122.046036000 8.4

T 2017-11-26 19:26:00 37.572678000 -122.046140000 8.4

T 2017-11-26 19:26:01 37.572930000 -122.046210000 8.6

T 2017-11-26 19:26:02 37.573208000 -122.046310000 8.5

T 2017-11-26 19:26:03 37.573480000 -122.046390000 7.8

T 2017-11-26 19:26:04 37.573742000 -122.046470000 7.9

T 2017-11-26 19:26:05 37.574000000 -122.046550000 7.5

T 2017-11-26 19:26:06 37.574284000 -122.046660000 7.5

T 2017-11-26 19:26:07 37.574554000 -122.046745000 7.0

T 2017-11-26 19:26:09 37.575108000 -122.046960000 6.9

T 2017-11-26 19:26:10 37.575370000 -122.047035000 7.5

T 2017-11-26 19:26:11 37.575640000 -122.047130000 7.3

T 2017-11-26 19:26:12 37.575916000 -122.047230000 7.7

T 2017-11-26 19:26:13 37.576200000 -122.047330000 6.7

T 2017-11-26 19:26:14 37.576480000 -122.047440000 6.6

T 2017-11-26 19:26:15 37.576744000 -122.047516000 6.1

T 2017-11-26 19:26:16 37.577000000 -122.047600000 6.7

T 2017-11-26 19:26:17 37.577260000 -122.047680000 8.1

T 2017-11-26 19:26:18 37.577530000 -122.047770000 7.4

T 2017-11-26 19:26:20 37.578068000 -122.047960000 7.5

T 2017-11-26 19:26:21 37.578350000 -122.048060000 7.2

T 2017-11-26 19:26:22 37.578632000 -122.048160000 5.6

T 2017-11-26 19:26:23 37.578907000 -122.048256000 5.7

T 2017-11-26 19:26:24 37.579178000 -122.048350000 5.1

T 2017-11-26 19:26:25 37.579453000 -122.048440000 3.4

T 2017-11-26 19:26:26 37.579720000 -122.048530000 3.4

T 2017-11-26 19:26:27 37.579987000 -122.048630000 3.7

T 2017-11-26 19:26:28 37.580250000 -122.048710000 3.8
T 2017-11-26 19:26:29 37.580524000 -122.048820000 3.7

T 2017-11-26 19:26:31 37.581062000 -122.049010000 3.6

T 2017-11-26 19:26:32 37.581330000 -122.049110000 3.6

T 2017-11-26 19:26:33 37.581596000 -122.049220000 2.7

T 2017-11-26 19:26:34 37.581856000 -122.049324000 3.3

T 2017-11-26 19:26:35 37.582110000 -122.049446000 4.3

T 2017-11-26 19:26:36 37.582360000 -122.049560000 5.8

T 2017-11-26 19:26:37 37.582615000 -122.049675000 6.9

T 2017-11-26 19:26:38 37.582874000 -122.049820000 7.4

T 2017-11-26 19:26:39 37.583134000 -122.049965000 8.7

T 2017-11-26 19:26:40 37.583397000 -122.050095000 8.6

T 2017-11-26 19:26:42 37.583908000 -122.050390000 9.2

T 2017-11-26 19:26:43 37.584156000 -122.050545000 9.1

T 2017-11-26 19:26:44 37.584408000 -122.050700000 8.6

T 2017-11-26 19:26:45 37.584663000 -122.050865000 8.9

T 2017-11-26 19:26:46 37.584915000 -122.051025000 8.7

T 2017-11-26 19:26:47 37.585160000 -122.051190000 9.1

T 2017-11-26 19:26:48 37.585403000 -122.051360000 8.5

T 2017-11-26 19:26:49 37.585650000 -122.051530000 8.5

T 2017-11-26 19:26:50 37.585896000 -122.051704000 8.2

T 2017-11-26 19:26:51 37.586143000 -122.051870000 7.9

T 2017-11-26 19:26:52 37.586388000 -122.052050000 7.5

T 2017-11-26 19:26:53 37.586708000 -122.052280000 7.3

T 2017-11-26 19:26:55 37.587120000 -122.052570000 6.9

T 2017-11-26 19:26:56 37.587360000 -122.052740000 7.2

T 2017-11-26 19:26:57 37.587600000 -122.052920000 7.2

T 2017-11-26 19:26:58 37.587845000 -122.053085000 6.9

T 2017-11-26 19:26:59 37.588090000 -122.053260000 7.3

T 2017-11-26 19:27:00 37.588330000 -122.053440000 6.9

T 2017-11-26 19:27:01 37.588573000 -122.053610000 6.8
T 2017-11-26 19:27:02 37.588810000 -122.053780000 6.8

T 2017-11-26 19:27:03 37.589046000 -122.053950000 6.3

T 2017-11-26 19:27:05 37.589530000 -122.054290000 7.1

T 2017-11-26 19:27:06 37.589775000 -122.054470000 7.2

T 2017-11-26 19:27:07 37.590015000 -122.054634000 7.4

T 2017-11-26 19:27:09 37.590504000 -122.054985000 7.9

T 2017-11-26 19:27:10 37.590744000 -122.055150000 8.3

T 2017-11-26 19:27:11 37.590990000 -122.055330000 8.6

T 2017-11-26 19:27:12 37.591230000 -122.055500000 8.6

T 2017-11-26 19:27:13 37.591473000 -122.055670000 8.5

T 2017-11-26 19:27:15 37.591960000 -122.056015000 8.5

T 2017-11-26 19:27:16 37.592205000 -122.056190000 8.2

T 2017-11-26 19:27:17 37.592445000 -122.056366000 8.4

T 2017-11-26 19:27:18 37.592690000 -122.056540000 8.5

T 2017-11-26 19:27:19 37.592937000 -122.056720000 8.6

T 2017-11-26 19:27:20 37.593185000 -122.056890000 8.7

T 2017-11-26 19:27:21 37.593430000 -122.057060000 8.5

T 2017-11-26 19:27:22 37.593670000 -122.057236000 8.9

T 2017-11-26 19:27:23 37.593914000 -122.057410000 9.1

T 2017-11-26 19:27:24 37.594154000 -122.057590000 9.7

T 2017-11-26 19:27:25 37.594395000 -122.057755000 9.8

T 2017-11-26 19:27:27 37.594880000 -122.058090000 7.8

T 2017-11-26 19:27:28 37.595120000 -122.058266000 7.7

T 2017-11-26 19:27:29 37.595367000 -122.058450000 8.2

T 2017-11-26 19:27:30 37.595610000 -122.058620000 8.9

T 2017-11-26 19:27:31 37.595848000 -122.058790000 8.7

T 2017-11-26 19:27:32 37.596092000 -122.058975000 8.9

T 2017-11-26 19:27:33 37.596340000 -122.059140000 8.7

T 2017-11-26 19:27:34 37.596580000 -122.059310000 7.7
T 2017-11-26 19:27:35 37.596825000 -122.059480000 5.7

T 2017-11-26 19:27:36 37.597073000 -122.059654000 5.4

T 2017-11-26 19:27:37 37.597317000 -122.059830000 5.4

T 2017-11-26 19:27:38 37.597557000 -122.060005000 5.4

T 2017-11-26 19:27:40 37.598045000 -122.060356000 5.7

T 2017-11-26 19:27:41 37.598290000 -122.060530000 5.6

T 2017-11-26 19:27:42 37.598526000 -122.060700000 5.6

T 2017-11-26 19:27:43 37.598774000 -122.060870000 5.7

T 2017-11-26 19:27:44 37.599022000 -122.061035000 5.8

T 2017-11-26 19:27:45 37.599262000 -122.061200000 5.0

T 2017-11-26 19:27:46 37.599500000 -122.061380000 4.9

T 2017-11-26 19:27:47 37.599740000 -122.061554000 5.2

T 2017-11-26 19:27:48 37.599983000 -122.061740000 5.2

T 2017-11-26 19:27:49 37.600220000 -122.061905000 4.5

T 2017-11-26 19:27:50 37.600456000 -122.062080000 4.5

T 2017-11-26 19:27:52 37.600940000 -122.062430000 4.0

T 2017-11-26 19:27:53 37.601185000 -122.062600000 4.2

T 2017-11-26 19:27:54 37.601430000 -122.062775000 4.9

T 2017-11-26 19:27:55 37.601673000 -122.062940000 4.5

T 2017-11-26 19:27:56 37.601913000 -122.063120000 4.6

T 2017-11-26 19:27:58 37.602406000 -122.063470000 5.3

T 2017-11-26 19:27:59 37.602646000 -122.063644000 5.5

T 2017-11-26 19:28:00 37.602890000 -122.063820000 5.7

T 2017-11-26 19:28:01 37.603130000 -122.063990000 5.9

T 2017-11-26 19:28:02 37.603370000 -122.064156000 6.1

T 2017-11-26 19:28:03 37.603615000 -122.064330000 6.2

T 2017-11-26 19:28:04 37.603860000 -122.064510000 6.5

T 2017-11-26 19:28:05 37.604103000 -122.064680000 6.3

T 2017-11-26 19:28:06 37.604347000 -122.064860000 6.3

T 2017-11-26 19:28:07 37.604588000 -122.065030000 5.9
T 2017-11-26 19:28:08 37.604830000 -122.065200000 5.8

T 2017-11-26 19:28:09 37.605076000 -122.065380000 6.0

T 2017-11-26 19:28:11 37.605553000 -122.065730000 6.8

T 2017-11-26 19:28:12 37.605790000 -122.065900000 7.7

T 2017-11-26 19:28:13 37.606030000 -122.066070000 8.1

T 2017-11-26 19:28:14 37.606266000 -122.066240000 8.7

T 2017-11-26 19:28:15 37.606506000 -122.066414000 9.2

T 2017-11-26 19:28:16 37.606740000 -122.066580000 7.8

T 2017-11-26 19:28:17 37.606983000 -122.066750000 8.3

T 2017-11-26 19:28:18 37.607216000 -122.066920000 10.4

T 2017-11-26 19:28:19 37.607456000 -122.067085000 10.7

T 2017-11-26 19:28:20 37.607700000 -122.067260000 11.6

T 2017-11-26 19:28:22 37.608180000 -122.067604000 12.5

T 2017-11-26 19:28:23 37.608425000 -122.067770000 13.0

T 2017-11-26 19:28:24 37.608673000 -122.067950000 12.5

T 2017-11-26 19:28:25 37.608917000 -122.068120000 12.2

T 2017-11-26 19:28:26 37.609165000 -122.068306000 11.2

T 2017-11-26 19:28:27 37.609410000 -122.068474000 10.2

T 2017-11-26 19:28:28 37.609653000 -122.068650000 8.5

T 2017-11-26 19:28:29 37.609900000 -122.068825000 7.7

T 2017-11-26 19:28:30 37.610153000 -122.069000000 6.6

T 2017-11-26 19:28:32 37.610650000 -122.069350000 5.2

T 2017-11-26 19:28:33 37.610890000 -122.069530000 4.8

T 2017-11-26 19:28:34 37.611130000 -122.069695000 3.6

T 2017-11-26 19:28:35 37.611374000 -122.069870000 3.1

T 2017-11-26 19:28:36 37.611614000 -122.070045000 3.3

T 2017-11-26 19:28:37 37.611855000 -122.070210000 2.9

T 2017-11-26 19:28:38 37.612095000 -122.070390000 3.3

T 2017-11-26 19:28:39 37.612335000 -122.070560000 3.7
T 2017-11-26 19:28:40 37.612576000 -122.070730000 3.9

T 2017-11-26 19:28:41 37.612820000 -122.070900000 3.8

T 2017-11-26 19:28:42 37.613060000 -122.071075000 3.6

T 2017-11-26 19:28:43 37.613300000 -122.071240000 3.4

T 2017-11-26 19:28:44 37.613544000 -122.071420000 3.7

T 2017-11-26 19:28:45 37.613790000 -122.071594000 3.6

T 2017-11-26 19:28:47 37.614273000 -122.071940000 4.6

T 2017-11-26 19:28:48 37.614513000 -122.072120000 4.3

T 2017-11-26 19:28:49 37.614758000 -122.072290000 4.0

T 2017-11-26 19:28:50 37.615000000 -122.072464000 3.8

T 2017-11-26 19:28:51 37.615246000 -122.072630000 6.8

T 2017-11-26 19:28:52 37.615486000 -122.072810000 5.8

T 2017-11-26 19:28:53 37.615730000 -122.072980000 5.8

T 2017-11-26 19:28:54 37.615974000 -122.073150000 5.2

T 2017-11-26 19:28:55 37.616215000 -122.073326000 4.6

T 2017-11-26 19:28:56 37.616460000 -122.073494000 4.8

T 2017-11-26 19:28:58 37.616943000 -122.073845000 4.9

T 2017-11-26 19:28:59 37.617188000 -122.074020000 4.4

T 2017-11-26 19:29:00 37.617430000 -122.074190000 4.3

T 2017-11-26 19:29:01 37.617672000 -122.074356000 3.4

T 2017-11-26 19:29:02 37.617916000 -122.074530000 3.7

T 2017-11-26 19:29:03 37.618160000 -122.074710000 3.8

T 2017-11-26 19:29:04 37.618404000 -122.074880000 3.8

T 2017-11-26 19:29:05 37.618650000 -122.075060000 4.1

T 2017-11-26 19:29:06 37.618893000 -122.075230000 4.5

T 2017-11-26 19:29:07 37.619137000 -122.075410000 4.5

T 2017-11-26 19:29:08 37.619380000 -122.075584000 4.5

T 2017-11-26 19:29:10 37.619860000 -122.075930000 4.6

T 2017-11-26 19:29:11 37.620110000 -122.076096000 4.5

T 2017-11-26 19:29:12 37.620350000 -122.076270000 4.6
T 2017-11-26 19:29:13 37.620594000 -122.076440000 4.8

T 2017-11-26 19:29:14 37.620840000 -122.076614000 4.9

T 2017-11-26 19:29:15 37.621082000 -122.076790000 5.0

T 2017-11-26 19:29:16 37.621323000 -122.076965000 5.1

T 2017-11-26 19:29:18 37.621803000 -122.077320000 5.5

T 2017-11-26 19:29:19 37.622044000 -122.077484000 5.3

T 2017-11-26 19:29:20 37.622288000 -122.077660000 5.3

T 2017-11-26 19:29:21 37.622528000 -122.077830000 5.6

T 2017-11-26 19:29:22 37.622772000 -122.078000000 6.0

T 2017-11-26 19:29:23 37.623013000 -122.078170000 6.1

T 2017-11-26 19:29:24 37.623257000 -122.078350000 6.7

T 2017-11-26 19:29:25 37.623497000 -122.078520000 6.9

T 2017-11-26 19:29:26 37.623740000 -122.078690000 7.0

T 2017-11-26 19:29:28 37.624230000 -122.079030000 7.1

T 2017-11-26 19:29:29 37.624474000 -122.079210000 7.1

T 2017-11-26 19:29:30 37.624718000 -122.079384000 7.5

T 2017-11-26 19:29:31 37.624958000 -122.079560000 7.6

T 2017-11-26 19:29:32 37.625202000 -122.079740000 7.6

T 2017-11-26 19:29:33 37.625443000 -122.079910000 7.7

T 2017-11-26 19:29:34 37.625687000 -122.080086000 7.7

T 2017-11-26 19:29:35 37.625930000 -122.080260000 6.8

T 2017-11-26 19:29:36 37.626170000 -122.080430000 6.8

T 2017-11-26 19:29:37 37.626415000 -122.080605000 7.1

T 2017-11-26 19:29:38 37.626656000 -122.080780000 7.4

T 2017-11-26 19:29:40 37.627140000 -122.081120000 7.3

T 2017-11-26 19:29:41 37.627384000 -122.081300000 7.5

T 2017-11-26 19:29:42 37.627630000 -122.081474000 7.4

T 2017-11-26 19:29:43 37.627872000 -122.081640000 7.2

T 2017-11-26 19:29:44 37.628117000 -122.081820000 7.1
T 2017-11-26 19:29:45 37.628360000 -122.081985000 6.9

T 2017-11-26 19:29:46 37.628600000 -122.082160000 7.3

T 2017-11-26 19:29:47 37.628845000 -122.082344000 7.5

T 2017-11-26 19:29:48 37.629090000 -122.082510000 7.9

T 2017-11-26 19:29:49 37.629326000 -122.082680000 8.3

T 2017-11-26 19:29:50 37.629570000 -122.082855000 8.2

T 2017-11-26 19:29:52 37.630054000 -122.083206000 8.0

T 2017-11-26 19:29:53 37.630300000 -122.083380000 8.4

T 2017-11-26 19:29:54 37.630543000 -122.083560000 8.7

T 2017-11-26 19:29:55 37.630783000 -122.083720000 9.2

T 2017-11-26 19:29:56 37.631027000 -122.083900000 9.1

T 2017-11-26 19:29:57 37.631270000 -122.084076000 9.1

T 2017-11-26 19:29:59 37.631756000 -122.084430000 8.8

T 2017-11-26 19:30:00 37.632004000 -122.084600000 9.1

T 2017-11-26 19:30:01 37.632236000 -122.084780000 9.5

T 2017-11-26 19:30:02 37.632470000 -122.084940000 9.4

T 2017-11-26 19:30:03 37.632694000 -122.085090000 9.6

T 2017-11-26 19:30:04 37.632915000 -122.085240000 10.3

T 2017-11-26 19:30:05 37.633133000 -122.085400000 9.9

T 2017-11-26 19:30:06 37.633343000 -122.085556000 10.1

T 2017-11-26 19:30:07 37.633553000 -122.085700000 10.3

T 2017-11-26 19:30:08 37.633760000 -122.085846000 10.7

T 2017-11-26 19:30:09 37.633965000 -122.085990000 10.7

T 2017-11-26 19:30:11 37.634373000 -122.086280000 11.2

T 2017-11-26 19:30:12 37.634570000 -122.086430000 11.8

T 2017-11-26 19:30:13 37.634780000 -122.086586000 12.7

T 2017-11-26 19:30:14 37.634990000 -122.086750000 12.6

T 2017-11-26 19:30:15 37.635200000 -122.086900000 12.3

T 2017-11-26 19:30:16 37.635414000 -122.087050000 12.7

T 2017-11-26 19:30:17 37.635628000 -122.087204000 12.9
T 2017-11-26 19:30:18 37.635845000 -122.087370000 13.5

T 2017-11-26 19:30:19 37.636070000 -122.087524000 14.1

T 2017-11-26 19:30:21 37.636524000 -122.087850000 14.8

T 2017-11-26 19:30:22 37.636757000 -122.088010000 15.2

T 2017-11-26 19:30:23 37.636990000 -122.088170000 15.4

T 2017-11-26 19:30:24 37.637222000 -122.088340000 15.9

T 2017-11-26 19:30:25 37.637455000 -122.088500000 16.1

T 2017-11-26 19:30:26 37.637684000 -122.088670000 16.6

T 2017-11-26 19:30:27 37.637917000 -122.088840000 16.6

T 2017-11-26 19:30:28 37.638150000 -122.089005000 16.7

T 2017-11-26 19:30:29 37.638380000 -122.089170000 16.3

T 2017-11-26 19:30:30 37.638607000 -122.089330000 16.6

T 2017-11-26 19:30:31 37.638844000 -122.089490000 16.6

T 2017-11-26 19:30:33 37.639300000 -122.089830000 17.7

T 2017-11-26 19:30:34 37.639534000 -122.089990000 17.0

T 2017-11-26 19:30:35 37.639760000 -122.090150000 17.0

T 2017-11-26 19:30:36 37.639990000 -122.090320000 17.3

T 2017-11-26 19:30:37 37.640220000 -122.090480000 17.2

T 2017-11-26 19:30:38 37.640453000 -122.090645000 17.4

T 2017-11-26 19:30:39 37.640686000 -122.090805000 16.9

T 2017-11-26 19:30:41 37.641150000 -122.091130000 16.3

T 2017-11-26 19:30:42 37.641384000 -122.091300000 16.2

T 2017-11-26 19:30:43 37.641610000 -122.091460000 15.4

T 2017-11-26 19:30:44 37.641840000 -122.091630000 15.4

T 2017-11-26 19:30:45 37.642070000 -122.091790000 14.7

T 2017-11-26 19:30:46 37.642303000 -122.091960000 14.6

T 2017-11-26 19:30:47 37.642536000 -122.092120000 14.3

T 2017-11-26 19:30:48 37.642773000 -122.092280000 14.0

T 2017-11-26 19:30:49 37.643000000 -122.092445000 13.6
T 2017-11-26 19:30:50 37.643234000 -122.092610000 13.5

T 2017-11-26 19:30:52 37.643680000 -122.092930000 13.2

T 2017-11-26 19:30:53 37.643913000 -122.093100000 13.3

T 2017-11-26 19:30:54 37.644154000 -122.093270000 12.8

T 2017-11-26 19:30:55 37.644400000 -122.093420000 11.9

T 2017-11-26 19:30:56 37.644596000 -122.093605000 11.6

T 2017-11-26 19:30:57 37.644830000 -122.093765000 11.7

T 2017-11-26 19:30:58 37.645070000 -122.093940000 10.7

T 2017-11-26 19:30:59 37.645294000 -122.094110000 11.1

T 2017-11-26 19:31:00 37.645523000 -122.094270000 11.0

T 2017-11-26 19:31:01 37.645752000 -122.094430000 11.2

T 2017-11-26 19:31:02 37.645985000 -122.094600000 11.9

T 2017-11-26 19:31:03 37.646210000 -122.094770000 13.6

T 2017-11-26 19:31:05 37.646680000 -122.095090000 16.0

T 2017-11-26 19:31:06 37.646908000 -122.095260000 16.4

T 2017-11-26 19:31:07 37.647140000 -122.095420000 16.5

T 2017-11-26 19:31:08 37.647370000 -122.095590000 17.2

T 2017-11-26 19:31:09 37.647594000 -122.095760000 17.6

T 2017-11-26 19:31:10 37.647827000 -122.095924000 18.1

T 2017-11-26 19:31:11 37.648056000 -122.096090000 18.3

T 2017-11-26 19:31:12 37.648273000 -122.096250000 17.0

T 2017-11-26 19:31:13 37.648506000 -122.096420000 17.0

T 2017-11-26 19:31:15 37.648980000 -122.096760000 17.7

T 2017-11-26 19:31:16 37.649216000 -122.096924000 17.7

T 2017-11-26 19:31:17 37.649445000 -122.097084000 18.0

T 2017-11-26 19:31:18 37.649677000 -122.097240000 18.0

T 2017-11-26 19:31:19 37.649920000 -122.097400000 18.4

T 2017-11-26 19:31:20 37.650173000 -122.097560000 18.2

T 2017-11-26 19:31:21 37.650417000 -122.097720000 18.7

T 2017-11-26 19:31:22 37.650670000 -122.097870000 18.9
T 2017-11-26 19:31:24 37.651160000 -122.098180000 19.4

T 2017-11-26 19:31:25 37.651410000 -122.098335000 19.9

T 2017-11-26 19:31:26 37.651657000 -122.098490000 20.5

T 2017-11-26 19:31:27 37.651910000 -122.098640000 20.6

T 2017-11-26 19:31:28 37.652157000 -122.098790000 20.8

T 2017-11-26 19:31:29 37.652397000 -122.098946000 21.0

T 2017-11-26 19:31:30 37.652640000 -122.099100000 21.0

T 2017-11-26 19:31:31 37.652890000 -122.099250000 21.0

T 2017-11-26 19:31:32 37.653145000 -122.099410000 19.1

T 2017-11-26 19:31:33 37.653385000 -122.099560000 19.5

T 2017-11-26 19:31:35 37.653890000 -122.099880000 18.5

T 2017-11-26 19:31:36 37.654137000 -122.100030000 18.6

T 2017-11-26 19:31:37 37.654385000 -122.100180000 18.6

T 2017-11-26 19:31:38 37.654633000 -122.100330000 18.5

T 2017-11-26 19:31:39 37.654880000 -122.100490000 18.9

T 2017-11-26 19:31:40 37.655130000 -122.100640000 19.1

T 2017-11-26 19:31:41 37.655376000 -122.100790000 18.9

T 2017-11-26 19:31:42 37.655620000 -122.100945000 18.9

T 2017-11-26 19:31:44 37.656116000 -122.101240000 19.2

T 2017-11-26 19:31:45 37.656364000 -122.101395000 19.3

T 2017-11-26 19:31:46 37.656616000 -122.101540000 20.0

T 2017-11-26 19:31:47 37.656860000 -122.101700000 20.1

T 2017-11-26 19:31:48 37.657110000 -122.101850000 20.5

T 2017-11-26 19:31:49 37.657360000 -122.102010000 20.0

T 2017-11-26 19:31:51 37.657860000 -122.102320000 19.6

T 2017-11-26 19:31:52 37.658108000 -122.102470000 19.5

T 2017-11-26 19:31:53 37.658350000 -122.102620000 19.6

T 2017-11-26 19:31:54 37.658596000 -122.102776000 19.7

T 2017-11-26 19:31:55 37.658848000 -122.102930000 19.3
T 2017-11-26 19:31:56 37.659096000 -122.103080000 19.2

T 2017-11-26 19:31:57 37.659340000 -122.103230000 19.3

T 2017-11-26 19:31:58 37.659588000 -122.103386000 19.6

T 2017-11-26 19:31:59 37.659832000 -122.103546000 19.7

T 2017-11-26 19:32:00 37.660084000 -122.103690000 19.8

T 2017-11-26 19:32:02 37.660576000 -122.104000000 20.1

T 2017-11-26 19:32:03 37.660824000 -122.104140000 19.6

T 2017-11-26 19:32:04 37.661080000 -122.104300000 19.7

T 2017-11-26 19:32:05 37.661335000 -122.104454000 19.4

T 2017-11-26 19:32:06 37.661587000 -122.104610000 19.1

T 2017-11-26 19:32:07 37.661827000 -122.104760000 18.8

T 2017-11-26 19:32:08 37.662067000 -122.104904000 19.0

T 2017-11-26 19:32:09 37.662315000 -122.105060000 19.1

T 2017-11-26 19:32:10 37.662563000 -122.105210000 19.1

T 2017-11-26 19:32:12 37.663060000 -122.105510000 18.5

T 2017-11-26 19:32:13 37.663307000 -122.105644000 18.9

T 2017-11-26 19:32:14 37.663560000 -122.105800000 18.5

T 2017-11-26 19:32:15 37.663807000 -122.105950000 18.1

T 2017-11-26 19:32:16 37.664050000 -122.106100000 18.8

T 2017-11-26 19:32:17 37.664295000 -122.106255000 18.5

T 2017-11-26 19:32:18 37.664543000 -122.106400000 18.2

T 2017-11-26 19:32:19 37.664787000 -122.106544000 18.3

T 2017-11-26 19:32:20 37.665030000 -122.106705000 19.1

T 2017-11-26 19:32:21 37.665268000 -122.106860000 19.8

T 2017-11-26 19:32:23 37.665756000 -122.107155000 21.2

T 2017-11-26 19:32:24 37.665997000 -122.107310000 21.5

T 2017-11-26 19:32:25 37.666245000 -122.107460000 22.0

T 2017-11-26 19:32:26 37.666492000 -122.107610000 21.7

T 2017-11-26 19:32:27 37.666744000 -122.107770000 21.6

T 2017-11-26 19:32:28 37.666992000 -122.107930000 21.3
T 2017-11-26 19:32:29 37.667240000 -122.108086000 21.2

T 2017-11-26 19:32:30 37.667490000 -122.108240000 21.1

T 2017-11-26 19:32:31 37.667720000 -122.108390000 21.3

T 2017-11-26 19:32:32 37.667965000 -122.108540000 21.4

T 2017-11-26 19:32:33 37.668210000 -122.108696000 21.2

T 2017-11-26 19:32:34 37.668457000 -122.108850000 21.0

T 2017-11-26 19:32:36 37.668957000 -122.109160000 19.8

T 2017-11-26 19:32:37 37.669210000 -122.109320000 19.0

T 2017-11-26 19:32:38 37.669453000 -122.109470000 18.5

T 2017-11-26 19:32:39 37.669697000 -122.109620000 18.6

T 2017-11-26 19:32:40 37.669950000 -122.109790000 18.3

T 2017-11-26 19:32:41 37.670193000 -122.109930000 18.1

T 2017-11-26 19:32:42 37.670420000 -122.110090000 17.8

T 2017-11-26 19:32:43 37.670666000 -122.110250000 17.5

T 2017-11-26 19:32:44 37.670910000 -122.110420000 16.9

T 2017-11-26 19:32:45 37.671143000 -122.110590000 16.6

T 2017-11-26 19:32:46 37.671380000 -122.110770000 16.7

T 2017-11-26 19:32:48 37.671850000 -122.111160000 16.6

T 2017-11-26 19:32:49 37.672070000 -122.111360000 16.6

T 2017-11-26 19:32:50 37.672295000 -122.111570000 17.9

T 2017-11-26 19:32:51 37.672512000 -122.111786000 16.7

T 2017-11-26 19:32:52 37.672726000 -122.112010000 15.6

T 2017-11-26 19:32:53 37.672930000 -122.112236000 15.5

T 2017-11-26 19:32:54 37.673138000 -122.112480000 14.6

T 2017-11-26 19:32:55 37.673336000 -122.112730000 14.5

T 2017-11-26 19:32:56 37.673530000 -122.112976000 14.1

T 2017-11-26 19:32:57 37.673717000 -122.113230000 14.5

T 2017-11-26 19:32:59 37.674088000 -122.113750000 13.5

T 2017-11-26 19:33:00 37.674270000 -122.114000000 13.0
T 2017-11-26 19:33:01 37.674446000 -122.114265000 12.6

T 2017-11-26 19:33:02 37.674630000 -122.114520000 11.8

T 2017-11-26 19:33:03 37.674816000 -122.114770000 11.8

T 2017-11-26 19:33:04 37.675010000 -122.115030000 12.1

T 2017-11-26 19:33:05 37.675205000 -122.115265000 12.6

T 2017-11-26 19:33:06 37.675400000 -122.115510000 12.1

T 2017-11-26 19:33:07 37.675587000 -122.115746000 11.5

T 2017-11-26 19:33:08 37.675774000 -122.115980000 10.6

T 2017-11-26 19:33:10 37.676144000 -122.116460000 9.3

T 2017-11-26 19:33:11 37.676323000 -122.116710000 8.9

T 2017-11-26 19:33:12 37.676506000 -122.116936000 8.2

T 2017-11-26 19:33:13 37.676678000 -122.117180000 8.1

T 2017-11-26 19:33:14 37.676860000 -122.117424000 8.1

T 2017-11-26 19:33:15 37.677017000 -122.117676000 8.0

T 2017-11-26 19:33:17 37.677330000 -122.118164000 8.4

T 2017-11-26 19:33:18 37.677483000 -122.118410000 8.4

T 2017-11-26 19:33:19 37.677630000 -122.118645000 8.5

T 2017-11-26 19:33:20 37.677784000 -122.118890000 8.9

T 2017-11-26 19:33:21 37.677933000 -122.119130000 9.0

T 2017-11-26 19:33:22 37.678078000 -122.119380000 9.1

T 2017-11-26 19:33:23 37.678226000 -122.119620000 9.0

T 2017-11-26 19:33:24 37.678370000 -122.119860000 9.0

T 2017-11-26 19:33:25 37.678520000 -122.120094000 8.8

T 2017-11-26 19:33:27 37.678830000 -122.120560000 9.7

T 2017-11-26 19:33:28 37.678986000 -122.120790000 9.4

T 2017-11-26 19:33:29 37.679142000 -122.121010000 8.9

T 2017-11-26 19:33:30 37.679302000 -122.121250000 8.8

T 2017-11-26 19:33:31 37.679455000 -122.121475000 8.9

T 2017-11-26 19:33:32 37.679610000 -122.121700000 8.9

T 2017-11-26 19:33:33 37.679770000 -122.121920000 8.8
T 2017-11-26 19:33:34 37.679930000 -122.122130000 8.8

T 2017-11-26 19:33:35 37.680088000 -122.122360000 9.0

T 2017-11-26 19:33:37 37.680393000 -122.122790000 9.0

T 2017-11-26 19:33:38 37.680546000 -122.123000000 8.8

T 2017-11-26 19:33:39 37.680700000 -122.123210000 9.1

T 2017-11-26 19:33:40 37.680850000 -122.123430000 9.2

T 2017-11-26 19:33:41 37.681004000 -122.123660000 9.1

T 2017-11-26 19:33:42 37.681164000 -122.123886000 9.2

T 2017-11-26 19:33:43 37.681320000 -122.124115000 9.5

T 2017-11-26 19:33:44 37.681470000 -122.124340000 6.7

T 2017-11-26 19:33:45 37.681633000 -122.124570000 6.7

T 2017-11-26 19:33:46 37.681797000 -122.124820000 7.2

T 2017-11-26 19:33:47 37.681960000 -122.125050000 7.3

T 2017-11-26 19:33:49 37.682285000 -122.125530000 7.6

T 2017-11-26 19:33:50 37.682446000 -122.125755000 7.8

T 2017-11-26 19:33:51 37.682600000 -122.125980000 8.0

T 2017-11-26 19:33:52 37.682755000 -122.126205000 8.5

T 2017-11-26 19:33:53 37.682907000 -122.126430000 8.3

T 2017-11-26 19:33:54 37.683060000 -122.126640000 8.3

T 2017-11-26 19:33:55 37.683212000 -122.126860000 7.9

T 2017-11-26 19:33:56 37.683365000 -122.127100000 7.5

T 2017-11-26 19:33:58 37.683685000 -122.127556000 7.5

T 2017-11-26 19:33:59 37.683850000 -122.127790000 7.8

T 2017-11-26 19:34:00 37.684017000 -122.128030000 8.5

T 2017-11-26 19:34:01 37.684185000 -122.128265000 9.0

T 2017-11-26 19:34:02 37.684357000 -122.128510000 9.6

T 2017-11-26 19:34:03 37.684530000 -122.128740000 9.9

T 2017-11-26 19:34:04 37.684700000 -122.128970000 10.6

T 2017-11-26 19:34:05 37.684860000 -122.129196000 11.1
T 2017-11-26 19:34:06 37.685020000 -122.129420000 10.6

T 2017-11-26 19:34:07 37.685180000 -122.129650000 11.3

T 2017-11-26 19:34:08 37.685333000 -122.129870000 11.1

T 2017-11-26 19:34:10 37.685640000 -122.130300000 11.9

T 2017-11-26 19:34:11 37.685795000 -122.130510000 11.9

T 2017-11-26 19:34:12 37.685955000 -122.130720000 11.2

T 2017-11-26 19:34:13 37.686115000 -122.130910000 10.0

T 2017-11-26 19:34:14 37.686280000 -122.131120000 12.2

T 2017-11-26 19:34:15 37.686436000 -122.131320000 11.5

T 2017-11-26 19:34:16 37.686596000 -122.131516000 11.4

T 2017-11-26 19:34:17 37.686750000 -122.131700000 10.9

T 2017-11-26 19:34:19 37.687046000 -122.132060000 8.8

T 2017-11-26 19:34:20 37.687187000 -122.132250000 7.2

T 2017-11-26 19:34:21 37.687330000 -122.132430000 5.6

T 2017-11-26 19:34:22 37.687470000 -122.132620000 5.2

T 2017-11-26 19:34:23 37.687607000 -122.132810000 4.7

T 2017-11-26 19:34:24 37.687748000 -122.132996000 3.7

T 2017-11-26 19:34:25 37.687885000 -122.133180000 3.4

T 2017-11-26 19:34:26 37.688026000 -122.133360000 3.2

T 2017-11-26 19:34:28 37.688324000 -122.133670000 3.7

T 2017-11-26 19:34:29 37.688488000 -122.133780000 4.1

T 2017-11-26 19:34:30 37.688713000 -122.133865000 4.1

T 2017-11-26 19:34:31 37.688908000 -122.133934000 3.8

T 2017-11-26 19:34:32 37.689095000 -122.133900000 3.9

T 2017-11-26 19:34:33 37.689290000 -122.133880000 3.4

T 2017-11-26 19:34:34 37.689510000 -122.133850000 3.8

T 2017-11-26 19:34:35 37.689663000 -122.133740000 3.8

T 2017-11-26 19:34:36 37.689823000 -122.133620000 3.6

T 2017-11-26 19:34:37 37.689972000 -122.133480000 3.6

T 2017-11-26 19:34:38 37.690105000 -122.133316000 4.1
T 2017-11-26 19:34:40 37.690340000 -122.132965000 4.5

T 2017-11-26 19:34:41 37.690403000 -122.132760000 3.6

T 2017-11-26 19:34:42 37.690520000 -122.132545000 1.8

T 2017-11-26 19:34:43 37.690495000 -122.132300000 3.5

T 2017-11-26 19:34:44 37.690510000 -122.132100000 3.8

T 2017-11-26 19:34:45 37.690536000 -122.131900000 3.9

T 2017-11-26 19:34:46 37.690570000 -122.131670000 4.8

T 2017-11-26 19:34:47 37.690610000 -122.131454000 4.9

T 2017-11-26 19:34:48 37.690643000 -122.131240000 5.5

T 2017-11-26 19:34:49 37.690670000 -122.131035000 5.8

T 2017-11-26 19:34:50 37.690704000 -122.130840000 6.7

T 2017-11-26 19:34:51 37.690735000 -122.130600000 7.4

T 2017-11-26 19:34:52 37.690746000 -122.130380000 7.8

T 2017-11-26 19:34:54 37.690770000 -122.129930000 10.0

T 2017-11-26 19:34:55 37.690773000 -122.129700000 10.7

T 2017-11-26 19:34:56 37.690773000 -122.129456000 10.8

T 2017-11-26 19:34:57 37.690765000 -122.129220000 11.4

T 2017-11-26 19:34:58 37.690750000 -122.128980000 11.7

T 2017-11-26 19:34:59 37.690742000 -122.128750000 12.3

T 2017-11-26 19:35:00 37.690727000 -122.128510000 14.1

T 2017-11-26 19:35:01 37.690712000 -122.128280000 15.5

T 2017-11-26 19:35:02 37.690697000 -122.128060000 15.6

T 2017-11-26 19:35:04 37.690666000 -122.127590000 16.3

T 2017-11-26 19:35:05 37.690643000 -122.127365000 16.6

T 2017-11-26 19:35:06 37.690624000 -122.127130000 16.8

T 2017-11-26 19:35:07 37.690605000 -122.126900000 15.3

T 2017-11-26 19:35:08 37.690580000 -122.126656000 14.7

T 2017-11-26 19:35:09 37.690550000 -122.126430000 14.1

T 2017-11-26 19:35:10 37.690525000 -122.126180000 13.6
T 2017-11-26 19:35:11 37.690500000 -122.125940000 13.1

T 2017-11-26 19:35:12 37.690460000 -122.125700000 12.7

T 2017-11-26 19:35:14 37.690388000 -122.125220000 11.3

T 2017-11-26 19:35:15 37.690357000 -122.124970000 10.3

T 2017-11-26 19:35:16 37.690323000 -122.124720000 9.9

T 2017-11-26 19:35:17 37.690285000 -122.124480000 9.6

T 2017-11-26 19:35:18 37.690250000 -122.124240000 8.8

T 2017-11-26 19:35:19 37.690216000 -122.123990000 8.8

T 2017-11-26 19:35:20 37.690170000 -122.123750000 8.1

T 2017-11-26 19:35:21 37.690132000 -122.123500000 7.1

T 2017-11-26 19:35:22 37.690094000 -122.123250000 7.8

T 2017-11-26 19:35:23 37.690052000 -122.123010000 7.4

T 2017-11-26 19:35:24 37.690018000 -122.122765000 7.1

T 2017-11-26 19:35:26 37.689940000 -122.122260000 10.3

T 2017-11-26 19:35:27 37.689877000 -122.121994000 9.3

T 2017-11-26 19:35:28 37.689840000 -122.121740000 8.2

T 2017-11-26 19:35:29 37.689796000 -122.121480000 7.9

T 2017-11-26 19:35:30 37.689747000 -122.121230000 8.3

T 2017-11-26 19:35:31 37.689710000 -122.120970000 8.3

T 2017-11-26 19:35:32 37.689670000 -122.120710000 8.5

T 2017-11-26 19:35:33 37.689632000 -122.120445000 9.1

T 2017-11-26 19:35:34 37.689590000 -122.120180000 9.5

T 2017-11-26 19:35:35 37.689550000 -122.119910000 9.7

T 2017-11-26 19:35:36 37.689510000 -122.119644000 10.4

T 2017-11-26 19:35:37 37.689465000 -122.119380000 10.5

T 2017-11-26 19:35:39 37.689380000 -122.118850000 11.1

T 2017-11-26 19:35:40 37.689342000 -122.118580000 12.1

T 2017-11-26 19:35:41 37.689300000 -122.118320000 12.7

T 2017-11-26 19:35:42 37.689243000 -122.118065000 14.4

T 2017-11-26 19:35:43 37.689182000 -122.117805000 14.1
T 2017-11-26 19:35:44 37.689137000 -122.117550000 15.4

T 2017-11-26 19:35:45 37.689095000 -122.117294000 16.0

T 2017-11-26 19:35:46 37.689050000 -122.117040000 16.5

T 2017-11-26 19:35:47 37.689003000 -122.116780000 16.8

T 2017-11-26 19:35:49 37.688908000 -122.116264000 17.4

T 2017-11-26 19:35:50 37.688858000 -122.116005000 17.4

T 2017-11-26 19:35:51 37.688812000 -122.115746000 17.4

T 2017-11-26 19:35:52 37.688766000 -122.115490000 17.3

T 2017-11-26 19:35:53 37.688717000 -122.115234000 17.5

T 2017-11-26 19:35:54 37.688675000 -122.114980000 17.4

T 2017-11-26 19:35:55 37.688630000 -122.114716000 16.2

T 2017-11-26 19:35:56 37.688583000 -122.114450000 16.8

T 2017-11-26 19:35:57 37.688534000 -122.114200000 16.5

T 2017-11-26 19:35:59 37.688488000 -122.113650000 16.6

T 2017-11-26 19:36:00 37.688457000 -122.113380000 16.6

T 2017-11-26 19:36:01 37.688435000 -122.113110000 16.9

T 2017-11-26 19:36:02 37.688420000 -122.112850000 17.6

T 2017-11-26 19:36:03 37.688393000 -122.112580000 17.7

T 2017-11-26 19:36:04 37.688390000 -122.112310000 17.8

T 2017-11-26 19:36:05 37.688380000 -122.112040000 17.8

T 2017-11-26 19:36:06 37.688385000 -122.111770000 16.9

T 2017-11-26 19:36:07 37.688393000 -122.111500000 15.7

T 2017-11-26 19:36:08 37.688404000 -122.111230000 15.1

T 2017-11-26 19:36:10 37.688435000 -122.110690000 14.5

T 2017-11-26 19:36:11 37.688454000 -122.110420000 14.2

T 2017-11-26 19:36:12 37.688480000 -122.110160000 13.8

T 2017-11-26 19:36:13 37.688507000 -122.109900000 13.8

T 2017-11-26 19:36:14 37.688538000 -122.109634000 13.5

T 2017-11-26 19:36:15 37.688564000 -122.109375000 13.1
T 2017-11-26 19:36:16 37.688595000 -122.109110000 13.2

T 2017-11-26 19:36:17 37.688620000 -122.108850000 13.6

T 2017-11-26 19:36:18 37.688650000 -122.108580000 14.0

T 2017-11-26 19:36:20 37.688710000 -122.108070000 14.5

T 2017-11-26 19:36:21 37.688740000 -122.107810000 14.8

T 2017-11-26 19:36:22 37.688770000 -122.107560000 15.1

T 2017-11-26 19:36:23 37.688797000 -122.107300000 16.0

T 2017-11-26 19:36:25 37.688850000 -122.106770000 17.4

T 2017-11-26 19:36:26 37.688880000 -122.106514000 17.7

T 2017-11-26 19:36:27 37.688910000 -122.106255000 18.0

T 2017-11-26 19:36:28 37.688942000 -122.105995000 18.5

T 2017-11-26 19:36:29 37.688970000 -122.105736000 19.7

T 2017-11-26 19:36:31 37.689030000 -122.105210000 20.6

T 2017-11-26 19:36:32 37.689053000 -122.104960000 21.4

T 2017-11-26 19:36:33 37.689083000 -122.104690000 21.6

T 2017-11-26 19:36:34 37.689110000 -122.104430000 21.9

T 2017-11-26 19:36:35 37.689140000 -122.104170000 23.0

T 2017-11-26 19:36:36 37.689167000 -122.103905000 23.6

T 2017-11-26 19:36:37 37.689194000 -122.103640000 24.1

T 2017-11-26 19:36:38 37.689224000 -122.103380000 24.4

T 2017-11-26 19:36:39 37.689247000 -122.103120000 25.1

T 2017-11-26 19:36:40 37.689270000 -122.102850000 26.0

T 2017-11-26 19:36:42 37.689330000 -122.102325000 27.4

T 2017-11-26 19:36:43 37.689358000 -122.102060000 28.4

T 2017-11-26 19:36:44 37.689384000 -122.101790000 29.5

T 2017-11-26 19:36:45 37.689415000 -122.101530000 30.3

T 2017-11-26 19:36:46 37.689445000 -122.101270000 31.3

T 2017-11-26 19:36:47 37.689472000 -122.101006000 32.1

T 2017-11-26 19:36:48 37.689500000 -122.100750000 32.7

T 2017-11-26 19:36:49 37.689530000 -122.100490000 33.5
T 2017-11-26 19:36:50 37.689560000 -122.100230000 34.0

T 2017-11-26 19:36:51 37.689590000 -122.099970000 34.9

T 2017-11-26 19:36:52 37.689625000 -122.099690000 35.1

T 2017-11-26 19:36:54 37.689682000 -122.099170000 36.8

T 2017-11-26 19:36:55 37.689713000 -122.098910000 38.0

T 2017-11-26 19:36:56 37.689743000 -122.098640000 39.0

T 2017-11-26 19:36:57 37.689766000 -122.098380000 39.7

T 2017-11-26 19:36:58 37.689785000 -122.098114000 40.6

T 2017-11-26 19:36:59 37.689804000 -122.097850000 41.2

T 2017-11-26 19:37:00 37.689830000 -122.097595000 42.3

T 2017-11-26 19:37:01 37.689846000 -122.097330000 42.7

T 2017-11-26 19:37:03 37.689870000 -122.096780000 43.4

T 2017-11-26 19:37:04 37.689877000 -122.096510000 44.0

T 2017-11-26 19:37:05 37.689877000 -122.096300000 41.8

T 2017-11-26 19:37:06 37.689880000 -122.096100000 42.2

T 2017-11-26 19:37:07 37.689842000 -122.095910000 42.3

T 2017-11-26 19:37:08 37.689808000 -122.095726000 43.2

T 2017-11-26 19:37:09 37.689750000 -122.095570000 26.7

T 2017-11-26 19:37:10 37.689663000 -122.095560000 30.3

T 2017-11-26 19:37:11 37.689526000 -122.095530000 32.0

T 2017-11-26 19:37:12 37.689373000 -122.095510000 33.6

T 2017-11-26 19:37:13 37.689243000 -122.095680000 35.7

T 2017-11-26 19:37:14 37.689160000 -122.095810000 38.5

T 2017-11-26 19:37:16 37.689050000 -122.096115000 41.5

T 2017-11-26 19:37:17 37.689083000 -122.096310000 46.2

T 2017-11-26 19:37:18 37.689137000 -122.096466000 46.7

T 2017-11-26 19:37:19 37.689220000 -122.096634000 47.1

T 2017-11-26 19:37:20 37.689323000 -122.096794000 47.1

T 2017-11-26 19:37:21 37.689426000 -122.096980000 48.8
T 2017-11-26 19:37:22 37.689526000 -122.097150000 49.3

T 2017-11-26 19:37:23 37.689630000 -122.097330000 49.1

T 2017-11-26 19:37:24 37.689766000 -122.097540000 49.7

T 2017-11-26 19:37:25 37.689907000 -122.097755000 49.6

T 2017-11-26 19:37:27 37.690205000 -122.098200000 47.3

T 2017-11-26 19:37:28 37.690327000 -122.098420000 47.2

T 2017-11-26 19:37:29 37.690483000 -122.098660000 47.7

T 2017-11-26 19:37:30 37.690647000 -122.098915000 43.0

T 2017-11-26 19:37:31 37.690796000 -122.099160000 44.9

T 2017-11-26 19:37:32 37.690960000 -122.099410000 46.2

T 2017-11-26 19:37:33 37.691128000 -122.099670000 47.9

T 2017-11-26 19:37:35 37.691460000 -122.100174000 47.7

T 2017-11-26 19:37:37 37.691814000 -122.100680000 46.6

T 2017-11-26 19:37:38 37.691998000 -122.100914000 46.4

T 2017-11-26 19:37:39 37.692192000 -122.101140000 46.6

T 2017-11-26 19:37:40 37.692383000 -122.101370000 46.7

T 2017-11-26 19:37:41 37.692593000 -122.101590000 45.3

T 2017-11-26 19:37:42 37.692800000 -122.101810000 45.9

T 2017-11-26 19:37:43 37.693012000 -122.102020000 45.6

T 2017-11-26 19:37:44 37.693230000 -122.102210000 45.2

T 2017-11-26 19:37:45 37.693447000 -122.102410000 45.0

T 2017-11-26 19:37:46 37.693676000 -122.102610000 44.1

T 2017-11-26 19:37:47 37.693897000 -122.102806000 43.8

T 2017-11-26 19:37:48 37.694122000 -122.103004000 43.7

T 2017-11-26 19:37:49 37.694347000 -122.103210000 43.5

T 2017-11-26 19:37:51 37.694794000 -122.103615000 43.0

T 2017-11-26 19:37:52 37.695015000 -122.103806000 42.6

T 2017-11-26 19:37:53 37.695240000 -122.104010000 42.8

T 2017-11-26 19:37:54 37.695457000 -122.104200000 42.7

T 2017-11-26 19:37:55 37.695670000 -122.104400000 42.4
T 2017-11-26 19:37:56 37.695885000 -122.104590000 41.9

T 2017-11-26 19:37:57 37.696100000 -122.104774000 41.6

T 2017-11-26 19:37:58 37.696320000 -122.104970000 41.2

T 2017-11-26 19:37:59 37.696537000 -122.105160000 41.1

T 2017-11-26 19:38:00 37.696760000 -122.105360000 41.0

T 2017-11-26 19:38:02 37.697210000 -122.105770000 40.7

T 2017-11-26 19:38:03 37.697433000 -122.105965000 40.4

T 2017-11-26 19:38:04 37.697660000 -122.106170000 40.3

T 2017-11-26 19:38:05 37.697887000 -122.106370000 40.6

T 2017-11-26 19:38:06 37.698116000 -122.106575000 40.4

T 2017-11-26 19:38:07 37.698340000 -122.106770000 40.2

T 2017-11-26 19:38:08 37.698570000 -122.106970000 39.9

T 2017-11-26 19:38:09 37.698800000 -122.107180000 38.9

T 2017-11-26 19:38:10 37.699024000 -122.107380000 39.0

T 2017-11-26 19:38:11 37.699240000 -122.107580000 39.1

T 2017-11-26 19:38:12 37.699455000 -122.107790000 38.8

T 2017-11-26 19:38:14 37.699883000 -122.108240000 39.0

T 2017-11-26 19:38:15 37.700092000 -122.108470000 39.1

T 2017-11-26 19:38:16 37.700300000 -122.108710000 39.2

T 2017-11-26 19:38:17 37.700493000 -122.108960000 38.6

T 2017-11-26 19:38:18 37.700684000 -122.109215000 38.1

T 2017-11-26 19:38:19 37.700870000 -122.109480000 38.2

T 2017-11-26 19:38:20 37.701042000 -122.109760000 37.7

T 2017-11-26 19:38:21 37.701218000 -122.110030000 37.5

T 2017-11-26 19:38:22 37.701390000 -122.110310000 36.5

T 2017-11-26 19:38:23 37.701565000 -122.110590000 37.0

T 2017-11-26 19:38:25 37.701897000 -122.111150000 36.5

T 2017-11-26 19:38:26 37.702072000 -122.111430000 35.9

T 2017-11-26 19:38:27 37.702240000 -122.111710000 35.4
T 2017-11-26 19:38:28 37.702415000 -122.111984000 35.0

T 2017-11-26 19:38:29 37.702587000 -122.112240000 33.5

T 2017-11-26 19:38:30 37.702755000 -122.112510000 33.1

T 2017-11-26 19:38:32 37.703110000 -122.113075000 34.9

T 2017-11-26 19:38:33 37.703278000 -122.113365000 34.5

T 2017-11-26 19:38:34 37.703423000 -122.113625000 34.4

T 2017-11-26 19:38:35 37.703587000 -122.113890000 34.7

T 2017-11-26 19:38:36 37.703754000 -122.114170000 34.1

T 2017-11-26 19:38:37 37.703945000 -122.114450000 33.0

T 2017-11-26 19:38:38 37.704094000 -122.114685000 30.0

T 2017-11-26 19:38:40 37.704464000 -122.115265000 29.7

T 2017-11-26 19:38:41 37.704624000 -122.115550000 31.3

T 2017-11-26 19:38:42 37.704770000 -122.115830000 30.7

T 2017-11-26 19:38:43 37.704933000 -122.116120000 29.5

T 2017-11-26 19:38:44 37.705093000 -122.116420000 29.2

T 2017-11-26 19:38:45 37.705246000 -122.116710000 29.4

T 2017-11-26 19:38:46 37.705414000 -122.117010000 27.9

T 2017-11-26 19:38:47 37.705550000 -122.117310000 26.7

T 2017-11-26 19:38:48 37.705692000 -122.117610000 25.4

T 2017-11-26 19:38:49 37.705837000 -122.117910000 24.5

T 2017-11-26 19:38:51 37.706120000 -122.118530000 24.5

T 2017-11-26 19:38:52 37.706257000 -122.118820000 20.5

T 2017-11-26 19:38:53 37.706394000 -122.119125000 20.4

T 2017-11-26 19:38:54 37.706528000 -122.119430000 19.9

T 2017-11-26 19:38:55 37.706660000 -122.119740000 19.3

T 2017-11-26 19:38:56 37.706800000 -122.120056000 18.3

T 2017-11-26 19:38:57 37.706936000 -122.120360000 17.6

T 2017-11-26 19:38:58 37.707090000 -122.120660000 17.1

T 2017-11-26 19:38:59 37.707237000 -122.120950000 17.0

T 2017-11-26 19:39:00 37.707413000 -122.121216000 14.5
T 2017-11-26 19:39:02 37.707787000 -122.121730000 13.8

T 2017-11-26 19:39:03 37.707985000 -122.121990000 12.8

T 2017-11-26 19:39:04 37.708180000 -122.122230000 12.0

T 2017-11-26 19:39:05 37.708370000 -122.122480000 11.6

T 2017-11-26 19:39:06 37.708560000 -122.122700000 10.7

T 2017-11-26 19:39:07 37.708755000 -122.122950000 10.7

T 2017-11-26 19:39:08 37.708950000 -122.123190000 11.2

T 2017-11-26 19:39:09 37.709145000 -122.123440000 11.7

T 2017-11-26 19:39:10 37.709340000 -122.123690000 11.4

T 2017-11-26 19:39:11 37.709534000 -122.123930000 11.3

T 2017-11-26 19:39:12 37.709720000 -122.124190000 11.8

T 2017-11-26 19:39:14 37.710075000 -122.124700000 12.2

T 2017-11-26 19:39:15 37.710255000 -122.124985000 12.8

T 2017-11-26 19:39:16 37.710420000 -122.125270000 12.5

T 2017-11-26 19:39:17 37.710575000 -122.125550000 12.4

T 2017-11-26 19:39:18 37.710728000 -122.125840000 12.6

T 2017-11-26 19:39:19 37.710880000 -122.126140000 12.6

T 2017-11-26 19:39:20 37.711025000 -122.126430000 13.5

T 2017-11-26 19:39:21 37.711180000 -122.126724000 12.6

T 2017-11-26 19:39:22 37.711330000 -122.127014000 14.0

T 2017-11-26 19:39:24 37.711624000 -122.127594000 13.7

T 2017-11-26 19:39:25 37.711773000 -122.127890000 13.8

T 2017-11-26 19:39:26 37.711937000 -122.128190000 13.6

T 2017-11-26 19:39:27 37.712100000 -122.128460000 13.6

T 2017-11-26 19:39:28 37.712288000 -122.128760000 15.6

T 2017-11-26 19:39:29 37.712470000 -122.129030000 16.7

T 2017-11-26 19:39:30 37.712660000 -122.129280000 18.1

T 2017-11-26 19:39:31 37.712856000 -122.129524000 18.4

T 2017-11-26 19:39:32 37.713055000 -122.129760000 17.1
T 2017-11-26 19:39:33 37.713270000 -122.129990000 18.8

T 2017-11-26 19:39:34 37.713474000 -122.130210000 20.9

T 2017-11-26 19:39:36 37.713920000 -122.130630000 20.6

T 2017-11-26 19:39:38 37.714394000 -122.131010000 21.2

T 2017-11-26 19:39:39 37.714638000 -122.131190000 21.6

T 2017-11-26 19:39:40 37.714893000 -122.131355000 21.9

T 2017-11-26 19:39:41 37.715145000 -122.131500000 21.8

T 2017-11-26 19:39:42 37.715400000 -122.131640000 21.4

T 2017-11-26 19:39:43 37.715660000 -122.131775000 21.4

T 2017-11-26 19:39:44 37.715920000 -122.131905000 21.6

T 2017-11-26 19:39:45 37.716187000 -122.132034000 21.7

T 2017-11-26 19:39:46 37.716446000 -122.132164000 21.2

T 2017-11-26 19:39:47 37.716705000 -122.132286000 21.0

T 2017-11-26 19:39:48 37.716970000 -122.132416000 21.5

T 2017-11-26 19:39:50 37.717487000 -122.132670000 21.7

T 2017-11-26 19:39:51 37.717747000 -122.132800000 21.9

T 2017-11-26 19:39:52 37.718002000 -122.132920000 21.9

T 2017-11-26 19:39:53 37.718258000 -122.133040000 21.9

T 2017-11-26 19:39:54 37.718506000 -122.133170000 22.8

T 2017-11-26 19:39:55 37.718760000 -122.133310000 23.3

T 2017-11-26 19:39:56 37.719017000 -122.133450000 23.9

T 2017-11-26 19:39:57 37.719270000 -122.133600000 23.8

T 2017-11-26 19:39:58 37.719517000 -122.133750000 24.4

T 2017-11-26 19:39:59 37.719772000 -122.133900000 24.9

T 2017-11-26 19:40:00 37.720020000 -122.134056000 25.7

T 2017-11-26 19:40:02 37.720512000 -122.134370000 25.1

T 2017-11-26 19:40:03 37.720757000 -122.134544000 25.6

T 2017-11-26 19:40:04 37.721010000 -122.134720000 25.9

T 2017-11-26 19:40:05 37.721252000 -122.134895000 25.3

T 2017-11-26 19:40:06 37.721497000 -122.135070000 24.6
T 2017-11-26 19:40:07 37.721733000 -122.135260000 23.6

T 2017-11-26 19:40:08 37.721973000 -122.135445000 23.0

T 2017-11-26 19:40:09 37.722218000 -122.135635000 22.3

T 2017-11-26 19:40:10 37.722458000 -122.135820000 22.0

T 2017-11-26 19:40:11 37.722700000 -122.136000000 21.3

T 2017-11-26 19:40:13 37.723167000 -122.136370000 21.6

T 2017-11-26 19:40:14 37.723404000 -122.136550000 21.3

T 2017-11-26 19:40:15 37.723640000 -122.136730000 21.4

T 2017-11-26 19:40:16 37.723880000 -122.136894000 21.4

T 2017-11-26 19:40:17 37.724125000 -122.137054000 21.5

T 2017-11-26 19:40:18 37.724373000 -122.137200000 22.2

T 2017-11-26 19:40:19 37.724625000 -122.137330000 22.7

T 2017-11-26 19:40:20 37.724888000 -122.137440000 23.2

T 2017-11-26 19:40:21 37.725143000 -122.137540000 23.9

T 2017-11-26 19:40:22 37.725407000 -122.137634000 23.7

T 2017-11-26 19:40:23 37.725677000 -122.137710000 23.9

T 2017-11-26 19:40:24 37.725956000 -122.137790000 24.0

T 2017-11-26 19:40:26 37.726498000 -122.137856000 23.9

T 2017-11-26 19:40:27 37.726780000 -122.137910000 23.9

T 2017-11-26 19:40:28 37.727055000 -122.137950000 24.2

T 2017-11-26 19:40:29 37.727333000 -122.137990000 24.3

T 2017-11-26 19:40:30 37.727608000 -122.138040000 24.7

T 2017-11-26 19:40:31 37.727894000 -122.138084000 25.3

T 2017-11-26 19:40:32 37.728172000 -122.138145000 25.4

T 2017-11-26 19:40:33 37.728447000 -122.138200000 26.4

T 2017-11-26 19:40:34 37.728718000 -122.138260000 26.7

T 2017-11-26 19:40:35 37.728990000 -122.138310000 27.1

T 2017-11-26 19:40:36 37.729263000 -122.138380000 27.3

T 2017-11-26 19:40:38 37.729810000 -122.138530000 27.2
T 2017-11-26 19:40:39 37.730087000 -122.138610000 27.4

T 2017-11-26 19:40:40 37.730354000 -122.138690000 27.5

T 2017-11-26 19:40:41 37.730625000 -122.138756000 27.7

T 2017-11-26 19:40:42 37.730900000 -122.138840000 28.2

T 2017-11-26 19:40:43 37.731167000 -122.138900000 27.7

T 2017-11-26 19:40:44 37.731440000 -122.138985000 27.7

T 2017-11-26 19:40:45 37.731712000 -122.139060000 27.8

T 2017-11-26 19:40:46 37.731987000 -122.139145000 27.9

T 2017-11-26 19:40:47 37.732258000 -122.139220000 28.0

T 2017-11-26 19:40:48 37.732540000 -122.139305000 27.9

T 2017-11-26 19:40:50 37.733078000 -122.139440000 25.1

T 2017-11-26 19:40:51 37.733350000 -122.139510000 25.8

T 2017-11-26 19:40:52 37.733616000 -122.139590000 26.3

T 2017-11-26 19:40:53 37.733900000 -122.139660000 26.6

T 2017-11-26 19:40:54 37.734177000 -122.139725000 27.1

T 2017-11-26 19:40:55 37.734455000 -122.139786000 27.6

T 2017-11-26 19:40:56 37.734726000 -122.139840000 27.8

T 2017-11-26 19:40:57 37.735023000 -122.139946000 29.1

T 2017-11-26 19:40:58 37.735275000 -122.139980000 27.7

T 2017-11-26 19:40:59 37.735542000 -122.140040000 28.0

T 2017-11-26 19:41:00 37.735806000 -122.140090000 28.1

T 2017-11-26 19:41:01 37.736073000 -122.140144000 28.5

T 2017-11-26 19:41:03 37.736584000 -122.140270000 28.1

T 2017-11-26 19:41:04 37.736850000 -122.140366000 28.1

T 2017-11-26 19:41:05 37.737114000 -122.140500000 28.7

T 2017-11-26 19:41:06 37.737362000 -122.140640000 29.3

T 2017-11-26 19:41:07 37.737602000 -122.140816000 30.1

T 2017-11-26 19:41:08 37.737843000 -122.141000000 29.8

T 2017-11-26 19:41:10 37.738280000 -122.141426000 30.0

T 2017-11-26 19:41:11 37.738495000 -122.141660000 29.7
T 2017-11-26 19:41:12 37.738697000 -122.141910000 29.4

T 2017-11-26 19:41:13 37.738890000 -122.142150000 28.4

T 2017-11-26 19:41:14 37.739086000 -122.142410000 27.6

T 2017-11-26 19:41:15 37.739285000 -122.142654000 26.7

T 2017-11-26 19:41:16 37.739487000 -122.142910000 25.5

T 2017-11-26 19:41:17 37.739693000 -122.143160000 24.1

T 2017-11-26 19:41:18 37.739895000 -122.143400000 23.4

T 2017-11-26 19:41:20 37.740320000 -122.143850000 23.4

T 2017-11-26 19:41:21 37.740543000 -122.144060000 23.0

T 2017-11-26 19:41:22 37.740776000 -122.144240000 22.9

T 2017-11-26 19:41:23 37.741013000 -122.144424000 23.0

T 2017-11-26 19:41:25 37.741486000 -122.144780000 23.3

T 2017-11-26 19:41:26 37.741730000 -122.144966000 23.4

T 2017-11-26 19:41:27 37.741974000 -122.145150000 23.4

T 2017-11-26 19:41:28 37.742214000 -122.145330000 23.7

T 2017-11-26 19:41:30 37.742672000 -122.145730000 24.4

T 2017-11-26 19:41:31 37.742880000 -122.145940000 25.0

T 2017-11-26 19:41:32 37.743090000 -122.146170000 26.0

T 2017-11-26 19:41:33 37.743298000 -122.146420000 26.5

T 2017-11-26 19:41:34 37.743484000 -122.146675000 26.7

T 2017-11-26 19:41:35 37.743668000 -122.146930000 27.6

T 2017-11-26 19:41:36 37.743850000 -122.147190000 28.2

T 2017-11-26 19:41:37 37.744040000 -122.147446000 29.4

T 2017-11-26 19:41:38 37.744230000 -122.147700000 30.2

T 2017-11-26 19:41:39 37.744415000 -122.147940000 31.1

T 2017-11-26 19:41:41 37.744812000 -122.148410000 34.0

T 2017-11-26 19:41:42 37.745030000 -122.148620000 35.5

T 2017-11-26 19:41:43 37.745250000 -122.148830000 36.0

T 2017-11-26 19:41:44 37.745483000 -122.149020000 36.9
T 2017-11-26 19:41:45 37.745730000 -122.149200000 37.2

T 2017-11-26 19:41:46 37.745983000 -122.149350000 36.8

T 2017-11-26 19:41:47 37.746235000 -122.149490000 37.5

T 2017-11-26 19:41:48 37.746490000 -122.149620000 38.4

T 2017-11-26 19:41:49 37.746754000 -122.149750000 38.4

T 2017-11-26 19:41:50 37.747017000 -122.149880000 39.2

T 2017-11-26 19:41:52 37.747536000 -122.150130000 39.6

T 2017-11-26 19:41:53 37.747795000 -122.150260000 40.7

T 2017-11-26 19:41:54 37.748050000 -122.150390000 41.9

T 2017-11-26 19:41:55 37.748310000 -122.150520000 43.1

T 2017-11-26 19:41:56 37.748566000 -122.150650000 43.2

T 2017-11-26 19:41:57 37.748825000 -122.150770000 43.4

T 2017-11-26 19:41:58 37.749080000 -122.150894000 43.5

T 2017-11-26 19:41:59 37.749340000 -122.151024000 44.1

T 2017-11-26 19:42:00 37.749590000 -122.151150000 44.3

T 2017-11-26 19:42:01 37.749847000 -122.151270000 44.6

T 2017-11-26 19:42:03 37.750378000 -122.151520000 45.8

T 2017-11-26 19:42:04 37.750645000 -122.151630000 46.1

T 2017-11-26 19:42:05 37.750920000 -122.151710000 46.0

T 2017-11-26 19:42:06 37.751198000 -122.151770000 46.3

T 2017-11-26 19:42:07 37.751476000 -122.151810000 47.0

T 2017-11-26 19:42:09 37.752026000 -122.151810000 47.3

T 2017-11-26 19:42:10 37.752308000 -122.151780000 43.9

T 2017-11-26 19:42:11 37.752583000 -122.151730000 46.1

T 2017-11-26 19:42:12 37.752853000 -122.151665000 47.4

T 2017-11-26 19:42:13 37.753105000 -122.151540000 47.5

T 2017-11-26 19:42:14 37.753370000 -122.151420000 48.8

T 2017-11-26 19:42:16 37.753887000 -122.151130000 51.3

T 2017-11-26 19:42:17 37.754130000 -122.150955000 51.7

T 2017-11-26 19:42:18 37.754356000 -122.150764000 52.8
T 2017-11-26 19:42:19 37.754574000 -122.150550000 52.5

T 2017-11-26 19:42:20 37.754784000 -122.150330000 52.8

T 2017-11-26 19:42:21 37.754990000 -122.150100000 53.3

T 2017-11-26 19:42:22 37.755200000 -122.149870000 53.9

T 2017-11-26 19:42:23 37.755400000 -122.149640000 54.0

T 2017-11-26 19:42:24 37.755608000 -122.149414000 54.2

T 2017-11-26 19:42:25 37.755820000 -122.149190000 55.6

T 2017-11-26 19:42:26 37.756040000 -122.148970000 56.2

T 2017-11-26 19:42:27 37.756252000 -122.148766000 56.8

T 2017-11-26 19:42:29 37.756737000 -122.148420000 58.0

T 2017-11-26 19:42:30 37.756990000 -122.148270000 59.5

T 2017-11-26 19:42:31 37.757244000 -122.148130000 60.7

T 2017-11-26 19:42:32 37.757492000 -122.148020000 62.2

T 2017-11-26 19:42:33 37.757763000 -122.147930000 63.1

T 2017-11-26 19:42:34 37.758038000 -122.147860000 63.4

T 2017-11-26 19:42:35 37.758312000 -122.147820000 63.4

T 2017-11-26 19:42:36 37.758580000 -122.147790000 63.1

T 2017-11-26 19:42:37 37.758870000 -122.147800000 62.7

T 2017-11-26 19:42:39 37.759434000 -122.147865000 63.0

T 2017-11-26 19:42:40 37.759710000 -122.147934000 63.4

T 2017-11-26 19:42:41 37.759980000 -122.148020000 63.5

T 2017-11-26 19:42:42 37.760246000 -122.148130000 64.5

T 2017-11-26 19:42:43 37.760513000 -122.148254000 66.5

T 2017-11-26 19:42:44 37.760773000 -122.148380000 66.9

T 2017-11-26 19:42:45 37.761032000 -122.148506000 69.2

T 2017-11-26 19:42:46 37.761276000 -122.148640000 67.0

T 2017-11-26 19:42:47 37.761528000 -122.148796000 69.3

T 2017-11-26 19:42:49 37.762016000 -122.149120000 72.7

T 2017-11-26 19:42:50 37.762260000 -122.149280000 74.4
T 2017-11-26 19:42:51 37.762500000 -122.149440000 73.9

T 2017-11-26 19:42:52 37.762740000 -122.149600000 74.5

T 2017-11-26 19:42:53 37.762990000 -122.149760000 76.5

T 2017-11-26 19:42:54 37.763230000 -122.149920000 78.3

T 2017-11-26 19:42:55 37.763470000 -122.150080000 79.6

T 2017-11-26 19:42:56 37.763714000 -122.150250000 80.8

T 2017-11-26 19:42:57 37.763954000 -122.150440000 82.5

T 2017-11-26 19:42:58 37.764190000 -122.150610000 83.2

T 2017-11-26 19:42:59 37.764427000 -122.150800000 84.2

T 2017-11-26 19:43:01 37.764900000 -122.151200000 85.3

T 2017-11-26 19:43:02 37.765137000 -122.151400000 85.6

T 2017-11-26 19:43:03 37.765377000 -122.151600000 86.4

T 2017-11-26 19:43:04 37.765614000 -122.151800000 86.6

T 2017-11-26 19:43:05 37.765858000 -122.151985000 86.9

T 2017-11-26 19:43:06 37.766100000 -122.152170000 87.3

T 2017-11-26 19:43:07 37.766346000 -122.152336000 88.8

T 2017-11-26 19:43:08 37.766590000 -122.152510000 88.9

T 2017-11-26 19:43:09 37.766830000 -122.152660000 89.0

T 2017-11-26 19:43:11 37.767326000 -122.152960000 89.8

T 2017-11-26 19:43:12 37.767560000 -122.153110000 89.7

T 2017-11-26 19:43:13 37.767810000 -122.153260000 91.5

T 2017-11-26 19:43:14 37.768060000 -122.153410000 91.4

T 2017-11-26 19:43:15 37.768303000 -122.153570000 91.9

T 2017-11-26 19:43:16 37.768555000 -122.153725000 92.1

T 2017-11-26 19:43:18 37.769062000 -122.154030000 93.3

T 2017-11-26 19:43:19 37.769320000 -122.154190000 94.0

T 2017-11-26 19:43:20 37.769570000 -122.154335000 93.7

T 2017-11-26 19:43:21 37.769817000 -122.154495000 93.0

T 2017-11-26 19:43:22 37.770060000 -122.154655000 92.4

T 2017-11-26 19:43:23 37.770306000 -122.154820000 91.8
T 2017-11-26 19:43:24 37.770542000 -122.155000000 91.3

T 2017-11-26 19:43:25 37.770775000 -122.155190000 90.7

T 2017-11-26 19:43:26 37.771010000 -122.155380000 90.6

T 2017-11-26 19:43:28 37.771460000 -122.155785000 89.9

T 2017-11-26 19:43:29 37.771680000 -122.156006000 90.2

T 2017-11-26 19:43:30 37.771885000 -122.156230000 89.5

T 2017-11-26 19:43:31 37.772106000 -122.156440000 89.4

T 2017-11-26 19:43:32 37.772305000 -122.156685000 89.1

T 2017-11-26 19:43:33 37.772503000 -122.156930000 89.7

T 2017-11-26 19:43:34 37.772690000 -122.157170000 89.9

T 2017-11-26 19:43:35 37.772870000 -122.157420000 90.2

T 2017-11-26 19:43:36 37.773040000 -122.157670000 90.8

T 2017-11-26 19:43:37 37.773212000 -122.157936000 91.7

T 2017-11-26 19:43:38 37.773388000 -122.158210000 93.4

T 2017-11-26 19:43:40 37.773720000 -122.158790000 93.8

T 2017-11-26 19:43:41 37.773880000 -122.159090000 94.7

T 2017-11-26 19:43:42 37.774040000 -122.159400000 95.2

T 2017-11-26 19:43:43 37.774197000 -122.159710000 95.6

T 2017-11-26 19:43:44 37.774360000 -122.160050000 96.8

T 2017-11-26 19:43:45 37.774520000 -122.160360000 96.8

T 2017-11-26 19:43:46 37.774680000 -122.160680000 96.4

T 2017-11-26 19:43:47 37.774850000 -122.161010000 94.5

T 2017-11-26 19:43:49 37.775097000 -122.161660000 96.3

T 2017-11-26 19:43:50 37.775260000 -122.161995000 97.3

T 2017-11-26 19:43:51 37.775470000 -122.162346000 94.2

T 2017-11-26 19:43:52 37.775654000 -122.162700000 92.9

T 2017-11-26 19:43:53 37.775845000 -122.163040000 92.4

T 2017-11-26 19:43:54 37.776010000 -122.163380000 92.1

T 2017-11-26 19:43:55 37.776184000 -122.163734000 92.8
T 2017-11-26 19:43:57 37.776530000 -122.164410000 90.4

T 2017-11-26 19:43:58 37.776690000 -122.164760000 89.3

T 2017-11-26 19:43:59 37.776855000 -122.165110000 88.2

T 2017-11-26 19:44:00 37.777008000 -122.165450000 87.3

T 2017-11-26 19:44:01 37.777160000 -122.165794000 86.9

T 2017-11-26 19:44:02 37.777317000 -122.166140000 86.7

T 2017-11-26 19:44:03 37.777466000 -122.166470000 86.1

T 2017-11-26 19:44:04 37.777615000 -122.166810000 85.6

T 2017-11-26 19:44:05 37.777763000 -122.167140000 85.4

T 2017-11-26 19:44:06 37.777910000 -122.167450000 85.1

T 2017-11-26 19:44:07 37.778038000 -122.167755000 84.6

T 2017-11-26 19:44:08 37.778180000 -122.168050000 84.2

T 2017-11-26 19:44:10 37.778470000 -122.168655000 84.3

T 2017-11-26 19:44:11 37.778620000 -122.168940000 84.3

T 2017-11-26 19:44:12 37.778767000 -122.169210000 84.9

T 2017-11-26 19:44:13 37.778908000 -122.169495000 84.6

T 2017-11-26 19:44:14 37.779053000 -122.169770000 84.6

T 2017-11-26 19:44:15 37.779198000 -122.170040000 84.7

T 2017-11-26 19:44:16 37.779346000 -122.170330000 84.9

T 2017-11-26 19:44:17 37.779514000 -122.170610000 85.3

T 2017-11-26 19:44:18 37.779660000 -122.170890000 85.3

T 2017-11-26 19:44:20 37.779960000 -122.171440000 85.7

T 2017-11-26 19:44:21 37.780148000 -122.171760000 85.5

T 2017-11-26 19:44:22 37.780323000 -122.172066000 84.6

T 2017-11-26 19:44:23 37.780470000 -122.172350000 85.0

T 2017-11-26 19:44:24 37.780632000 -122.172640000 84.7

T 2017-11-26 19:44:25 37.780773000 -122.172900000 86.2

T 2017-11-26 19:44:27 37.781082000 -122.173420000 85.8

T 2017-11-26 19:44:29 37.781384000 -122.173910000 84.4

T 2017-11-26 19:44:30 37.781544000 -122.174160000 84.4
T 2017-11-26 19:44:31 37.781704000 -122.174400000 84.2

T 2017-11-26 19:44:32 37.781868000 -122.174650000 83.7

T 2017-11-26 19:44:33 37.782040000 -122.174910000 83.5

T 2017-11-26 19:44:34 37.782215000 -122.175160000 83.4

T 2017-11-26 19:44:35 37.782400000 -122.175415000 82.3

T 2017-11-26 19:44:36 37.782580000 -122.175660000 81.2

T 2017-11-26 19:44:37 37.782760000 -122.175910000 81.3

T 2017-11-26 19:44:38 37.782948000 -122.176160000 81.6

T 2017-11-26 19:44:40 37.783325000 -122.176674000 81.5

T 2017-11-26 19:44:41 37.783524000 -122.176930000 79.8

T 2017-11-26 19:44:42 37.783722000 -122.177190000 79.5

T 2017-11-26 19:44:43 37.783930000 -122.177440000 78.6

T 2017-11-26 19:44:44 37.784153000 -122.177666000 77.1

T 2017-11-26 19:44:45 37.784380000 -122.177895000 77.3

T 2017-11-26 19:44:46 37.784607000 -122.178110000 78.4

T 2017-11-26 19:44:47 37.784840000 -122.178310000 78.9

T 2017-11-26 19:44:48 37.785072000 -122.178510000 79.0

T 2017-11-26 19:44:49 37.785300000 -122.178730000 79.0

T 2017-11-26 19:44:50 37.785530000 -122.178925000 79.2

T 2017-11-26 19:44:51 37.785750000 -122.179120000 79.5

T 2017-11-26 19:44:53 37.786220000 -122.179520000 79.6

T 2017-11-26 19:44:54 37.786450000 -122.179720000 79.6

T 2017-11-26 19:44:55 37.786682000 -122.179924000 79.5

T 2017-11-26 19:44:56 37.786907000 -122.180120000 79.6

T 2017-11-26 19:44:57 37.787132000 -122.180320000 80.1

T 2017-11-26 19:44:58 37.787357000 -122.180504000 80.3

T 2017-11-26 19:44:59 37.787582000 -122.180690000 80.6

T 2017-11-26 19:45:00 37.787810000 -122.180850000 81.8

T 2017-11-26 19:45:01 37.788044000 -122.180980000 82.2
T 2017-11-26 19:45:02 37.788292000 -122.181080000 82.3

T 2017-11-26 19:45:04 37.788784000 -122.181206000 82.2

T 2017-11-26 19:45:05 37.789032000 -122.181240000 83.4

T 2017-11-26 19:45:06 37.789280000 -122.181240000 84.4

T 2017-11-26 19:45:07 37.789530000 -122.181210000 84.7

T 2017-11-26 19:45:08 37.789783000 -122.181190000 85.1

T 2017-11-26 19:45:09 37.790043000 -122.181150000 84.6

T 2017-11-26 19:45:10 37.790283000 -122.181090000 83.8

T 2017-11-26 19:45:11 37.790524000 -122.181040000 83.3

T 2017-11-26 19:45:12 37.790764000 -122.180984000 83.4

T 2017-11-26 19:45:13 37.790997000 -122.180920000 85.9

T 2017-11-26 19:45:14 37.791233000 -122.180880000 86.6

T 2017-11-26 19:45:15 37.791466000 -122.180850000 87.0

T 2017-11-26 19:45:17 37.791935000 -122.180855000 87.5

T 2017-11-26 19:45:18 37.792168000 -122.180885000 88.6

T 2017-11-26 19:45:19 37.792400000 -122.180950000 89.5

T 2017-11-26 19:45:21 37.792860000 -122.181114000 90.8

T 2017-11-26 19:45:22 37.793070000 -122.181240000 92.8

T 2017-11-26 19:45:23 37.793293000 -122.181366000 95.8

T 2017-11-26 19:45:24 37.793503000 -122.181500000 99.4

T 2017-11-26 19:45:25 37.793713000 -122.181630000 100.9

T 2017-11-26 19:45:26 37.793922000 -122.181760000 103.4

T 2017-11-26 19:45:27 37.794132000 -122.181885000 105.0

T 2017-11-26 19:45:28 37.794346000 -122.182014000 106.8

T 2017-11-26 19:45:29 37.794548000 -122.182140000 108.0

T 2017-11-26 19:45:31 37.794964000 -122.182396000 111.6

T 2017-11-26 19:45:32 37.795170000 -122.182540000 113.0

T 2017-11-26 19:45:33 37.795376000 -122.182686000 114.8

T 2017-11-26 19:45:34 37.795580000 -122.182830000 116.2

T 2017-11-26 19:45:35 37.795784000 -122.182976000 117.5
T 2017-11-26 19:45:36 37.795990000 -122.183130000 119.7

T 2017-11-26 19:45:38 37.796400000 -122.183450000 122.6

T 2017-11-26 19:45:39 37.796600000 -122.183600000 123.8

T 2017-11-26 19:45:40 37.796803000 -122.183770000 124.7

T 2017-11-26 19:45:41 37.797010000 -122.183920000 125.5

T 2017-11-26 19:45:42 37.797210000 -122.184074000 125.4

T 2017-11-26 19:45:43 37.797417000 -122.184235000 126.4

T 2017-11-26 19:45:44 37.797623000 -122.184390000 127.0

T 2017-11-26 19:45:45 37.797830000 -122.184540000 128.0

T 2017-11-26 19:45:46 37.798035000 -122.184700000 129.1

T 2017-11-26 19:45:48 37.798443000 -122.185020000 130.6

T 2017-11-26 19:45:49 37.798634000 -122.185190000 129.7

T 2017-11-26 19:45:51 37.799010000 -122.185530000 131.6

T 2017-11-26 19:45:52 37.799202000 -122.185720000 132.6

T 2017-11-26 19:45:53 37.799390000 -122.185900000 134.3

T 2017-11-26 19:45:54 37.799572000 -122.186080000 135.6

T 2017-11-26 19:45:55 37.799740000 -122.186250000 137.0

T 2017-11-26 19:45:56 37.799900000 -122.186410000 138.3

T 2017-11-26 19:45:57 37.800056000 -122.186570000 139.6

T 2017-11-26 19:45:58 37.800210000 -122.186730000 140.1

T 2017-11-26 19:45:59 37.800350000 -122.186890000 140.7

T 2017-11-26 19:46:01 37.800640000 -122.187210000 142.1

T 2017-11-26 19:46:02 37.800777000 -122.187370000 142.7

T 2017-11-26 19:46:03 37.800922000 -122.187520000 143.2

T 2017-11-26 19:46:04 37.801064000 -122.187680000 144.5

T 2017-11-26 19:46:05 37.801200000 -122.187840000 144.6

T 2017-11-26 19:46:06 37.801334000 -122.188000000 115.2

T 2017-11-26 19:46:07 37.801480000 -122.188160000 128.4

T 2017-11-26 19:46:08 37.801624000 -122.188350000 135.9
T 2017-11-26 19:46:10 37.801918000 -122.188710000 142.3

T 2017-11-26 19:46:11 37.802070000 -122.188896000 144.1

T 2017-11-26 19:46:12 37.802230000 -122.189090000 145.4

T 2017-11-26 19:46:13 37.802395000 -122.189270000 145.5

T 2017-11-26 19:46:14 37.802560000 -122.189460000 146.8

T 2017-11-26 19:46:16 37.802925000 -122.189850000 147.8

T 2017-11-26 19:46:17 37.803116000 -122.190040000 148.0

T 2017-11-26 19:46:18 37.803303000 -122.190240000 148.6

T 2017-11-26 19:46:19 37.803510000 -122.190420000 149.7

T 2017-11-26 19:46:20 37.803707000 -122.190610000 151.2

T 2017-11-26 19:46:21 37.803910000 -122.190800000 152.2

T 2017-11-26 19:46:22 37.804110000 -122.190994000 155.3

T 2017-11-26 19:46:23 37.804314000 -122.191170000 157.8

T 2017-11-26 19:46:24 37.804520000 -122.191340000 159.3

T 2017-11-26 19:46:26 37.804928000 -122.191670000 162.5

T 2017-11-26 19:46:27 37.805130000 -122.191840000 165.0

T 2017-11-26 19:46:28 37.805336000 -122.192010000 167.2

T 2017-11-26 19:46:29 37.805530000 -122.192184000 168.5

T 2017-11-26 19:46:30 37.805725000 -122.192350000 170.3

T 2017-11-26 19:46:31 37.805923000 -122.192520000 172.3

T 2017-11-26 19:46:32 37.806114000 -122.192680000 174.2

T 2017-11-26 19:46:33 37.806305000 -122.192850000 175.9

T 2017-11-26 19:46:34 37.806490000 -122.193000000 176.9

T 2017-11-26 19:46:35 37.806670000 -122.193150000 179.0

T 2017-11-26 19:46:36 37.806854000 -122.193310000 180.6

T 2017-11-26 19:46:37 37.807030000 -122.193460000 182.0

T 2017-11-26 19:46:39 37.807384000 -122.193750000 184.0

T 2017-11-26 19:46:40 37.807560000 -122.193900000 185.3

T 2017-11-26 19:46:41 37.807730000 -122.194040000 185.9

T 2017-11-26 19:46:42 37.807903000 -122.194210000 186.4
T 2017-11-26 19:46:43 37.808075000 -122.194374000 187.6

T 2017-11-26 19:46:44 37.808235000 -122.194550000 188.8

T 2017-11-26 19:46:45 37.808400000 -122.194725000 189.7

T 2017-11-26 19:46:46 37.808567000 -122.194910000 191.3

T 2017-11-26 19:46:47 37.808727000 -122.195090000 192.6

T 2017-11-26 19:46:48 37.808887000 -122.195280000 193.4

T 2017-11-26 19:46:49 37.809048000 -122.195470000 194.4

T 2017-11-26 19:46:50 37.809204000 -122.195660000 194.8

T 2017-11-26 19:46:51 37.809353000 -122.195854000 195.0

T 2017-11-26 19:46:53 37.809660000 -122.196250000 194.3

T 2017-11-26 19:46:54 37.809810000 -122.196450000 194.9

T 2017-11-26 19:46:55 37.809960000 -122.196650000 195.3

T 2017-11-26 19:46:56 37.810110000 -122.196846000 194.4

T 2017-11-26 19:46:57 37.810260000 -122.197044000 194.1

T 2017-11-26 19:46:58 37.810413000 -122.197260000 194.0

T 2017-11-26 19:47:00 37.810738000 -122.197680000 195.6

T 2017-11-26 19:47:02 37.811070000 -122.198090000 190.8

T 2017-11-26 19:47:04 37.811424000 -122.198520000 192.3

T 2017-11-26 19:47:05 37.811604000 -122.198730000 193.3

T 2017-11-26 19:47:06 37.811787000 -122.198940000 193.5

T 2017-11-26 19:47:07 37.811977000 -122.199135000 193.6

T 2017-11-26 19:47:08 37.812160000 -122.199340000 194.1

T 2017-11-26 19:47:09 37.812350000 -122.199540000 194.3

T 2017-11-26 19:47:10 37.812542000 -122.199745000 195.0

T 2017-11-26 19:47:11 37.812733000 -122.199930000 195.4

T 2017-11-26 19:47:13 37.813100000 -122.200280000 195.3

T 2017-11-26 19:47:14 37.813310000 -122.200485000 194.2

T 2017-11-26 19:47:15 37.813507000 -122.200660000 193.7

T 2017-11-26 19:47:16 37.813717000 -122.200860000 193.3
T 2017-11-26 19:47:17 37.813927000 -122.201035000 192.3

T 2017-11-26 19:47:18 37.814148000 -122.201220000 189.9

T 2017-11-26 19:47:19 37.814365000 -122.201385000 188.5

T 2017-11-26 19:47:20 37.814583000 -122.201546000 186.2

T 2017-11-26 19:47:21 37.814804000 -122.201710000 184.6

T 2017-11-26 19:47:22 37.815020000 -122.201870000 182.2

T 2017-11-26 19:47:24 37.815456000 -122.202190000 179.2

T 2017-11-26 19:47:25 37.815666000 -122.202340000 176.6

T 2017-11-26 19:47:26 37.815884000 -122.202490000 175.8

T 2017-11-26 19:47:27 37.816097000 -122.202660000 174.8

T 2017-11-26 19:47:28 37.816303000 -122.202820000 173.5

T 2017-11-26 19:47:29 37.816505000 -122.202980000 172.3

T 2017-11-26 19:47:30 37.816710000 -122.203140000 171.7

T 2017-11-26 19:47:31 37.816925000 -122.203310000 170.8

T 2017-11-26 19:47:32 37.817135000 -122.203480000 170.8

T 2017-11-26 19:47:33 37.817350000 -122.203650000 170.1

T 2017-11-26 19:47:34 37.817560000 -122.203804000 169.8

T 2017-11-26 19:47:35 37.817770000 -122.203980000 169.5

T 2017-11-26 19:47:37 37.818190000 -122.204320000 166.4

T 2017-11-26 19:47:38 37.818394000 -122.204480000 164.5

T 2017-11-26 19:47:39 37.818600000 -122.204666000 163.6

T 2017-11-26 19:47:40 37.818810000 -122.204830000 162.7

T 2017-11-26 19:47:41 37.819016000 -122.204994000 160.9

T 2017-11-26 19:47:42 37.819218000 -122.205160000 159.1

T 2017-11-26 19:47:43 37.819430000 -122.205320000 157.5

T 2017-11-26 19:47:44 37.819640000 -122.205480000 155.3

T 2017-11-26 19:47:45 37.819850000 -122.205650000 154.4

T 2017-11-26 19:47:46 37.820057000 -122.205820000 153.5

T 2017-11-26 19:47:47 37.820250000 -122.205986000 151.7

T 2017-11-26 19:47:49 37.820670000 -122.206330000 151.0
T 2017-11-26 19:47:50 37.820873000 -122.206490000 150.8

T 2017-11-26 19:47:51 37.821075000 -122.206660000 151.1

T 2017-11-26 19:47:52 37.821278000 -122.206825000 151.5

T 2017-11-26 19:47:53 37.821484000 -122.206990000 151.7

T 2017-11-26 19:47:54 37.821686000 -122.207160000 151.9

T 2017-11-26 19:47:55 37.821877000 -122.207320000 152.4

T 2017-11-26 19:47:56 37.822086000 -122.207490000 154.9

T 2017-11-26 19:47:57 37.822292000 -122.207640000 156.4

T 2017-11-26 19:47:58 37.822560000 -122.207850000 155.9

T 2017-11-26 19:48:00 37.822890000 -122.208115000 156.7

T 2017-11-26 19:48:01 37.823100000 -122.208300000 157.1

T 2017-11-26 19:48:02 37.823307000 -122.208466000 157.9

T 2017-11-26 19:48:03 37.823513000 -122.208630000 160.4

T 2017-11-26 19:48:04 37.823720000 -122.208790000 162.5

T 2017-11-26 19:48:05 37.823925000 -122.208954000 164.7

T 2017-11-26 19:48:06 37.824130000 -122.209120000 165.6

T 2017-11-26 19:48:08 37.824535000 -122.209450000 167.8

T 2017-11-26 19:48:09 37.824720000 -122.209610000 169.4

T 2017-11-26 19:48:10 37.824905000 -122.209755000 170.3

T 2017-11-26 19:48:11 37.825085000 -122.209900000 170.5

T 2017-11-26 19:48:12 37.825264000 -122.210045000 172.1

T 2017-11-26 19:48:13 37.825447000 -122.210200000 173.1

T 2017-11-26 19:48:14 37.825630000 -122.210350000 173.6

T 2017-11-26 19:48:15 37.825820000 -122.210495000 173.7

T 2017-11-26 19:48:16 37.826004000 -122.210650000 174.9

T 2017-11-26 19:48:17 37.826187000 -122.210800000 175.5

T 2017-11-26 19:48:18 37.826363000 -122.210945000 175.3

T 2017-11-26 19:48:20 37.826740000 -122.211250000 176.9

T 2017-11-26 19:48:21 37.826927000 -122.211400000 179.2
T 2017-11-26 19:48:22 37.827118000 -122.211560000 179.9

T 2017-11-26 19:48:23 37.827310000 -122.211716000 182.5

T 2017-11-26 19:48:24 37.827503000 -122.211876000 179.6

T 2017-11-26 19:48:25 37.827694000 -122.212030000 182.2

T 2017-11-26 19:48:26 37.827890000 -122.212190000 183.6

T 2017-11-26 19:48:27 37.828068000 -122.212340000 185.3

T 2017-11-26 19:48:28 37.828260000 -122.212510000 186.5

T 2017-11-26 19:48:30 37.828630000 -122.212845000 188.0

T 2017-11-26 19:48:31 37.828810000 -122.213020000 188.8

T 2017-11-26 19:48:32 37.828983000 -122.213196000 188.7

T 2017-11-26 19:48:33 37.829155000 -122.213370000 187.5

T 2017-11-26 19:48:34 37.829330000 -122.213550000 187.1

T 2017-11-26 19:48:35 37.829514000 -122.213740000 187.2

T 2017-11-26 19:48:37 37.829887000 -122.214110000 187.3

T 2017-11-26 19:48:38 37.830074000 -122.214300000 186.6

T 2017-11-26 19:48:39 37.830265000 -122.214490000 186.9

T 2017-11-26 19:48:40 37.830452000 -122.214676000 187.0

T 2017-11-26 19:48:41 37.830640000 -122.214870000 187.2

T 2017-11-26 19:48:42 37.830830000 -122.215065000 187.8

T 2017-11-26 19:48:43 37.831010000 -122.215256000 187.2

T 2017-11-26 19:48:44 37.831200000 -122.215450000 187.0

T 2017-11-26 19:48:45 37.831387000 -122.215645000 186.7

T 2017-11-26 19:48:47 37.831795000 -122.216020000 186.0

T 2017-11-26 19:48:48 37.832000000 -122.216190000 183.9

T 2017-11-26 19:48:49 37.832207000 -122.216360000 183.1

T 2017-11-26 19:48:50 37.832424000 -122.216540000 182.5

T 2017-11-26 19:48:51 37.832638000 -122.216700000 181.2

T 2017-11-26 19:48:52 37.832850000 -122.216860000 181.3

T 2017-11-26 19:48:53 37.833070000 -122.217026000 181.0

T 2017-11-26 19:48:54 37.833280000 -122.217180000 179.1
T 2017-11-26 19:48:55 37.833500000 -122.217340000 178.0

T 2017-11-26 19:48:56 37.833720000 -122.217500000 177.0

T 2017-11-26 19:48:57 37.833940000 -122.217670000 176.6

T 2017-11-26 19:48:59 37.834377000 -122.218000000 174.5

T 2017-11-26 19:49:00 37.834600000 -122.218180000 172.8

T 2017-11-26 19:49:01 37.834812000 -122.218350000 171.3

T 2017-11-26 19:49:02 37.835030000 -122.218520000 169.7

T 2017-11-26 19:49:03 37.835247000 -122.218680000 168.5

T 2017-11-26 19:49:04 37.835470000 -122.218850000 167.5

T 2017-11-26 19:49:05 37.835700000 -122.219010000 174.1

T 2017-11-26 19:49:06 37.835926000 -122.219180000 171.0

T 2017-11-26 19:49:07 37.836150000 -122.219360000 169.5

T 2017-11-26 19:49:08 37.836372000 -122.219540000 168.9

T 2017-11-26 19:49:09 37.836586000 -122.219730000 167.8

T 2017-11-26 19:49:10 37.836790000 -122.219930000 166.8

T 2017-11-26 19:49:12 37.837143000 -122.220320000 162.9

T 2017-11-26 19:49:13 37.837310000 -122.220530000 162.2

T 2017-11-26 19:49:14 37.837467000 -122.220740000 161.8

T 2017-11-26 19:49:15 37.837624000 -122.220940000 161.1

T 2017-11-26 19:49:16 37.837772000 -122.221146000 159.9

T 2017-11-26 19:49:17 37.837930000 -122.221350000 159.6

T 2017-11-26 19:49:18 37.838085000 -122.221560000 158.9

T 2017-11-26 19:49:19 37.838230000 -122.221770000 158.1

T 2017-11-26 19:49:20 37.838400000 -122.221970000 157.9

T 2017-11-26 19:49:22 37.838734000 -122.222370000 157.3

T 2017-11-26 19:49:23 37.838924000 -122.222565000 156.4

T 2017-11-26 19:49:24 37.839108000 -122.222730000 155.3

T 2017-11-26 19:49:25 37.839310000 -122.222900000 154.2

T 2017-11-26 19:49:26 37.839504000 -122.223060000 154.7
T 2017-11-26 19:49:27 37.839710000 -122.223206000 154.6

T 2017-11-26 19:49:28 37.839912000 -122.223350000 154.1

T 2017-11-26 19:49:29 37.840115000 -122.223495000 154.2

T 2017-11-26 19:49:30 37.840320000 -122.223640000 153.9

T 2017-11-26 19:49:31 37.840527000 -122.223790000 153.1

T 2017-11-26 19:49:33 37.840890000 -122.224100000 153.1

T 2017-11-26 19:49:34 37.841084000 -122.224230000 152.9

T 2017-11-26 19:49:35 37.841270000 -122.224370000 153.5

T 2017-11-26 19:49:36 37.841454000 -122.224520000 153.4

T 2017-11-26 19:49:37 37.841640000 -122.224655000 153.2

T 2017-11-26 19:49:38 37.841820000 -122.224780000 151.9

T 2017-11-26 19:49:39 37.842003000 -122.224900000 152.1

T 2017-11-26 19:49:40 37.842180000 -122.225030000 151.6

T 2017-11-26 19:49:41 37.842350000 -122.225150000 150.3

T 2017-11-26 19:49:42 37.842525000 -122.225266000 149.2

T 2017-11-26 19:49:43 37.842705000 -122.225395000 148.4

T 2017-11-26 19:49:45 37.843075000 -122.225670000 148.7

T 2017-11-26 19:49:46 37.843258000 -122.225800000 147.7

T 2017-11-26 19:49:47 37.843450000 -122.225945000 147.4

T 2017-11-26 19:49:48 37.843636000 -122.226080000 147.0

T 2017-11-26 19:49:49 37.843826000 -122.226240000 146.7

T 2017-11-26 19:49:50 37.844010000 -122.226395000 146.5

T 2017-11-26 19:49:51 37.844196000 -122.226560000 147.2

T 2017-11-26 19:49:52 37.844383000 -122.226715000 147.5

T 2017-11-26 19:49:53 37.844555000 -122.226870000 147.6

T 2017-11-26 19:49:54 37.844734000 -122.227010000 147.9

T 2017-11-26 19:49:56 37.845085000 -122.227240000 148.2

T 2017-11-26 19:49:57 37.845272000 -122.227340000 148.9

T 2017-11-26 19:49:58 37.845460000 -122.227420000 149.8

T 2017-11-26 19:49:59 37.845646000 -122.227486000 150.1
T 2017-11-26 19:50:00 37.845833000 -122.227540000 149.2

T 2017-11-26 19:50:01 37.846020000 -122.227570000 148.9

T 2017-11-26 19:50:02 37.846214000 -122.227585000 148.5

T 2017-11-26 19:50:03 37.846420000 -122.227590000 148.6

T 2017-11-26 19:50:04 37.846626000 -122.227585000 148.3

T 2017-11-26 19:50:05 37.846825000 -122.227580000 147.2

T 2017-11-26 19:50:06 37.847030000 -122.227570000 146.8

T 2017-11-26 19:50:08 37.847443000 -122.227560000 145.9

T 2017-11-26 19:50:09 37.847650000 -122.227615000 144.9

T 2017-11-26 19:50:10 37.847860000 -122.227670000 144.9

T 2017-11-26 19:50:11 37.848076000 -122.227730000 146.3

T 2017-11-26 19:50:12 37.848280000 -122.227806000 144.9

T 2017-11-26 19:50:13 37.848488000 -122.227905000 143.8

T 2017-11-26 19:50:14 37.848637000 -122.228060000 141.9

T 2017-11-26 19:50:15 37.848797000 -122.228210000 141.6

T 2017-11-26 19:50:16 37.848957000 -122.228370000 141.6

T 2017-11-26 19:50:17 37.849090000 -122.228550000 141.8

T 2017-11-26 19:50:18 37.849182000 -122.228760000 140.1

T 2017-11-26 19:50:19 37.849297000 -122.228990000 139.2

T 2017-11-26 19:50:21 37.849480000 -122.229460000 137.2

T 2017-11-26 19:50:22 37.849564000 -122.229710000 137.9

T 2017-11-26 19:50:23 37.849648000 -122.229960000 139.0

T 2017-11-26 19:50:24 37.849724000 -122.230194000 140.5

T 2017-11-26 19:50:25 37.849800000 -122.230415000 141.7

T 2017-11-26 19:50:26 37.849884000 -122.230650000 142.9

T 2017-11-26 19:50:27 37.849960000 -122.230890000 145.2

T 2017-11-26 19:50:28 37.850037000 -122.231110000 146.9

T 2017-11-26 19:50:30 37.850174000 -122.231544000 148.7

T 2017-11-26 19:50:31 37.850250000 -122.231760000 148.9
T 2017-11-26 19:50:32 37.850338000 -122.231926000 149.2

T 2017-11-26 19:50:33 37.850433000 -122.232086000 150.9

T 2017-11-26 19:50:34 37.850536000 -122.232230000 152.2

T 2017-11-26 19:50:35 37.850640000 -122.232350000 153.1

T 2017-11-26 19:50:36 37.850730000 -122.232450000 153.7

T 2017-11-26 19:50:37 37.850815000 -122.232530000 154.4

T 2017-11-26 19:50:38 37.850876000 -122.232580000 155.4

T 2017-11-26 19:50:40 37.850975000 -122.232660000 157.1

T 2017-11-26 19:50:41 37.851010000 -122.232680000 157.2

T 2017-11-26 19:50:43 37.851036000 -122.232704000 158.3

T 2017-11-26 19:51:11 37.851070000 -122.232735000 158.6

T 2017-11-26 19:51:12 37.851105000 -122.232760000 158.6

T 2017-11-26 19:51:13 37.851154000 -122.232790000 158.7

T 2017-11-26 19:51:14 37.851210000 -122.232820000 159.1

T 2017-11-26 19:51:15 37.851276000 -122.232870000 159.4

T 2017-11-26 19:51:16 37.851360000 -122.232925000 159.9

T 2017-11-26 19:51:17 37.851444000 -122.232980000 160.6

T 2017-11-26 19:51:19 37.851624000 -122.233090000 161.8

T 2017-11-26 19:51:20 37.851727000 -122.233160000 161.8

T 2017-11-26 19:51:21 37.851837000 -122.233240000 161.6

T 2017-11-26 19:51:22 37.851955000 -122.233330000 161.0

T 2017-11-26 19:51:23 37.852066000 -122.233430000 160.6

T 2017-11-26 19:51:24 37.852184000 -122.233536000 159.0

T 2017-11-26 19:51:25 37.852287000 -122.233665000 159.1

T 2017-11-26 19:51:26 37.852383000 -122.233800000 158.9

T 2017-11-26 19:51:27 37.852450000 -122.233955000 157.7

T 2017-11-26 19:51:28 37.852512000 -122.234120000 157.1

T 2017-11-26 19:51:30 37.852610000 -122.234460000 155.2

T 2017-11-26 19:51:31 37.852650000 -122.234620000 154.0

T 2017-11-26 19:51:32 37.852715000 -122.234800000 153.3
T 2017-11-26 19:51:33 37.852787000 -122.234950000 152.0

T 2017-11-26 19:51:34 37.852890000 -122.235090000 150.8

T 2017-11-26 19:51:35 37.852997000 -122.235240000 153.6

T 2017-11-26 19:51:36 37.853092000 -122.235370000 151.8

T 2017-11-26 19:51:37 37.853190000 -122.235500000 150.2

T 2017-11-26 19:51:38 37.853294000 -122.235630000 149.2

T 2017-11-26 19:51:40 37.853510000 -122.235860000 149.9

T 2017-11-26 19:51:41 37.853615000 -122.235930000 150.3

T 2017-11-26 19:51:42 37.853725000 -122.236000000 149.7

T 2017-11-26 19:51:43 37.853832000 -122.236084000 148.9

T 2017-11-26 19:51:44 37.853943000 -122.236150000 148.7

T 2017-11-26 19:51:45 37.854042000 -122.236240000 147.0

T 2017-11-26 19:51:46 37.854130000 -122.236340000 146.2

T 2017-11-26 19:51:48 37.854294000 -122.236580000 145.2

T 2017-11-26 19:51:49 37.854390000 -122.236680000 144.8

T 2017-11-26 19:51:50 37.854492000 -122.236770000 144.1

T 2017-11-26 19:51:51 37.854588000 -122.236890000 144.4

T 2017-11-26 19:51:52 37.854687000 -122.237015000 145.0

T 2017-11-26 19:51:53 37.854780000 -122.237150000 145.3

T 2017-11-26 19:51:54 37.854860000 -122.237300000 145.0

T 2017-11-26 19:51:55 37.854916000 -122.237420000 143.1

T 2017-11-26 19:51:56 37.854977000 -122.237550000 146.7

T 2017-11-26 19:51:57 37.855040000 -122.237690000 144.7

T 2017-11-26 19:51:59 37.855140000 -122.237990000 142.1

T 2017-11-26 19:52:00 37.855180000 -122.238160000 141.7

T 2017-11-26 19:52:01 37.855236000 -122.238320000 142.3

T 2017-11-26 19:52:02 37.855286000 -122.238490000 141.2

T 2017-11-26 19:52:03 37.855328000 -122.238660000 140.8

T 2017-11-26 19:52:04 37.855366000 -122.238815000 138.4
T 2017-11-26 19:52:05 37.855404000 -122.238976000 137.7

T 2017-11-26 19:52:06 37.855434000 -122.239110000 136.3

T 2017-11-26 19:52:07 37.855476000 -122.239290000 136.3

T 2017-11-26 19:52:09 37.855560000 -122.239580000 135.2

T 2017-11-26 19:52:10 37.855630000 -122.239710000 134.4

T 2017-11-26 19:52:11 37.855700000 -122.239840000 133.4

T 2017-11-26 19:52:12 37.855770000 -122.239990000 132.0

T 2017-11-26 19:52:13 37.855850000 -122.240120000 130.6

T 2017-11-26 19:52:14 37.855934000 -122.240260000 130.5

T 2017-11-26 19:52:15 37.856040000 -122.240390000 130.8

T 2017-11-26 19:52:16 37.856155000 -122.240500000 130.2

T 2017-11-26 19:52:17 37.856277000 -122.240620000 130.4

T 2017-11-26 19:52:18 37.856388000 -122.240750000 130.2

T 2017-11-26 19:52:19 37.856490000 -122.240875000 130.2

T 2017-11-26 19:52:21 37.856670000 -122.241150000 127.4

T 2017-11-26 19:52:22 37.856735000 -122.241295000 124.6

T 2017-11-26 19:52:23 37.856804000 -122.241425000 123.1

T 2017-11-26 19:52:24 37.856873000 -122.241520000 123.0

T 2017-11-26 19:52:25 37.856968000 -122.241615000 122.7

T 2017-11-26 19:52:26 37.857060000 -122.241670000 121.3

T 2017-11-26 19:52:27 37.857147000 -122.241710000 118.6

T 2017-11-26 19:52:28 37.857250000 -122.241760000 119.2

T 2017-11-26 19:52:29 37.857340000 -122.241820000 124.5

T 2017-11-26 19:52:30 37.857426000 -122.241905000 122.0

T 2017-11-26 19:52:31 37.857506000 -122.242004000 120.6

T 2017-11-26 19:52:32 37.857555000 -122.242120000 120.7

T 2017-11-26 19:52:33 37.857594000 -122.242250000 119.0

T 2017-11-26 19:52:35 37.857655000 -122.242516000 113.8

T 2017-11-26 19:52:36 37.857693000 -122.242650000 111.7

T 2017-11-26 19:52:37 37.857740000 -122.242780000 109.0
T 2017-11-26 19:52:38 37.857800000 -122.242920000 108.2

T 2017-11-26 19:52:39 37.857860000 -122.243040000 106.6

T 2017-11-26 19:52:40 37.857925000 -122.243180000 106.1

T 2017-11-26 19:52:41 37.857970000 -122.243300000 104.8

T 2017-11-26 19:52:42 37.857998000 -122.243420000 104.5

T 2017-11-26 19:52:43 37.858020000 -122.243540000 103.2

T 2017-11-26 19:52:44 37.858032000 -122.243660000 102.1

T 2017-11-26 19:52:45 37.858060000 -122.243770000 101.4

T 2017-11-26 19:52:46 37.858074000 -122.243860000 100.7

T 2017-11-26 19:52:47 37.858093000 -122.243950000 101.3

T 2017-11-26 19:52:48 37.858105000 -122.244030000 100.7

T 2017-11-26 19:52:50 37.858110000 -122.244200000 99.5

T 2017-11-26 19:52:51 37.858110000 -122.244286000 99.8

T 2017-11-26 19:52:52 37.858112000 -122.244370000 99.8

T 2017-11-26 19:52:53 37.858116000 -122.244450000 100.6

T 2017-11-26 19:52:54 37.858124000 -122.244540000 100.9

T 2017-11-26 19:52:55 37.858120000 -122.244620000 100.6

T 2017-11-26 19:52:56 37.858110000 -122.244705000 99.8

T 2017-11-26 19:52:57 37.858100000 -122.244774000 100.1

T 2017-11-26 19:52:58 37.858097000 -122.244850000 99.5

T 2017-11-26 19:52:59 37.858086000 -122.244930000 99.6

T 2017-11-26 19:53:01 37.858074000 -122.245050000 110.5

T 2017-11-26 19:53:03 37.858080000 -122.245090000 103.2

T 2017-11-26 19:53:12 37.858097000 -122.245125000 101.3

T 2017-11-26 19:53:14 37.858105000 -122.245170000 100.9

T 2017-11-26 19:53:16 37.858128000 -122.245210000 100.7

T 2017-11-26 19:53:18 37.858162000 -122.245224000 101.8

T 2017-11-26 19:53:20 37.858215000 -122.245200000 101.4

T 2017-11-26 19:53:21 37.858257000 -122.245170000 99.2
T 2017-11-26 19:53:22 37.858295000 -122.245140000 99.2

T 2017-11-26 19:53:24 37.858370000 -122.245080000 97.7

T 2017-11-26 19:53:25 37.858418000 -122.245056000 99.0

T 2017-11-26 19:53:26 37.858486000 -122.245040000 99.4

T 2017-11-26 19:53:27 37.858540000 -122.245060000 99.5

T 2017-11-26 19:53:28 37.858597000 -122.245094000 100.2

T 2017-11-26 19:53:29 37.858658000 -122.245140000 100.5

T 2017-11-26 19:53:30 37.858720000 -122.245180000 100.9

T 2017-11-26 19:53:31 37.858784000 -122.245224000 101.4

T 2017-11-26 19:53:32 37.858840000 -122.245260000 102.0

T 2017-11-26 19:53:34 37.858960000 -122.245310000 103.5

T 2017-11-26 19:53:35 37.859030000 -122.245320000 103.3

T 2017-11-26 19:53:36 37.859110000 -122.245340000 103.0

T 2017-11-26 19:53:37 37.859203000 -122.245346000 103.0

T 2017-11-26 19:53:38 37.859290000 -122.245360000 103.2

T 2017-11-26 19:53:39 37.859406000 -122.245380000 104.4

T 2017-11-26 19:53:40 37.859505000 -122.245384000 105.5

T 2017-11-26 19:53:41 37.859610000 -122.245390000 106.0

T 2017-11-26 19:53:42 37.859715000 -122.245400000 106.3

T 2017-11-26 19:53:43 37.859818000 -122.245410000 107.1

T 2017-11-26 19:53:45 37.860027000 -122.245430000 106.6

T 2017-11-26 19:53:47 37.860256000 -122.245445000 107.3

T 2017-11-26 19:53:48 37.860363000 -122.245460000 107.2

T 2017-11-26 19:53:49 37.860462000 -122.245500000 107.7

T 2017-11-26 19:53:50 37.860550000 -122.245544000 107.3

T 2017-11-26 19:53:51 37.860638000 -122.245620000 106.9

T 2017-11-26 19:53:52 37.860718000 -122.245680000 107.0

T 2017-11-26 19:53:54 37.860900000 -122.245790000 107.6

T 2017-11-26 19:53:55 37.860996000 -122.245810000 107.2

T 2017-11-26 19:53:56 37.861100000 -122.245830000 107.0
T 2017-11-26 19:53:57 37.861217000 -122.245850000 107.8

T 2017-11-26 19:53:58 37.861336000 -122.245865000 107.9

T 2017-11-26 19:53:59 37.861450000 -122.245865000 108.1

T 2017-11-26 19:54:00 37.861572000 -122.245870000 108.6

T 2017-11-26 19:54:01 37.861700000 -122.245880000 108.9

T 2017-11-26 19:54:02 37.861820000 -122.245895000 108.9

T 2017-11-26 19:54:04 37.862060000 -122.245920000 109.4

T 2017-11-26 19:54:05 37.862180000 -122.245926000 109.8

T 2017-11-26 19:54:06 37.862293000 -122.245940000 110.1

T 2017-11-26 19:54:07 37.862390000 -122.245950000 109.2

T 2017-11-26 19:54:08 37.862453000 -122.245950000 108.4

T 2017-11-26 19:54:09 37.862520000 -122.245970000 109.5

T 2017-11-26 19:54:10 37.862556000 -122.246020000 109.6

T 2017-11-26 19:54:11 37.862568000 -122.246080000 110.5

T 2017-11-26 19:54:12 37.862576000 -122.246155000 110.4

T 2017-11-26 19:54:13 37.862556000 -122.246250000 110.6

T 2017-11-26 19:54:14 37.862553000 -122.246340000 110.9

T 2017-11-26 19:54:15 37.862550000 -122.246430000 111.2

T 2017-11-26 19:54:17 37.862540000 -122.246600000 109.5

T 2017-11-26 19:54:18 37.862540000 -122.246660000 109.3

T 2017-11-26 19:54:22 37.862540000 -122.246704000 110.5

T 2017-11-26 19:54:29 37.862530000 -122.246760000 112.5

T 2017-11-26 19:54:31 37.862526000 -122.246830000 112.9

T 2017-11-26 19:54:32 37.862526000 -122.246880000 112.9

T 2017-11-26 19:54:33 37.862522000 -122.246950000 112.6

T 2017-11-26 19:54:34 37.862522000 -122.247025000 112.2

T 2017-11-26 19:54:36 37.862520000 -122.247215000 111.0

T 2017-11-26 19:54:37 37.862503000 -122.247290000 109.0

T 2017-11-26 19:54:38 37.862500000 -122.247400000 109.0
T 2017-11-26 19:54:39 37.862490000 -122.247505000 108.6

T 2017-11-26 19:54:40 37.862488000 -122.247620000 108.2

T 2017-11-26 19:54:41 37.862484000 -122.247750000 107.1

T 2017-11-26 19:54:42 37.862484000 -122.247856000 104.6

T 2017-11-26 19:54:43 37.862480000 -122.247980000 104.3

T 2017-11-26 19:54:44 37.862473000 -122.248110000 104.5

T 2017-11-26 19:54:45 37.862465000 -122.248240000 104.3

T 2017-11-26 19:54:46 37.862457000 -122.248370000 104.2

T 2017-11-26 19:54:47 37.862450000 -122.248505000 103.1

T 2017-11-26 19:54:48 37.862442000 -122.248634000 102.5

T 2017-11-26 19:54:50 37.862404000 -122.248910000 102.8

T 2017-11-26 19:54:51 37.862396000 -122.249054000 102.7

T 2017-11-26 19:54:52 37.862392000 -122.249180000 101.8

T 2017-11-26 19:54:53 37.862392000 -122.249310000 101.5

T 2017-11-26 19:54:54 37.862390000 -122.249390000 97.6

T 2017-11-26 19:54:55 37.862380000 -122.249504000 97.3

T 2017-11-26 19:54:56 37.862377000 -122.249620000 97.0

T 2017-11-26 19:54:57 37.862373000 -122.249690000 97.5

T 2017-11-26 19:54:58 37.862366000 -122.249770000 97.5

T 2017-11-26 19:55:00 37.862366000 -122.249840000 93.5

T 2017-11-26 19:55:01 37.862373000 -122.249890000 94.2

T 2017-11-26 19:55:03 37.862400000 -122.249960000 92.1

T 2017-11-26 19:55:05 37.862442000 -122.250040000 92.1

T 2017-11-26 19:55:07 37.862526000 -122.250100000 92.8

T 2017-11-26 19:55:08 37.862595000 -122.250114000 93.9

T 2017-11-26 19:55:09 37.862660000 -122.250140000 94.0

T 2017-11-26 19:55:10 37.862732000 -122.250145000 93.9

T 2017-11-26 19:55:11 37.862820000 -122.250160000 95.1

T 2017-11-26 19:55:12 37.862900000 -122.250175000 96.7

T 2017-11-26 19:55:13 37.862980000 -122.250170000 96.6
T 2017-11-26 19:55:14 37.863070000 -122.250180000 97.4

T 2017-11-26 19:55:16 37.863266000 -122.250206000 97.0

T 2017-11-26 19:55:17 37.863360000 -122.250210000 96.5

T 2017-11-26 19:55:18 37.863457000 -122.250220000 97.4

T 2017-11-26 19:55:19 37.863550000 -122.250240000 98.0

T 2017-11-26 19:55:20 37.863632000 -122.250240000 98.8

T 2017-11-26 19:55:21 37.863700000 -122.250244000 99.0

T 2017-11-26 19:55:23 37.863820000 -122.250260000 99.1

T 2017-11-26 19:55:24 37.863860000 -122.250260000 98.8

T 2017-11-26 19:55:25 37.863890000 -122.250260000 98.4

T 2017-11-26 19:55:28 37.864000000 -122.250260000 98.4

T 2017-11-26 19:55:29 37.864060000 -122.250260000 98.7

T 2017-11-26 19:55:30 37.864132000 -122.250270000 98.7

T 2017-11-26 19:55:31 37.864216000 -122.250275000 98.4

T 2017-11-26 19:55:32 37.864304000 -122.250280000 99.1

T 2017-11-26 19:55:33 37.864400000 -122.250305000 100.4

T 2017-11-26 19:55:34 37.864502000 -122.250310000 99.9

T 2017-11-26 19:55:36 37.864716000 -122.250336000 100.6

T 2017-11-26 19:55:37 37.864820000 -122.250340000 101.2

T 2017-11-26 19:55:38 37.864930000 -122.250360000 101.3

T 2017-11-26 19:55:39 37.865036000 -122.250370000 101.0

T 2017-11-26 19:55:40 37.865154000 -122.250374000 101.4

T 2017-11-26 19:55:41 37.865265000 -122.250380000 101.5

T 2017-11-26 19:55:42 37.865370000 -122.250400000 102.0

T 2017-11-26 19:55:43 37.865467000 -122.250435000 102.8

T 2017-11-26 19:55:44 37.865566000 -122.250460000 103.3

T 2017-11-26 19:55:45 37.865604000 -122.250540000 102.7

T 2017-11-26 19:55:46 37.865654000 -122.250600000 103.2

T 2017-11-26 19:55:48 37.865715000 -122.250700000 103.2
T 2017-11-26 19:55:49 37.865730000 -122.250730000 103.1

T 2017-11-26 19:55:51 37.865746000 -122.250770000 103.5

T 2017-11-26 19:55:56 37.865757000 -122.250810000 102.7

T 2017-11-26 19:56:18 37.865765000 -122.250854000 103.0

T 2017-11-26 19:56:19 37.865780000 -122.250885000 102.7

T 2017-11-26 19:56:21 37.865818000 -122.250970000 102.5

T 2017-11-26 19:56:23 37.865890000 -122.251120000 100.9

T 2017-11-26 19:56:24 37.865925000 -122.251200000 100.9

T 2017-11-26 19:56:25 37.865960000 -122.251270000 100.5

T 2017-11-26 19:56:26 37.866010000 -122.251340000 100.8

T 2017-11-26 19:56:27 37.866055000 -122.251396000 100.2

T 2017-11-26 19:56:28 37.866127000 -122.251460000 99.1

T 2017-11-26 19:56:29 37.866210000 -122.251520000 99.4

T 2017-11-26 19:56:30 37.866290000 -122.251570000 101.5

T 2017-11-26 19:56:31 37.866380000 -122.251600000 100.8

T 2017-11-26 19:56:32 37.866474000 -122.251650000 99.8

T 2017-11-26 19:56:33 37.866570000 -122.251660000 99.6

T 2017-11-26 19:56:35 37.866764000 -122.251720000 98.5

T 2017-11-26 19:56:36 37.866867000 -122.251724000 99.1

T 2017-11-26 19:56:37 37.866980000 -122.251724000 99.5

T 2017-11-26 19:56:38 37.867080000 -122.251730000 100.5

T 2017-11-26 19:56:39 37.867172000 -122.251730000 100.1

T 2017-11-26 19:56:40 37.867264000 -122.251750000 100.9

T 2017-11-26 19:56:41 37.867348000 -122.251740000 101.1

T 2017-11-26 19:56:42 37.867430000 -122.251740000 101.4

T 2017-11-26 19:56:43 37.867510000 -122.251740000 101.7

T 2017-11-26 19:56:44 37.867577000 -122.251730000 101.6

T 2017-11-26 19:56:46 37.867718000 -122.251724000 101.7

T 2017-11-26 19:56:47 37.867786000 -122.251724000 102.0

T 2017-11-26 19:56:48 37.867867000 -122.251760000 104.1
T 2017-11-26 19:56:49 37.867928000 -122.251800000 103.0

T 2017-11-26 19:56:50 37.867996000 -122.251854000 102.7

T 2017-11-26 19:56:51 37.868073000 -122.251900000 102.2

T 2017-11-26 19:56:52 37.868156000 -122.251950000 102.1

T 2017-11-26 19:56:53 37.868248000 -122.252000000 102.1

T 2017-11-26 19:56:54 37.868330000 -122.252030000 102.8

T 2017-11-26 19:56:55 37.868410000 -122.252070000 104.0

T 2017-11-26 19:56:56 37.868473000 -122.252080000 104.3

T 2017-11-26 19:56:57 37.868520000 -122.252090000 103.3

T 2017-11-26 19:56:59 37.868576000 -122.252106000 103.4

T 2017-11-26 19:57:01 37.868630000 -122.252120000 102.8

T 2017-11-26 19:57:03 37.868675000 -122.252130000 103.3

T 2017-11-26 19:57:04 37.868713000 -122.252144000 103.7

T 2017-11-26 19:57:05 37.868770000 -122.252150000 104.0

T 2017-11-26 19:57:06 37.868847000 -122.252160000 104.9

T 2017-11-26 19:57:07 37.868923000 -122.252170000 105.5

T 2017-11-26 19:57:08 37.869000000 -122.252170000 105.5

T 2017-11-26 19:57:09 37.869076000 -122.252170000 106.0

T 2017-11-26 19:57:10 37.869150000 -122.252170000 106.2

T 2017-11-26 19:57:11 37.869217000 -122.252170000 106.6

T 2017-11-26 19:57:12 37.869278000 -122.252170000 105.6

T 2017-11-26 19:57:14 37.869392000 -122.252170000 106.2

T 2017-11-26 19:57:17 37.869473000 -122.252174000 106.2

T 2017-11-26 19:57:19 37.869534000 -122.252190000 107.3

T 2017-11-26 19:57:22 37.869610000 -122.252205000 107.6

T 2017-11-26 19:57:23 37.869663000 -122.252210000 107.4

T 2017-11-26 19:57:24 37.869740000 -122.252220000 107.6

T 2017-11-26 19:57:25 37.869810000 -122.252230000 106.9

T 2017-11-26 19:57:26 37.869873000 -122.252250000 108.1
T 2017-11-26 19:57:27 37.869957000 -122.252280000 109.6

T 2017-11-26 19:57:29 37.870144000 -122.252330000 109.3

T 2017-11-26 19:57:30 37.870235000 -122.252350000 108.6

T 2017-11-26 19:57:31 37.870335000 -122.252390000 108.6

T 2017-11-26 19:57:32 37.870390000 -122.252430000 108.3

T 2017-11-26 19:57:33 37.870490000 -122.252470000 108.0

T 2017-11-26 19:57:35 37.870686000 -122.252580000 109.4

T 2017-11-26 19:57:36 37.870754000 -122.252620000 110.0

T 2017-11-26 19:57:37 37.870834000 -122.252640000 110.1

T 2017-11-26 19:57:38 37.870964000 -122.252650000 111.6

T 2017-11-26 19:57:39 37.871060000 -122.252655000 111.6

T 2017-11-26 19:57:40 37.871143000 -122.252650000 112.7

T 2017-11-26 19:57:41 37.871216000 -122.252655000 112.7

T 2017-11-26 19:57:42 37.871254000 -122.252650000 113.7

T 2017-11-26 19:57:43 37.871292000 -122.252650000 113.5

T 2017-11-26 19:57:45 37.871353000 -122.252650000 112.6

T 2017-11-26 19:57:46 37.871395000 -122.252655000 112.4

T 2017-11-26 19:57:48 37.871452000 -122.252660000 112.9

T 2017-11-26 19:57:49 37.871494000 -122.252670000 113.5

T 2017-11-26 19:57:50 37.871532000 -122.252680000 112.4

T 2017-11-26 19:57:51 37.871590000 -122.252700000 113.1

T 2017-11-26 19:57:52 37.871635000 -122.252730000 113.5

T 2017-11-26 19:57:53 37.871693000 -122.252760000 112.7

T 2017-11-26 19:57:54 37.871758000 -122.252800000 112.1

T 2017-11-26 19:57:55 37.871826000 -122.252840000 111.8

T 2017-11-26 19:57:56 37.871887000 -122.252890000 111.3

T 2017-11-26 19:57:57 37.871930000 -122.252945000 110.1

T 2017-11-26 19:57:58 37.871986000 -122.253000000 110.5

T 2017-11-26 19:57:59 37.872050000 -122.253070000 110.5

T 2017-11-26 19:58:01 37.872158000 -122.253180000 108.4
T 2017-11-26 19:58:02 37.872204000 -122.253250000 109.6

T 2017-11-26 19:58:03 37.872250000 -122.253310000 110.1

T 2017-11-26 19:58:04 37.872288000 -122.253350000 109.9

T 2017-11-26 19:58:05 37.872322000 -122.253390000 109.8

T 2017-11-26 19:58:06 37.872356000 -122.253426000 110.4

T 2017-11-26 19:58:07 37.872383000 -122.253456000 110.6

T 2017-11-26 19:58:08 37.872417000 -122.253490000 110.9

T 2017-11-26 19:58:09 37.872448000 -122.253525000 111.0

T 2017-11-26 19:58:11 37.872490000 -122.253580000 111.7

T 2017-11-26 19:58:13 37.872536000 -122.253640000 113.2

T 2017-11-26 19:58:14 37.872574000 -122.253685000 114.0

T 2017-11-26 19:58:15 37.872604000 -122.253716000 113.3

T 2017-11-26 19:58:16 37.872640000 -122.253780000 114.6

T 2017-11-26 19:58:17 37.872670000 -122.253845000 114.1

T 2017-11-26 19:58:18 37.872696000 -122.253910000 113.0

T 2017-11-26 19:58:19 37.872730000 -122.253970000 113.8

T 2017-11-26 19:58:20 37.872772000 -122.254070000 113.5

T 2017-11-26 19:58:21 37.872780000 -122.254135000 114.4

T 2017-11-26 19:58:22 37.872818000 -122.254230000 115.0

T 2017-11-26 19:58:23 37.872864000 -122.254320000 114.7

T 2017-11-26 19:58:25 37.872967000 -122.254510000 113.9

T 2017-11-26 19:58:26 37.873030000 -122.254570000 112.8

T 2017-11-26 19:58:27 37.873104000 -122.254654000 112.7

T 2017-11-26 19:58:28 37.873184000 -122.254730000 112.7

T 2017-11-26 19:58:29 37.873260000 -122.254810000 112.7

T 2017-11-26 19:58:30 37.873344000 -122.254900000 113.1

T 2017-11-26 19:58:31 37.873425000 -122.254980000 113.6

T 2017-11-26 19:58:32 37.873516000 -122.255066000 113.9

T 2017-11-26 19:58:33 37.873620000 -122.255160000 114.9
T 2017-11-26 19:58:34 37.873707000 -122.255230000 114.6

T 2017-11-26 19:58:35 37.873800000 -122.255300000 113.0

T 2017-11-26 19:58:37 37.874000000 -122.255480000 113.2

T 2017-11-26 19:58:38 37.874123000 -122.255560000 112.0

T 2017-11-26 19:58:39 37.874220000 -122.255646000 112.8

T 2017-11-26 19:58:40 37.874317000 -122.255730000 113.2

T 2017-11-26 19:58:41 37.874416000 -122.255810000 113.5

T 2017-11-26 19:58:42 37.874520000 -122.255890000 114.4

T 2017-11-26 19:58:43 37.874620000 -122.255970000 114.7

T 2017-11-26 19:58:44 37.874714000 -122.256065000 114.3

T 2017-11-26 19:58:45 37.874800000 -122.256160000 114.8

T 2017-11-26 19:58:47 37.874958000 -122.256355000 114.8

T 2017-11-26 19:58:48 37.875027000 -122.256450000 115.1

T 2017-11-26 19:58:49 37.875100000 -122.256520000 115.5

T 2017-11-26 19:58:50 37.875168000 -122.256590000 114.9

T 2017-11-26 19:58:51 37.875248000 -122.256610000 114.4

T 2017-11-26 19:58:52 37.875305000 -122.256650000 114.9

T 2017-11-26 19:58:53 37.875366000 -122.256710000 116.2

T 2017-11-26 19:58:54 37.875420000 -122.256740000 115.8

T 2017-11-26 19:58:55 37.875458000 -122.256770000 115.2

T 2017-11-26 19:58:56 37.875492000 -122.256805000 115.7

T 2017-11-26 19:58:57 37.875507000 -122.256860000 114.9

T 2017-11-26 19:58:59 37.875520000 -122.256990000 114.3

T 2017-11-26 19:59:00 37.875510000 -122.257070000 113.6

T 2017-11-26 19:59:01 37.875500000 -122.257160000 112.3

T 2017-11-26 19:59:02 37.875470000 -122.257260000 111.7

T 2017-11-26 19:59:03 37.875450000 -122.257360000 110.8

T 2017-11-26 19:59:04 37.875435000 -122.257480000 110.5

T 2017-11-26 19:59:05 37.875430000 -122.257610000 111.8

T 2017-11-26 19:59:06 37.875423000 -122.257730000 111.5
T 2017-11-26 19:59:07 37.875404000 -122.257840000 112.1

T 2017-11-26 19:59:08 37.875393000 -122.257960000 112.2

T 2017-11-26 19:59:09 37.875390000 -122.258070000 112.7

T 2017-11-26 19:59:10 37.875360000 -122.258160000 113.0

T 2017-11-26 19:59:12 37.875330000 -122.258316000 109.7

T 2017-11-26 19:59:13 37.875320000 -122.258400000 109.2

T 2017-11-26 19:59:14 37.875310000 -122.258484000 108.9

T 2017-11-26 19:59:15 37.875300000 -122.258580000 109.2

T 2017-11-26 19:59:16 37.875294000 -122.258690000 108.9

T 2017-11-26 19:59:17 37.875270000 -122.258790000 109.0

T 2017-11-26 19:59:18 37.875263000 -122.258910000 108.8

T 2017-11-26 19:59:19 37.875256000 -122.259026000 108.4

T 2017-11-26 19:59:21 37.875237000 -122.259240000 105.5

T 2017-11-26 19:59:22 37.875220000 -122.259350000 104.6

T 2017-11-26 19:59:23 37.875214000 -122.259470000 103.8

T 2017-11-26 19:59:24 37.875200000 -122.259580000 103.2

T 2017-11-26 19:59:25 37.875187000 -122.259690000 103.1

T 2017-11-26 19:59:26 37.875170000 -122.259780000 103.0

T 2017-11-26 19:59:27 37.875160000 -122.259850000 102.7

T 2017-11-26 19:59:29 37.875137000 -122.259970000 101.8

T 2017-11-26 19:59:32 37.875137000 -122.260010000 100.3

T 2017-11-26 19:59:34 37.875137000 -122.259980000 96.4

T 2017-11-26 19:59:44 37.875110000 -122.260025000 96.6

T 2017-11-26 19:59:46 37.875103000 -122.260120000 95.7

T 2017-11-26 19:59:47 37.875090000 -122.260180000 95.3

T 2017-11-26 19:59:48 37.875080000 -122.260254000 94.9

T 2017-11-26 19:59:49 37.875072000 -122.260320000 89.7

T 2017-11-26 19:59:50 37.875057000 -122.260414000 88.9

T 2017-11-26 19:59:51 37.875040000 -122.260530000 88.6
T 2017-11-26 19:59:52 37.875027000 -122.260650000 87.7

T 2017-11-26 19:59:54 37.875004000 -122.260890000 88.3

T 2017-11-26 19:59:55 37.875000000 -122.260994000 88.5

T 2017-11-26 19:59:56 37.874980000 -122.261100000 86.8

T 2017-11-26 19:59:57 37.874958000 -122.261220000 87.1

T 2017-11-26 19:59:58 37.874943000 -122.261340000 87.2

T 2017-11-26 19:59:59 37.874940000 -122.261450000 87.8

T 2017-11-26 20:00:00 37.874930000 -122.261566000 86.7

T 2017-11-26 20:00:01 37.874912000 -122.261670000 85.8

T 2017-11-26 20:00:02 37.874897000 -122.261790000 86.2

T 2017-11-26 20:00:03 37.874880000 -122.261900000 86.4

T 2017-11-26 20:00:04 37.874866000 -122.262010000 87.0

T 2017-11-26 20:00:06 37.874847000 -122.262220000 87.4

T 2017-11-26 20:00:07 37.874832000 -122.262330000 87.1

T 2017-11-26 20:00:08 37.874820000 -122.262436000 87.1

T 2017-11-26 20:00:09 37.874800000 -122.262540000 86.7

T 2017-11-26 20:00:10 37.874786000 -122.262665000 85.8

T 2017-11-26 20:00:11 37.874770000 -122.262780000 84.9

T 2017-11-26 20:00:12 37.874760000 -122.262886000 84.1

T 2017-11-26 20:00:13 37.874750000 -122.263000000 84.0

T 2017-11-26 20:00:14 37.874737000 -122.263110000 82.7

T 2017-11-26 20:00:16 37.874725000 -122.263290000 81.5

T 2017-11-26 20:00:17 37.874714000 -122.263370000 80.9

T 2017-11-26 20:00:18 37.874702000 -122.263435000 80.8

T 2017-11-26 20:00:19 37.874695000 -122.263510000 80.7

T 2017-11-26 20:00:20 37.874680000 -122.263570000 80.2

T 2017-11-26 20:00:22 37.874676000 -122.263640000 79.7

T 2017-11-26 20:00:33 37.874680000 -122.263670000 82.7

T 2017-11-26 20:01:22 37.874680000 -122.263750000 82.6

T 2017-11-26 20:01:23 37.874672000 -122.263794000 82.1
T 2017-11-26 20:01:25 37.874638000 -122.263930000 80.2

T 2017-11-26 20:01:26 37.874615000 -122.264020000 80.3

T 2017-11-26 20:01:27 37.874596000 -122.264120000 79.0

T 2017-11-26 20:01:28 37.874565000 -122.264220000 78.5

T 2017-11-26 20:01:29 37.874523000 -122.264320000 77.3

T 2017-11-26 20:01:30 37.874490000 -122.264435000 77.2

T 2017-11-26 20:01:31 37.874450000 -122.264534000 77.1

T 2017-11-26 20:01:32 37.874424000 -122.264630000 75.8

T 2017-11-26 20:01:34 37.874382000 -122.264840000 73.5

T 2017-11-26 20:01:35 37.874367000 -122.264940000 73.8

T 2017-11-26 20:01:36 37.874355000 -122.265040000 73.2

T 2017-11-26 20:01:37 37.874340000 -122.265120000 72.1

T 2017-11-26 20:01:38 37.874320000 -122.265210000 71.8

T 2017-11-26 20:01:39 37.874306000 -122.265300000 71.6

T 2017-11-26 20:01:40 37.874294000 -122.265370000 71.2

T 2017-11-26 20:01:41 37.874287000 -122.265465000 72.5

T 2017-11-26 20:01:42 37.874290000 -122.265530000 72.8

T 2017-11-26 20:01:43 37.874283000 -122.265610000 72.2

T 2017-11-26 20:01:44 37.874275000 -122.265680000 72.1

T 2017-11-26 20:01:45 37.874268000 -122.265750000 72.0

T 2017-11-26 20:01:47 37.874256000 -122.265860000 72.6

T 2017-11-26 20:01:48 37.874252000 -122.265915000 72.5

T 2017-11-26 20:01:49 37.874245000 -122.265970000 71.3

T 2017-11-26 20:01:50 37.874240000 -122.266020000 70.3

T 2017-11-26 20:01:51 37.874233000 -122.266075000 69.5

T 2017-11-26 20:01:52 37.874220000 -122.266110000 68.9

T 2017-11-26 20:01:53 37.874218000 -122.266170000 69.3

T 2017-11-26 20:01:54 37.874210000 -122.266230000 69.5

T 2017-11-26 20:01:55 37.874203000 -122.266290000 68.5
T 2017-11-26 20:01:56 37.874190000 -122.266365000 68.3

T 2017-11-26 20:01:57 37.874184000 -122.266450000 67.7

T 2017-11-26 20:01:59 37.874160000 -122.266630000 64.7

T 2017-11-26 20:02:00 37.874146000 -122.266740000 64.3

T 2017-11-26 20:02:02 37.874107000 -122.266970000 64.8

T 2017-11-26 20:02:03 37.874092000 -122.267075000 63.9

T 2017-11-26 20:02:04 37.874070000 -122.267170000 63.7

T 2017-11-26 20:02:05 37.874050000 -122.267280000 63.6

T 2017-11-26 20:02:06 37.874040000 -122.267390000 63.6

T 2017-11-26 20:02:07 37.874016000 -122.267494000 62.6

T 2017-11-26 20:02:08 37.874004000 -122.267590000 62.7

T 2017-11-26 20:02:09 37.873974000 -122.267690000 60.8

T 2017-11-26 20:02:10 37.873962000 -122.267800000 60.7

T 2017-11-26 20:02:12 37.873936000 -122.268000000 60.4

T 2017-11-26 20:02:13 37.873920000 -122.268100000 60.2

T 2017-11-26 20:02:14 37.873905000 -122.268196000 60.1

T 2017-11-26 20:02:15 37.873898000 -122.268295000 60.1

T 2017-11-26 20:02:16 37.873886000 -122.268390000 59.8

T 2017-11-26 20:02:17 37.873890000 -122.268486000 59.7

T 2017-11-26 20:02:18 37.873886000 -122.268600000 60.0

T 2017-11-26 20:02:19 37.873867000 -122.268700000 59.0

T 2017-11-26 20:02:20 37.873850000 -122.268800000 58.5

T 2017-11-26 20:02:21 37.873840000 -122.268906000 59.0

T 2017-11-26 20:02:22 37.873833000 -122.269010000 59.3

T 2017-11-26 20:02:23 37.873825000 -122.269120000 59.0

T 2017-11-26 20:02:25 37.873800000 -122.269356000 58.8

T 2017-11-26 20:02:26 37.873783000 -122.269480000 58.7

T 2017-11-26 20:02:27 37.873768000 -122.269590000 58.5

T 2017-11-26 20:02:28 37.873756000 -122.269710000 58.5

T 2017-11-26 20:02:29 37.873745000 -122.269810000 58.6
T 2017-11-26 20:02:30 37.873734000 -122.269920000 58.2

T 2017-11-26 20:02:31 37.873722000 -122.270030000 58.3

T 2017-11-26 20:02:32 37.873710000 -122.270134000 57.8

T 2017-11-26 20:02:33 37.873700000 -122.270230000 57.5

T 2017-11-26 20:02:35 37.873676000 -122.270424000 57.1

T 2017-11-26 20:02:36 37.873665000 -122.270515000 57.2

T 2017-11-26 20:02:37 37.873657000 -122.270584000 57.6

T 2017-11-26 20:02:38 37.873650000 -122.270650000 57.4

T 2017-11-26 20:02:39 37.873646000 -122.270700000 57.3

T 2017-11-26 20:02:41 37.873642000 -122.270750000 57.7

T 2017-11-26 20:02:47 37.873634000 -122.270820000 58.2

T 2017-11-26 20:02:49 37.873608000 -122.270940000 57.2

T 2017-11-26 20:02:50 37.873596000 -122.271020000 56.0

T 2017-11-26 20:02:51 37.873590000 -122.271100000 54.8

T 2017-11-26 20:02:52 37.873580000 -122.271200000 54.4

T 2017-11-26 20:02:53 37.873570000 -122.271300000 54.4

T 2017-11-26 20:02:54 37.873558000 -122.271410000 54.3

T 2017-11-26 20:02:55 37.873543000 -122.271520000 54.1

T 2017-11-26 20:02:56 37.873535000 -122.271620000 51.5

T 2017-11-26 20:02:57 37.873520000 -122.271740000 50.3

T 2017-11-26 20:02:58 37.873510000 -122.271870000 51.3

T 2017-11-26 20:03:00 37.873474000 -122.272100000 52.6

T 2017-11-26 20:03:01 37.873463000 -122.272220000 51.2

T 2017-11-26 20:03:02 37.873455000 -122.272330000 50.4

T 2017-11-26 20:03:03 37.873447000 -122.272450000 49.9

T 2017-11-26 20:03:04 37.873440000 -122.272570000 49.6

T 2017-11-26 20:03:05 37.873432000 -122.272670000 50.0

T 2017-11-26 20:03:06 37.873425000 -122.272740000 49.8

T 2017-11-26 20:03:07 37.873420000 -122.272804000 49.7
T 2017-11-26 20:03:08 37.873417000 -122.272860000 49.9

T 2017-11-26 20:03:13 37.873436000 -122.272896000 49.9

T 2017-11-26 20:03:44 37.873432000 -122.272964000 49.3

T 2017-11-26 20:03:45 37.873420000 -122.273026000 50.6

T 2017-11-26 20:03:46 37.873413000 -122.273080000 50.7

T 2017-11-26 20:03:47 37.873410000 -122.273125000 51.2

T 2017-11-26 20:03:48 37.873413000 -122.273180000 50.6

T 2017-11-26 20:03:49 37.873420000 -122.273224000 49.4

T 2017-11-26 20:03:50 37.873447000 -122.273254000 48.4

T 2017-11-26 20:03:52 37.873524000 -122.273300000 48.4

T 2017-11-26 20:03:53 37.873642000 -122.273254000 48.7

T 2017-11-26 20:03:54 37.873700000 -122.273260000 49.2

T 2017-11-26 20:03:55 37.873753000 -122.273270000 49.9

T 2017-11-26 20:03:56 37.873806000 -122.273270000 49.7

T 2017-11-26 20:03:57 37.873860000 -122.273270000 49.4

T 2017-11-26 20:03:58 37.873913000 -122.273270000 49.7

T 2017-11-26 20:03:59 37.873947000 -122.273280000 49.2

T 2017-11-26 20:04:00 37.873993000 -122.273285000 49.6

T 2017-11-26 20:04:02 37.874054000 -122.273285000 49.7

T 2017-11-26 20:04:03 37.874080000 -122.273290000 49.7

T 2017-11-26 20:04:05 37.874120000 -122.273290000 49.8

T 2017-11-26 20:04:10 37.874150000 -122.273300000 50.2

T 2017-11-26 20:04:12 37.874180000 -122.273320000 50.2

T 2017-11-26 20:04:14 37.874214000 -122.273384000 51.0

T 2017-11-26 20:04:15 37.874218000 -122.273445000 51.0

T 2017-11-26 20:04:16 37.874210000 -122.273500000 50.8

T 2017-11-26 20:04:17 37.874180000 -122.273575000 50.5

T 2017-11-26 20:04:18 37.874170000 -122.273636000 49.5

T 2017-11-26 20:04:20 37.874146000 -122.273760000 49.1

T 2017-11-26 20:04:21 37.874130000 -122.273820000 50.8
T 2017-11-26 20:04:22 37.874115000 -122.273880000 51.2

T 2017-11-26 20:04:24 37.874100000 -122.273980000 49.7

T 2017-11-26 20:04:25 37.874092000 -122.274030000 49.7

T 2017-11-26 20:04:26 37.874090000 -122.274086000 49.8

T 2017-11-26 20:04:27 37.874084000 -122.274140000 49.1

T 2017-11-26 20:04:28 37.874084000 -122.274190000 48.0

T 2017-11-26 20:04:29 37.874084000 -122.274250000 49.0

T 2017-11-26 20:04:32 37.874060000 -122.274400000 47.2

T 2017-11-26 20:04:33 37.874050000 -122.274445000 45.5

T 2017-11-26 20:04:34 37.874046000 -122.274490000 45.0

T 2017-11-26 20:04:35 37.874040000 -122.274540000 44.6

T 2017-11-26 20:04:36 37.874035000 -122.274590000 43.6

T 2017-11-26 20:04:37 37.874030000 -122.274640000 43.6

T 2017-11-26 20:04:39 37.874027000 -122.274710000 44.2

T 2017-11-26 20:04:41 37.874020000 -122.274765000 44.7

T 2017-11-26 20:04:43 37.874004000 -122.274820000 42.2

T 2017-11-26 20:04:45 37.874000000 -122.274860000 44.4

T 2017-11-26 20:04:48 37.873997000 -122.274900000 44.1

T 2017-11-26 20:04:51 37.873980000 -122.274980000 43.1

T 2017-11-26 20:04:53 37.873962000 -122.275020000 44.3

T 2017-11-26 20:05:00 37.873947000 -122.275000000 47.3

T 2017-11-26 20:05:12 37.873955000 -122.274956000 45.8

T 2017-11-26 20:05:14 37.873960000 -122.274900000 45.4

T 2017-11-26 20:05:17 37.873962000 -122.274870000 45.3